<?xml version="1.0" encoding="UTF-8" standalone="no" ?>
<gpx xmlns="http://www.topografix.com/GPX/1/1" xmlns:xsi="http://www.w3.org/2001/XMLSchema-instance" xsi:schemaLocation="http://www.topografix.com/GPX/1/1 http://www.topografix.com/GPX/1/1/gpx.xsd" version="1.1" creator="VisuGPX - https://www.visugpx.com">
  <metadata>
    <name>Cléden-Cap-Sizun</name>
    <desc><![CDATA[Pointe de Brézellec  Pointe de Penharn]]></desc>
  </metadata>
  <trk>
    <name><![CDATA[20140904 CLEDEN-CAP-SIZUN]]></name>
    <trkseg>
      <trkpt lat="48.04844" lon="-4.65017">
        <ele>53</ele>
        <time>2014-09-04T08:06:32Z</time>
      </trkpt>
      <trkpt lat="48.04844" lon="-4.65017">
        <ele>53</ele>
        <time>2014-09-04T08:06:58Z</time>
      </trkpt>
      <trkpt lat="48.04843" lon="-4.65011">
        <ele>53</ele>
        <time>2014-09-04T08:07:17Z</time>
      </trkpt>
      <trkpt lat="48.04843" lon="-4.64998">
        <ele>53</ele>
        <time>2014-09-04T08:07:29Z</time>
      </trkpt>
      <trkpt lat="48.04824" lon="-4.64996">
        <ele>51</ele>
        <time>2014-09-04T08:07:47Z</time>
      </trkpt>
      <trkpt lat="48.04811" lon="-4.64999">
        <ele>50</ele>
        <time>2014-09-04T08:07:59Z</time>
      </trkpt>
      <trkpt lat="48.04809" lon="-4.65025">
        <ele>50</ele>
        <time>2014-09-04T08:08:14Z</time>
      </trkpt>
      <trkpt lat="48.04809" lon="-4.65051">
        <ele>49</ele>
        <time>2014-09-04T08:08:29Z</time>
      </trkpt>
      <trkpt lat="48.04809" lon="-4.65064">
        <ele>50</ele>
        <time>2014-09-04T08:08:39Z</time>
      </trkpt>
      <trkpt lat="48.04809" lon="-4.65073">
        <ele>50</ele>
        <time>2014-09-04T08:08:44Z</time>
      </trkpt>
      <trkpt lat="48.04804" lon="-4.65104">
        <ele>49</ele>
        <time>2014-09-04T08:09:01Z</time>
      </trkpt>
      <trkpt lat="48.048" lon="-4.65126">
        <ele>49</ele>
        <time>2014-09-04T08:09:14Z</time>
      </trkpt>
      <trkpt lat="48.04797" lon="-4.65155">
        <ele>49</ele>
        <time>2014-09-04T08:09:30Z</time>
      </trkpt>
      <trkpt lat="48.04795" lon="-4.65185">
        <ele>48</ele>
        <time>2014-09-04T08:09:46Z</time>
      </trkpt>
      <trkpt lat="48.04791" lon="-4.65217">
        <ele>47</ele>
        <time>2014-09-04T08:10:04Z</time>
      </trkpt>
      <trkpt lat="48.04787" lon="-4.65244">
        <ele>47</ele>
        <time>2014-09-04T08:10:18Z</time>
      </trkpt>
      <trkpt lat="48.04784" lon="-4.65279">
        <ele>46</ele>
        <time>2014-09-04T08:10:35Z</time>
      </trkpt>
      <trkpt lat="48.04777" lon="-4.65309">
        <ele>45</ele>
        <time>2014-09-04T08:10:51Z</time>
      </trkpt>
      <trkpt lat="48.04773" lon="-4.65339">
        <ele>45</ele>
        <time>2014-09-04T08:11:06Z</time>
      </trkpt>
      <trkpt lat="48.04773" lon="-4.65371">
        <ele>46</ele>
        <time>2014-09-04T08:11:22Z</time>
      </trkpt>
      <trkpt lat="48.04769" lon="-4.65391">
        <ele>46</ele>
        <time>2014-09-04T08:11:35Z</time>
      </trkpt>
      <trkpt lat="48.04753" lon="-4.65408">
        <ele>46</ele>
        <time>2014-09-04T08:11:51Z</time>
      </trkpt>
      <trkpt lat="48.04735" lon="-4.65421">
        <ele>44</ele>
        <time>2014-09-04T08:12:07Z</time>
      </trkpt>
      <trkpt lat="48.04722" lon="-4.65429">
        <ele>44</ele>
        <time>2014-09-04T08:12:19Z</time>
      </trkpt>
      <trkpt lat="48.04704" lon="-4.65447">
        <ele>43</ele>
        <time>2014-09-04T08:12:36Z</time>
      </trkpt>
      <trkpt lat="48.04701" lon="-4.6545">
        <ele>43</ele>
        <time>2014-09-04T08:12:39Z</time>
      </trkpt>
      <trkpt lat="48.04695" lon="-4.65477">
        <ele>42</ele>
        <time>2014-09-04T08:12:55Z</time>
      </trkpt>
      <trkpt lat="48.04694" lon="-4.65481">
        <ele>42</ele>
        <time>2014-09-04T08:12:57Z</time>
      </trkpt>
      <trkpt lat="48.04692" lon="-4.65492">
        <ele>42</ele>
        <time>2014-09-04T08:13:03Z</time>
      </trkpt>
      <trkpt lat="48.04689" lon="-4.65518">
        <ele>41</ele>
        <time>2014-09-04T08:13:19Z</time>
      </trkpt>
      <trkpt lat="48.04686" lon="-4.65546">
        <ele>40</ele>
        <time>2014-09-04T08:13:34Z</time>
      </trkpt>
      <trkpt lat="48.04684" lon="-4.65577">
        <ele>39</ele>
        <time>2014-09-04T08:13:52Z</time>
      </trkpt>
      <trkpt lat="48.04681" lon="-4.65608">
        <ele>38</ele>
        <time>2014-09-04T08:14:09Z</time>
      </trkpt>
      <trkpt lat="48.04677" lon="-4.65647">
        <ele>38</ele>
        <time>2014-09-04T08:14:30Z</time>
      </trkpt>
      <trkpt lat="48.0467" lon="-4.6568">
        <ele>35</ele>
        <time>2014-09-04T08:14:49Z</time>
      </trkpt>
      <trkpt lat="48.04667" lon="-4.65712">
        <ele>34</ele>
        <time>2014-09-04T08:15:08Z</time>
      </trkpt>
      <trkpt lat="48.04664" lon="-4.65747">
        <ele>30</ele>
        <time>2014-09-04T08:15:28Z</time>
      </trkpt>
      <trkpt lat="48.04659" lon="-4.6578">
        <ele>29</ele>
        <time>2014-09-04T08:15:46Z</time>
      </trkpt>
      <trkpt lat="48.04652" lon="-4.65816">
        <ele>30</ele>
        <time>2014-09-04T08:16:06Z</time>
      </trkpt>
      <trkpt lat="48.04649" lon="-4.6584">
        <ele>31</ele>
        <time>2014-09-04T08:16:20Z</time>
      </trkpt>
      <trkpt lat="48.04648" lon="-4.65848">
        <ele>31</ele>
        <time>2014-09-04T08:16:25Z</time>
      </trkpt>
      <trkpt lat="48.04647" lon="-4.65862">
        <ele>31</ele>
        <time>2014-09-04T08:16:34Z</time>
      </trkpt>
      <trkpt lat="48.04645" lon="-4.6589">
        <ele>32</ele>
        <time>2014-09-04T08:16:49Z</time>
      </trkpt>
      <trkpt lat="48.04642" lon="-4.6592">
        <ele>34</ele>
        <time>2014-09-04T08:17:05Z</time>
      </trkpt>
      <trkpt lat="48.04639" lon="-4.65948">
        <ele>34</ele>
        <time>2014-09-04T08:17:21Z</time>
      </trkpt>
      <trkpt lat="48.04636" lon="-4.65978">
        <ele>35</ele>
        <time>2014-09-04T08:17:37Z</time>
      </trkpt>
      <trkpt lat="48.04635" lon="-4.66008">
        <ele>37</ele>
        <time>2014-09-04T08:17:53Z</time>
      </trkpt>
      <trkpt lat="48.04637" lon="-4.66039">
        <ele>37</ele>
        <time>2014-09-04T08:18:09Z</time>
      </trkpt>
      <trkpt lat="48.0464" lon="-4.66071">
        <ele>38</ele>
        <time>2014-09-04T08:18:26Z</time>
      </trkpt>
      <trkpt lat="48.04644" lon="-4.66104">
        <ele>40</ele>
        <time>2014-09-04T08:18:44Z</time>
      </trkpt>
      <trkpt lat="48.04649" lon="-4.66142">
        <ele>40</ele>
        <time>2014-09-04T08:19:03Z</time>
      </trkpt>
      <trkpt lat="48.04651" lon="-4.66171">
        <ele>41</ele>
        <time>2014-09-04T08:19:19Z</time>
      </trkpt>
      <trkpt lat="48.0465" lon="-4.66186">
        <ele>40</ele>
        <time>2014-09-04T08:19:27Z</time>
      </trkpt>
      <trkpt lat="48.04646" lon="-4.66215">
        <ele>39</ele>
        <time>2014-09-04T08:19:43Z</time>
      </trkpt>
      <trkpt lat="48.04649" lon="-4.66246">
        <ele>40</ele>
        <time>2014-09-04T08:20:00Z</time>
      </trkpt>
      <trkpt lat="48.0465" lon="-4.66248">
        <ele>40</ele>
        <time>2014-09-04T08:20:02Z</time>
      </trkpt>
      <trkpt lat="48.04659" lon="-4.66254">
        <ele>40</ele>
        <time>2014-09-04T08:20:09Z</time>
      </trkpt>
      <trkpt lat="48.04676" lon="-4.66269">
        <ele>42</ele>
        <time>2014-09-04T08:20:24Z</time>
      </trkpt>
      <trkpt lat="48.04674" lon="-4.66298">
        <ele>42</ele>
        <time>2014-09-04T08:20:41Z</time>
      </trkpt>
      <trkpt lat="48.04665" lon="-4.66333">
        <ele>41</ele>
        <time>2014-09-04T08:21:00Z</time>
      </trkpt>
      <trkpt lat="48.04654" lon="-4.66369">
        <ele>39</ele>
        <time>2014-09-04T08:21:20Z</time>
      </trkpt>
      <trkpt lat="48.04652" lon="-4.66406">
        <ele>39</ele>
        <time>2014-09-04T08:21:39Z</time>
      </trkpt>
      <trkpt lat="48.04653" lon="-4.66434">
        <ele>39</ele>
        <time>2014-09-04T08:21:55Z</time>
      </trkpt>
      <trkpt lat="48.04654" lon="-4.66463">
        <ele>39</ele>
        <time>2014-09-04T08:22:09Z</time>
      </trkpt>
      <trkpt lat="48.04658" lon="-4.66492">
        <ele>41</ele>
        <time>2014-09-04T08:22:25Z</time>
      </trkpt>
      <trkpt lat="48.04666" lon="-4.66525">
        <ele>40</ele>
        <time>2014-09-04T08:22:43Z</time>
      </trkpt>
      <trkpt lat="48.04668" lon="-4.66553">
        <ele>43</ele>
        <time>2014-09-04T08:22:58Z</time>
      </trkpt>
      <trkpt lat="48.04663" lon="-4.66572">
        <ele>40</ele>
        <time>2014-09-04T08:23:09Z</time>
      </trkpt>
      <trkpt lat="48.04661" lon="-4.666">
        <ele>40</ele>
        <time>2014-09-04T08:23:23Z</time>
      </trkpt>
      <trkpt lat="48.04661" lon="-4.66635">
        <ele>39</ele>
        <time>2014-09-04T08:23:41Z</time>
      </trkpt>
      <trkpt lat="48.04663" lon="-4.66665">
        <ele>41</ele>
        <time>2014-09-04T08:23:56Z</time>
      </trkpt>
      <trkpt lat="48.04667" lon="-4.66699">
        <ele>40</ele>
        <time>2014-09-04T08:24:13Z</time>
      </trkpt>
      <trkpt lat="48.0467" lon="-4.66727">
        <ele>42</ele>
        <time>2014-09-04T08:24:30Z</time>
      </trkpt>
      <trkpt lat="48.04676" lon="-4.66755">
        <ele>42</ele>
        <time>2014-09-04T08:24:45Z</time>
      </trkpt>
      <trkpt lat="48.04679" lon="-4.6677">
        <ele>42</ele>
        <time>2014-09-04T08:24:58Z</time>
      </trkpt>
      <trkpt lat="48.04685" lon="-4.66803">
        <ele>42</ele>
        <time>2014-09-04T08:25:15Z</time>
      </trkpt>
      <trkpt lat="48.04696" lon="-4.66834">
        <ele>41</ele>
        <time>2014-09-04T08:25:33Z</time>
      </trkpt>
      <trkpt lat="48.04705" lon="-4.66859">
        <ele>41</ele>
        <time>2014-09-04T08:25:49Z</time>
      </trkpt>
      <trkpt lat="48.04713" lon="-4.6689">
        <ele>41</ele>
        <time>2014-09-04T08:26:06Z</time>
      </trkpt>
      <trkpt lat="48.0472" lon="-4.66918">
        <ele>39</ele>
        <time>2014-09-04T08:26:22Z</time>
      </trkpt>
      <trkpt lat="48.04725" lon="-4.66946">
        <ele>39</ele>
        <time>2014-09-04T08:26:38Z</time>
      </trkpt>
      <trkpt lat="48.04727" lon="-4.66966">
        <ele>39</ele>
        <time>2014-09-04T08:26:51Z</time>
      </trkpt>
      <trkpt lat="48.04729" lon="-4.66986">
        <ele>39</ele>
        <time>2014-09-04T08:27:05Z</time>
      </trkpt>
      <trkpt lat="48.04728" lon="-4.67009">
        <ele>37</ele>
        <time>2014-09-04T08:27:18Z</time>
      </trkpt>
      <trkpt lat="48.04728" lon="-4.67012">
        <ele>37</ele>
        <time>2014-09-04T08:27:19Z</time>
      </trkpt>
      <trkpt lat="48.04726" lon="-4.67018">
        <ele>37</ele>
        <time>2014-09-04T08:27:24Z</time>
      </trkpt>
      <trkpt lat="48.04727" lon="-4.67024">
        <ele>37</ele>
        <time>2014-09-04T08:27:38Z</time>
      </trkpt>
      <trkpt lat="48.04728" lon="-4.6704">
        <ele>37</ele>
        <time>2014-09-04T08:27:48Z</time>
      </trkpt>
      <trkpt lat="48.04726" lon="-4.67043">
        <ele>36</ele>
        <time>2014-09-04T08:28:01Z</time>
      </trkpt>
      <trkpt lat="48.04725" lon="-4.6705">
        <ele>36</ele>
        <time>2014-09-04T08:28:14Z</time>
      </trkpt>
      <trkpt lat="48.04723" lon="-4.67051">
        <ele>36</ele>
        <time>2014-09-04T08:28:16Z</time>
      </trkpt>
      <trkpt lat="48.04719" lon="-4.67051">
        <ele>36</ele>
        <time>2014-09-04T08:28:20Z</time>
      </trkpt>
      <trkpt lat="48.04713" lon="-4.67055">
        <ele>36</ele>
        <time>2014-09-04T08:28:26Z</time>
      </trkpt>
      <trkpt lat="48.04696" lon="-4.67068">
        <ele>36</ele>
        <time>2014-09-04T08:28:41Z</time>
      </trkpt>
      <trkpt lat="48.04687" lon="-4.67077">
        <ele>35</ele>
        <time>2014-09-04T08:28:51Z</time>
      </trkpt>
      <trkpt lat="48.04687" lon="-4.67078">
        <ele>35</ele>
        <time>2014-09-04T08:28:52Z</time>
      </trkpt>
      <trkpt lat="48.04685" lon="-4.67101">
        <ele>34</ele>
        <time>2014-09-04T08:29:04Z</time>
      </trkpt>
      <trkpt lat="48.04685" lon="-4.67105">
        <ele>34</ele>
        <time>2014-09-04T08:29:07Z</time>
      </trkpt>
      <trkpt lat="48.04683" lon="-4.6712">
        <ele>34</ele>
        <time>2014-09-04T08:29:16Z</time>
      </trkpt>
      <trkpt lat="48.04673" lon="-4.67152">
        <ele>34</ele>
        <time>2014-09-04T08:29:33Z</time>
      </trkpt>
      <trkpt lat="48.04666" lon="-4.67177">
        <ele>33</ele>
        <time>2014-09-04T08:29:47Z</time>
      </trkpt>
      <trkpt lat="48.04664" lon="-4.67183">
        <ele>32</ele>
        <time>2014-09-04T08:29:50Z</time>
      </trkpt>
      <trkpt lat="48.04666" lon="-4.67198">
        <ele>32</ele>
        <time>2014-09-04T08:29:59Z</time>
      </trkpt>
      <trkpt lat="48.04676" lon="-4.67201">
        <ele>34</ele>
        <time>2014-09-04T08:30:08Z</time>
      </trkpt>
      <trkpt lat="48.04697" lon="-4.67204">
        <ele>34</ele>
        <time>2014-09-04T08:30:25Z</time>
      </trkpt>
      <trkpt lat="48.04719" lon="-4.67207">
        <ele>34</ele>
        <time>2014-09-04T08:30:42Z</time>
      </trkpt>
      <trkpt lat="48.0474" lon="-4.6721">
        <ele>35</ele>
        <time>2014-09-04T08:30:58Z</time>
      </trkpt>
      <trkpt lat="48.04758" lon="-4.67216">
        <ele>37</ele>
        <time>2014-09-04T08:31:14Z</time>
      </trkpt>
      <trkpt lat="48.04775" lon="-4.67221">
        <ele>37</ele>
        <time>2014-09-04T08:31:28Z</time>
      </trkpt>
      <trkpt lat="48.04776" lon="-4.67222">
        <ele>37</ele>
        <time>2014-09-04T08:31:29Z</time>
      </trkpt>
      <trkpt lat="48.0479" lon="-4.67233">
        <ele>38</ele>
        <time>2014-09-04T08:31:42Z</time>
      </trkpt>
      <trkpt lat="48.04801" lon="-4.67251">
        <ele>39</ele>
        <time>2014-09-04T08:31:55Z</time>
      </trkpt>
      <trkpt lat="48.04808" lon="-4.67272">
        <ele>39</ele>
        <time>2014-09-04T08:32:10Z</time>
      </trkpt>
      <trkpt lat="48.04808" lon="-4.67273">
        <ele>39</ele>
        <time>2014-09-04T08:32:11Z</time>
      </trkpt>
      <trkpt lat="48.04811" lon="-4.67279">
        <ele>39</ele>
        <time>2014-09-04T08:32:15Z</time>
      </trkpt>
      <trkpt lat="48.04818" lon="-4.67308">
        <ele>40</ele>
        <time>2014-09-04T08:32:32Z</time>
      </trkpt>
      <trkpt lat="48.04821" lon="-4.67337">
        <ele>40</ele>
        <time>2014-09-04T08:32:48Z</time>
      </trkpt>
      <trkpt lat="48.04822" lon="-4.67366">
        <ele>40</ele>
        <time>2014-09-04T08:33:03Z</time>
      </trkpt>
      <trkpt lat="48.04823" lon="-4.67394">
        <ele>41</ele>
        <time>2014-09-04T08:33:18Z</time>
      </trkpt>
      <trkpt lat="48.04826" lon="-4.6741">
        <ele>41</ele>
        <time>2014-09-04T08:33:32Z</time>
      </trkpt>
      <trkpt lat="48.04826" lon="-4.67412">
        <ele>41</ele>
        <time>2014-09-04T08:33:36Z</time>
      </trkpt>
      <trkpt lat="48.04826" lon="-4.67417">
        <ele>42</ele>
        <time>2014-09-04T08:33:49Z</time>
      </trkpt>
      <trkpt lat="48.04827" lon="-4.67415">
        <ele>41</ele>
        <time>2014-09-04T08:34:14Z</time>
      </trkpt>
      <trkpt lat="48.04824" lon="-4.67406">
        <ele>41</ele>
        <time>2014-09-04T08:34:29Z</time>
      </trkpt>
      <trkpt lat="48.04825" lon="-4.67404">
        <ele>41</ele>
        <time>2014-09-04T08:34:46Z</time>
      </trkpt>
      <trkpt lat="48.04826" lon="-4.67406">
        <ele>41</ele>
        <time>2014-09-04T08:35:04Z</time>
      </trkpt>
      <trkpt lat="48.04834" lon="-4.67416">
        <ele>42</ele>
        <time>2014-09-04T08:35:16Z</time>
      </trkpt>
      <trkpt lat="48.04841" lon="-4.67414">
        <ele>42</ele>
        <time>2014-09-04T08:35:23Z</time>
      </trkpt>
      <trkpt lat="48.04858" lon="-4.67407">
        <ele>43</ele>
        <time>2014-09-04T08:35:39Z</time>
      </trkpt>
      <trkpt lat="48.04867" lon="-4.67403">
        <ele>43</ele>
        <time>2014-09-04T08:35:49Z</time>
      </trkpt>
      <trkpt lat="48.04881" lon="-4.674">
        <ele>43</ele>
        <time>2014-09-04T08:36:00Z</time>
      </trkpt>
      <trkpt lat="48.04884" lon="-4.67398">
        <ele>43</ele>
        <time>2014-09-04T08:36:02Z</time>
      </trkpt>
      <trkpt lat="48.04895" lon="-4.67395">
        <ele>43</ele>
        <time>2014-09-04T08:36:14Z</time>
      </trkpt>
      <trkpt lat="48.04913" lon="-4.67386">
        <ele>43</ele>
        <time>2014-09-04T08:36:30Z</time>
      </trkpt>
      <trkpt lat="48.0493" lon="-4.67367">
        <ele>45</ele>
        <time>2014-09-04T08:36:48Z</time>
      </trkpt>
      <trkpt lat="48.04933" lon="-4.6736">
        <ele>45</ele>
        <time>2014-09-04T08:36:54Z</time>
      </trkpt>
      <trkpt lat="48.04939" lon="-4.6735">
        <ele>45</ele>
        <time>2014-09-04T08:37:02Z</time>
      </trkpt>
      <trkpt lat="48.04948" lon="-4.67337">
        <ele>45</ele>
        <time>2014-09-04T08:37:12Z</time>
      </trkpt>
      <trkpt lat="48.04961" lon="-4.67318">
        <ele>45</ele>
        <time>2014-09-04T08:37:26Z</time>
      </trkpt>
      <trkpt lat="48.04975" lon="-4.67317">
        <ele>45</ele>
        <time>2014-09-04T08:37:35Z</time>
      </trkpt>
      <trkpt lat="48.04988" lon="-4.67319">
        <ele>46</ele>
        <time>2014-09-04T08:37:48Z</time>
      </trkpt>
      <trkpt lat="48.05004" lon="-4.67322">
        <ele>47</ele>
        <time>2014-09-04T08:38:02Z</time>
      </trkpt>
      <trkpt lat="48.05024" lon="-4.67329">
        <ele>47</ele>
        <time>2014-09-04T08:38:17Z</time>
      </trkpt>
      <trkpt lat="48.05031" lon="-4.67335">
        <ele>48</ele>
        <time>2014-09-04T08:38:25Z</time>
      </trkpt>
      <trkpt lat="48.05035" lon="-4.67341">
        <ele>48</ele>
        <time>2014-09-04T08:38:30Z</time>
      </trkpt>
      <trkpt lat="48.05035" lon="-4.67348">
        <ele>48</ele>
        <time>2014-09-04T08:38:37Z</time>
      </trkpt>
      <trkpt lat="48.05039" lon="-4.67355">
        <ele>48</ele>
        <time>2014-09-04T08:38:42Z</time>
      </trkpt>
      <trkpt lat="48.05044" lon="-4.67362">
        <ele>48</ele>
        <time>2014-09-04T08:38:56Z</time>
      </trkpt>
      <trkpt lat="48.05055" lon="-4.67363">
        <ele>48</ele>
        <time>2014-09-04T08:39:19Z</time>
      </trkpt>
      <trkpt lat="48.05063" lon="-4.67367">
        <ele>49</ele>
        <time>2014-09-04T08:39:27Z</time>
      </trkpt>
      <trkpt lat="48.05073" lon="-4.67373">
        <ele>49</ele>
        <time>2014-09-04T08:39:41Z</time>
      </trkpt>
      <trkpt lat="48.05092" lon="-4.67385">
        <ele>52</ele>
        <time>2014-09-04T08:39:58Z</time>
      </trkpt>
      <trkpt lat="48.05111" lon="-4.67401">
        <ele>52</ele>
        <time>2014-09-04T08:40:15Z</time>
      </trkpt>
      <trkpt lat="48.0513" lon="-4.67418">
        <ele>53</ele>
        <time>2014-09-04T08:40:31Z</time>
      </trkpt>
      <trkpt lat="48.05138" lon="-4.6743">
        <ele>54</ele>
        <time>2014-09-04T08:40:39Z</time>
      </trkpt>
      <trkpt lat="48.05154" lon="-4.67449">
        <ele>54</ele>
        <time>2014-09-04T08:40:54Z</time>
      </trkpt>
      <trkpt lat="48.05166" lon="-4.67462">
        <ele>54</ele>
        <time>2014-09-04T08:41:08Z</time>
      </trkpt>
      <trkpt lat="48.0518" lon="-4.67476">
        <ele>57</ele>
        <time>2014-09-04T08:41:22Z</time>
      </trkpt>
      <trkpt lat="48.05184" lon="-4.67478">
        <ele>57</ele>
        <time>2014-09-04T08:41:28Z</time>
      </trkpt>
      <trkpt lat="48.0519" lon="-4.6748">
        <ele>57</ele>
        <time>2014-09-04T08:41:33Z</time>
      </trkpt>
      <trkpt lat="48.05205" lon="-4.67493">
        <ele>58</ele>
        <time>2014-09-04T08:41:48Z</time>
      </trkpt>
      <trkpt lat="48.05216" lon="-4.67501">
        <ele>59</ele>
        <time>2014-09-04T08:41:59Z</time>
      </trkpt>
      <trkpt lat="48.05231" lon="-4.67506">
        <ele>59</ele>
        <time>2014-09-04T08:42:14Z</time>
      </trkpt>
      <trkpt lat="48.05247" lon="-4.67508">
        <ele>60</ele>
        <time>2014-09-04T08:42:29Z</time>
      </trkpt>
      <trkpt lat="48.0526" lon="-4.67518">
        <ele>61</ele>
        <time>2014-09-04T08:42:44Z</time>
      </trkpt>
      <trkpt lat="48.05274" lon="-4.6753">
        <ele>62</ele>
        <time>2014-09-04T08:42:58Z</time>
      </trkpt>
      <trkpt lat="48.0529" lon="-4.67547">
        <ele>62</ele>
        <time>2014-09-04T08:43:13Z</time>
      </trkpt>
      <trkpt lat="48.05295" lon="-4.67556">
        <ele>63</ele>
        <time>2014-09-04T08:43:20Z</time>
      </trkpt>
      <trkpt lat="48.05313" lon="-4.67577">
        <ele>64</ele>
        <time>2014-09-04T08:43:36Z</time>
      </trkpt>
      <trkpt lat="48.05328" lon="-4.67593">
        <ele>65</ele>
        <time>2014-09-04T08:43:52Z</time>
      </trkpt>
      <trkpt lat="48.05332" lon="-4.67597">
        <ele>65</ele>
        <time>2014-09-04T08:43:56Z</time>
      </trkpt>
      <trkpt lat="48.05348" lon="-4.67612">
        <ele>67</ele>
        <time>2014-09-04T08:44:11Z</time>
      </trkpt>
      <trkpt lat="48.05364" lon="-4.67625">
        <ele>67</ele>
        <time>2014-09-04T08:44:26Z</time>
      </trkpt>
      <trkpt lat="48.05382" lon="-4.67627">
        <ele>67</ele>
        <time>2014-09-04T08:44:41Z</time>
      </trkpt>
      <trkpt lat="48.05391" lon="-4.67629">
        <ele>68</ele>
        <time>2014-09-04T08:44:48Z</time>
      </trkpt>
      <trkpt lat="48.0541" lon="-4.67634">
        <ele>68</ele>
        <time>2014-09-04T08:45:04Z</time>
      </trkpt>
      <trkpt lat="48.05418" lon="-4.67635">
        <ele>69</ele>
        <time>2014-09-04T08:45:09Z</time>
      </trkpt>
      <trkpt lat="48.05422" lon="-4.67637">
        <ele>70</ele>
        <time>2014-09-04T08:45:13Z</time>
      </trkpt>
      <trkpt lat="48.05427" lon="-4.67637">
        <ele>70</ele>
        <time>2014-09-04T08:45:17Z</time>
      </trkpt>
      <trkpt lat="48.05445" lon="-4.67644">
        <ele>70</ele>
        <time>2014-09-04T08:45:33Z</time>
      </trkpt>
      <trkpt lat="48.05461" lon="-4.6765">
        <ele>70</ele>
        <time>2014-09-04T08:45:47Z</time>
      </trkpt>
      <trkpt lat="48.05485" lon="-4.67659">
        <ele>71</ele>
        <time>2014-09-04T08:46:05Z</time>
      </trkpt>
      <trkpt lat="48.05486" lon="-4.67659">
        <ele>71</ele>
        <time>2014-09-04T08:46:06Z</time>
      </trkpt>
      <trkpt lat="48.05511" lon="-4.67667">
        <ele>71</ele>
        <time>2014-09-04T08:46:26Z</time>
      </trkpt>
      <trkpt lat="48.05538" lon="-4.67676">
        <ele>72</ele>
        <time>2014-09-04T08:46:47Z</time>
      </trkpt>
      <trkpt lat="48.05564" lon="-4.67683">
        <ele>72</ele>
        <time>2014-09-04T08:47:06Z</time>
      </trkpt>
      <trkpt lat="48.05592" lon="-4.6769">
        <ele>73</ele>
        <time>2014-09-04T08:47:27Z</time>
      </trkpt>
      <trkpt lat="48.05614" lon="-4.67698">
        <ele>73</ele>
        <time>2014-09-04T08:47:44Z</time>
      </trkpt>
      <trkpt lat="48.0564" lon="-4.67706">
        <ele>73</ele>
        <time>2014-09-04T08:48:04Z</time>
      </trkpt>
      <trkpt lat="48.05658" lon="-4.67711">
        <ele>73</ele>
        <time>2014-09-04T08:48:19Z</time>
      </trkpt>
      <trkpt lat="48.05659" lon="-4.67707">
        <ele>73</ele>
        <time>2014-09-04T08:48:32Z</time>
      </trkpt>
      <trkpt lat="48.05659" lon="-4.67705">
        <ele>73</ele>
        <time>2014-09-04T08:48:54Z</time>
      </trkpt>
      <trkpt lat="48.05661" lon="-4.67704">
        <ele>73</ele>
        <time>2014-09-04T08:49:10Z</time>
      </trkpt>
      <trkpt lat="48.05665" lon="-4.67706">
        <ele>73</ele>
        <time>2014-09-04T08:49:25Z</time>
      </trkpt>
      <trkpt lat="48.05666" lon="-4.67706">
        <ele>73</ele>
        <time>2014-09-04T08:49:26Z</time>
      </trkpt>
      <trkpt lat="48.05691" lon="-4.67715">
        <ele>71</ele>
        <time>2014-09-04T08:49:46Z</time>
      </trkpt>
      <trkpt lat="48.0571" lon="-4.67723">
        <ele>71</ele>
        <time>2014-09-04T08:50:03Z</time>
      </trkpt>
      <trkpt lat="48.05712" lon="-4.67723">
        <ele>71</ele>
        <time>2014-09-04T08:50:07Z</time>
      </trkpt>
      <trkpt lat="48.05739" lon="-4.67728">
        <ele>70</ele>
        <time>2014-09-04T08:50:29Z</time>
      </trkpt>
      <trkpt lat="48.05766" lon="-4.67736">
        <ele>69</ele>
        <time>2014-09-04T08:50:50Z</time>
      </trkpt>
      <trkpt lat="48.05789" lon="-4.67739">
        <ele>69</ele>
        <time>2014-09-04T08:51:08Z</time>
      </trkpt>
      <trkpt lat="48.05798" lon="-4.67719">
        <ele>68</ele>
        <time>2014-09-04T08:51:23Z</time>
      </trkpt>
      <trkpt lat="48.058" lon="-4.677">
        <ele>68</ele>
        <time>2014-09-04T08:51:37Z</time>
      </trkpt>
      <trkpt lat="48.05806" lon="-4.67677">
        <ele>68</ele>
        <time>2014-09-04T08:51:52Z</time>
      </trkpt>
      <trkpt lat="48.05826" lon="-4.67661">
        <ele>66</ele>
        <time>2014-09-04T08:52:11Z</time>
      </trkpt>
      <trkpt lat="48.05845" lon="-4.67646">
        <ele>64</ele>
        <time>2014-09-04T08:52:28Z</time>
      </trkpt>
      <trkpt lat="48.05857" lon="-4.67633">
        <ele>64</ele>
        <time>2014-09-04T08:52:40Z</time>
      </trkpt>
      <trkpt lat="48.05877" lon="-4.67631">
        <ele>63</ele>
        <time>2014-09-04T08:52:57Z</time>
      </trkpt>
      <trkpt lat="48.05894" lon="-4.67635">
        <ele>63</ele>
        <time>2014-09-04T08:53:11Z</time>
      </trkpt>
      <trkpt lat="48.05919" lon="-4.67634">
        <ele>60</ele>
        <time>2014-09-04T08:53:29Z</time>
      </trkpt>
      <trkpt lat="48.05936" lon="-4.6762">
        <ele>60</ele>
        <time>2014-09-04T08:53:45Z</time>
      </trkpt>
      <trkpt lat="48.05951" lon="-4.67615">
        <ele>60</ele>
        <time>2014-09-04T08:53:57Z</time>
      </trkpt>
      <trkpt lat="48.0597" lon="-4.67615">
        <ele>60</ele>
        <time>2014-09-04T08:54:13Z</time>
      </trkpt>
      <trkpt lat="48.05991" lon="-4.67615">
        <ele>60</ele>
        <time>2014-09-04T08:54:30Z</time>
      </trkpt>
      <trkpt lat="48.06011" lon="-4.67616">
        <ele>53</ele>
        <time>2014-09-04T08:54:46Z</time>
      </trkpt>
      <trkpt lat="48.06028" lon="-4.67617">
        <ele>52</ele>
        <time>2014-09-04T08:55:01Z</time>
      </trkpt>
      <trkpt lat="48.06037" lon="-4.67621">
        <ele>51</ele>
        <time>2014-09-04T08:55:16Z</time>
      </trkpt>
      <trkpt lat="48.06037" lon="-4.67622">
        <ele>51</ele>
        <time>2014-09-04T08:55:45Z</time>
      </trkpt>
      <trkpt lat="48.06038" lon="-4.67621">
        <ele>51</ele>
        <time>2014-09-04T08:56:22Z</time>
      </trkpt>
      <trkpt lat="48.06038" lon="-4.67621">
        <ele>51</ele>
        <time>2014-09-04T08:56:48Z</time>
      </trkpt>
      <trkpt lat="48.06039" lon="-4.67622">
        <ele>51</ele>
        <time>2014-09-04T08:57:23Z</time>
      </trkpt>
      <trkpt lat="48.0604" lon="-4.67623">
        <ele>51</ele>
        <time>2014-09-04T08:57:49Z</time>
      </trkpt>
      <trkpt lat="48.06039" lon="-4.67623">
        <ele>51</ele>
        <time>2014-09-04T08:58:17Z</time>
      </trkpt>
      <trkpt lat="48.06038" lon="-4.67622">
        <ele>51</ele>
        <time>2014-09-04T08:58:45Z</time>
      </trkpt>
      <trkpt lat="48.06039" lon="-4.67621">
        <ele>51</ele>
        <time>2014-09-04T08:59:12Z</time>
      </trkpt>
      <trkpt lat="48.06039" lon="-4.6762">
        <ele>51</ele>
        <time>2014-09-04T08:59:42Z</time>
      </trkpt>
      <trkpt lat="48.06039" lon="-4.67619">
        <ele>51</ele>
        <time>2014-09-04T08:59:59Z</time>
      </trkpt>
      <trkpt lat="48.06039" lon="-4.67617">
        <ele>51</ele>
        <time>2014-09-04T09:00:16Z</time>
      </trkpt>
      <trkpt lat="48.0604" lon="-4.67616">
        <ele>51</ele>
        <time>2014-09-04T09:00:32Z</time>
      </trkpt>
      <trkpt lat="48.06038" lon="-4.67615">
        <ele>51</ele>
        <time>2014-09-04T09:00:47Z</time>
      </trkpt>
      <trkpt lat="48.06038" lon="-4.67613">
        <ele>51</ele>
        <time>2014-09-04T09:01:34Z</time>
      </trkpt>
      <trkpt lat="48.06038" lon="-4.67616">
        <ele>51</ele>
        <time>2014-09-04T09:01:54Z</time>
      </trkpt>
      <trkpt lat="48.06038" lon="-4.67618">
        <ele>51</ele>
        <time>2014-09-04T09:02:20Z</time>
      </trkpt>
      <trkpt lat="48.06039" lon="-4.67617">
        <ele>51</ele>
        <time>2014-09-04T09:02:58Z</time>
      </trkpt>
      <trkpt lat="48.06039" lon="-4.67617">
        <ele>51</ele>
        <time>2014-09-04T09:03:25Z</time>
      </trkpt>
      <trkpt lat="48.06039" lon="-4.67617">
        <ele>51</ele>
        <time>2014-09-04T09:03:55Z</time>
      </trkpt>
      <trkpt lat="48.06038" lon="-4.67617">
        <ele>51</ele>
        <time>2014-09-04T09:04:14Z</time>
      </trkpt>
      <trkpt lat="48.06038" lon="-4.67618">
        <ele>51</ele>
        <time>2014-09-04T09:04:43Z</time>
      </trkpt>
      <trkpt lat="48.06039" lon="-4.67618">
        <ele>51</ele>
        <time>2014-09-04T09:05:08Z</time>
      </trkpt>
      <trkpt lat="48.06044" lon="-4.67603">
        <ele>50</ele>
        <time>2014-09-04T09:05:20Z</time>
      </trkpt>
      <trkpt lat="48.0605" lon="-4.67589">
        <ele>50</ele>
        <time>2014-09-04T09:05:32Z</time>
      </trkpt>
      <trkpt lat="48.06054" lon="-4.67578">
        <ele>49</ele>
        <time>2014-09-04T09:05:47Z</time>
      </trkpt>
      <trkpt lat="48.06056" lon="-4.67574">
        <ele>49</ele>
        <time>2014-09-04T09:06:05Z</time>
      </trkpt>
      <trkpt lat="48.06058" lon="-4.67571">
        <ele>49</ele>
        <time>2014-09-04T09:06:19Z</time>
      </trkpt>
      <trkpt lat="48.0606" lon="-4.67563">
        <ele>49</ele>
        <time>2014-09-04T09:06:32Z</time>
      </trkpt>
      <trkpt lat="48.06062" lon="-4.67554">
        <ele>49</ele>
        <time>2014-09-04T09:06:38Z</time>
      </trkpt>
      <trkpt lat="48.06073" lon="-4.6754">
        <ele>49</ele>
        <time>2014-09-04T09:06:54Z</time>
      </trkpt>
      <trkpt lat="48.0609" lon="-4.67531">
        <ele>46</ele>
        <time>2014-09-04T09:07:10Z</time>
      </trkpt>
      <trkpt lat="48.06102" lon="-4.67526">
        <ele>46</ele>
        <time>2014-09-04T09:07:27Z</time>
      </trkpt>
      <trkpt lat="48.06114" lon="-4.67519">
        <ele>46</ele>
        <time>2014-09-04T09:07:42Z</time>
      </trkpt>
      <trkpt lat="48.06126" lon="-4.67514">
        <ele>46</ele>
        <time>2014-09-04T09:07:57Z</time>
      </trkpt>
      <trkpt lat="48.06131" lon="-4.67511">
        <ele>46</ele>
        <time>2014-09-04T09:08:03Z</time>
      </trkpt>
      <trkpt lat="48.06139" lon="-4.67488">
        <ele>31</ele>
        <time>2014-09-04T09:08:21Z</time>
      </trkpt>
      <trkpt lat="48.06134" lon="-4.67471">
        <ele>30</ele>
        <time>2014-09-04T09:08:38Z</time>
      </trkpt>
      <trkpt lat="48.06129" lon="-4.67464">
        <ele>29</ele>
        <time>2014-09-04T09:08:50Z</time>
      </trkpt>
      <trkpt lat="48.0612" lon="-4.67449">
        <ele>29</ele>
        <time>2014-09-04T09:09:03Z</time>
      </trkpt>
      <trkpt lat="48.06107" lon="-4.67424">
        <ele>30</ele>
        <time>2014-09-04T09:09:20Z</time>
      </trkpt>
      <trkpt lat="48.06092" lon="-4.674">
        <ele>24</ele>
        <time>2014-09-04T09:09:37Z</time>
      </trkpt>
      <trkpt lat="48.06084" lon="-4.67374">
        <ele>19</ele>
        <time>2014-09-04T09:09:53Z</time>
      </trkpt>
      <trkpt lat="48.06081" lon="-4.67368">
        <ele>30</ele>
        <time>2014-09-04T09:10:08Z</time>
      </trkpt>
      <trkpt lat="48.0608" lon="-4.67364">
        <ele>30</ele>
        <time>2014-09-04T09:10:25Z</time>
      </trkpt>
      <trkpt lat="48.06074" lon="-4.6735">
        <ele>27</ele>
        <time>2014-09-04T09:10:35Z</time>
      </trkpt>
      <trkpt lat="48.06072" lon="-4.67337">
        <ele>24</ele>
        <time>2014-09-04T09:10:42Z</time>
      </trkpt>
      <trkpt lat="48.06069" lon="-4.67334">
        <ele>26</ele>
        <time>2014-09-04T09:10:46Z</time>
      </trkpt>
      <trkpt lat="48.06054" lon="-4.6733">
        <ele>26</ele>
        <time>2014-09-04T09:11:00Z</time>
      </trkpt>
      <trkpt lat="48.06053" lon="-4.67327">
        <ele>26</ele>
        <time>2014-09-04T09:11:02Z</time>
      </trkpt>
      <trkpt lat="48.06054" lon="-4.67324">
        <ele>26</ele>
        <time>2014-09-04T09:11:04Z</time>
      </trkpt>
      <trkpt lat="48.06052" lon="-4.67319">
        <ele>27</ele>
        <time>2014-09-04T09:11:09Z</time>
      </trkpt>
      <trkpt lat="48.0605" lon="-4.67312">
        <ele>27</ele>
        <time>2014-09-04T09:11:19Z</time>
      </trkpt>
      <trkpt lat="48.06052" lon="-4.67304">
        <ele>27</ele>
        <time>2014-09-04T09:11:24Z</time>
      </trkpt>
      <trkpt lat="48.06055" lon="-4.67295">
        <ele>26</ele>
        <time>2014-09-04T09:11:36Z</time>
      </trkpt>
      <trkpt lat="48.06055" lon="-4.67294">
        <ele>26</ele>
        <time>2014-09-04T09:11:55Z</time>
      </trkpt>
      <trkpt lat="48.06054" lon="-4.6729">
        <ele>26</ele>
        <time>2014-09-04T09:11:58Z</time>
      </trkpt>
      <trkpt lat="48.06053" lon="-4.67288">
        <ele>26</ele>
        <time>2014-09-04T09:12:00Z</time>
      </trkpt>
      <trkpt lat="48.06051" lon="-4.67276">
        <ele>26</ele>
        <time>2014-09-04T09:12:08Z</time>
      </trkpt>
      <trkpt lat="48.0605" lon="-4.67272">
        <ele>26</ele>
        <time>2014-09-04T09:12:11Z</time>
      </trkpt>
      <trkpt lat="48.0604" lon="-4.67246">
        <ele>25</ele>
        <time>2014-09-04T09:12:28Z</time>
      </trkpt>
      <trkpt lat="48.06037" lon="-4.67238">
        <ele>25</ele>
        <time>2014-09-04T09:12:32Z</time>
      </trkpt>
      <trkpt lat="48.06034" lon="-4.67233">
        <ele>26</ele>
        <time>2014-09-04T09:12:36Z</time>
      </trkpt>
      <trkpt lat="48.06032" lon="-4.67226">
        <ele>25</ele>
        <time>2014-09-04T09:12:50Z</time>
      </trkpt>
      <trkpt lat="48.06033" lon="-4.67226">
        <ele>25</ele>
        <time>2014-09-04T09:13:16Z</time>
      </trkpt>
      <trkpt lat="48.06033" lon="-4.67225">
        <ele>25</ele>
        <time>2014-09-04T09:13:43Z</time>
      </trkpt>
      <trkpt lat="48.06033" lon="-4.67213">
        <ele>25</ele>
        <time>2014-09-04T09:14:00Z</time>
      </trkpt>
      <trkpt lat="48.0602" lon="-4.67183">
        <ele>25</ele>
        <time>2014-09-04T09:14:18Z</time>
      </trkpt>
      <trkpt lat="48.06012" lon="-4.67164">
        <ele>25</ele>
        <time>2014-09-04T09:14:32Z</time>
      </trkpt>
      <trkpt lat="48.06008" lon="-4.67146">
        <ele>25</ele>
        <time>2014-09-04T09:14:44Z</time>
      </trkpt>
      <trkpt lat="48.06011" lon="-4.67125">
        <ele>25</ele>
        <time>2014-09-04T09:14:56Z</time>
      </trkpt>
      <trkpt lat="48.06019" lon="-4.67116">
        <ele>25</ele>
        <time>2014-09-04T09:15:06Z</time>
      </trkpt>
      <trkpt lat="48.06021" lon="-4.67105">
        <ele>25</ele>
        <time>2014-09-04T09:15:20Z</time>
      </trkpt>
      <trkpt lat="48.06022" lon="-4.671">
        <ele>25</ele>
        <time>2014-09-04T09:15:32Z</time>
      </trkpt>
      <trkpt lat="48.06022" lon="-4.67101">
        <ele>25</ele>
        <time>2014-09-04T09:15:52Z</time>
      </trkpt>
      <trkpt lat="48.06022" lon="-4.671">
        <ele>25</ele>
        <time>2014-09-04T09:16:10Z</time>
      </trkpt>
      <trkpt lat="48.06021" lon="-4.671">
        <ele>25</ele>
        <time>2014-09-04T09:16:29Z</time>
      </trkpt>
      <trkpt lat="48.06023" lon="-4.67098">
        <ele>25</ele>
        <time>2014-09-04T09:16:57Z</time>
      </trkpt>
      <trkpt lat="48.06025" lon="-4.67097">
        <ele>25</ele>
        <time>2014-09-04T09:17:12Z</time>
      </trkpt>
      <trkpt lat="48.06029" lon="-4.67088">
        <ele>25</ele>
        <time>2014-09-04T09:17:25Z</time>
      </trkpt>
      <trkpt lat="48.06034" lon="-4.67087">
        <ele>25</ele>
        <time>2014-09-04T09:17:40Z</time>
      </trkpt>
      <trkpt lat="48.06039" lon="-4.67091">
        <ele>25</ele>
        <time>2014-09-04T09:17:51Z</time>
      </trkpt>
      <trkpt lat="48.06049" lon="-4.67102">
        <ele>25</ele>
        <time>2014-09-04T09:18:04Z</time>
      </trkpt>
      <trkpt lat="48.06056" lon="-4.67114">
        <ele>24</ele>
        <time>2014-09-04T09:18:17Z</time>
      </trkpt>
      <trkpt lat="48.06063" lon="-4.67117">
        <ele>24</ele>
        <time>2014-09-04T09:18:25Z</time>
      </trkpt>
      <trkpt lat="48.06067" lon="-4.67116">
        <ele>24</ele>
        <time>2014-09-04T09:18:30Z</time>
      </trkpt>
      <trkpt lat="48.06083" lon="-4.67122">
        <ele>23</ele>
        <time>2014-09-04T09:18:45Z</time>
      </trkpt>
      <trkpt lat="48.06097" lon="-4.67131">
        <ele>18</ele>
        <time>2014-09-04T09:18:59Z</time>
      </trkpt>
      <trkpt lat="48.06115" lon="-4.67139">
        <ele>17</ele>
        <time>2014-09-04T09:19:15Z</time>
      </trkpt>
      <trkpt lat="48.06135" lon="-4.67133">
        <ele>16</ele>
        <time>2014-09-04T09:19:32Z</time>
      </trkpt>
      <trkpt lat="48.0614" lon="-4.67131">
        <ele>16</ele>
        <time>2014-09-04T09:19:36Z</time>
      </trkpt>
      <trkpt lat="48.06144" lon="-4.67128">
        <ele>16</ele>
        <time>2014-09-04T09:19:40Z</time>
      </trkpt>
      <trkpt lat="48.0616" lon="-4.67111">
        <ele>18</ele>
        <time>2014-09-04T09:19:58Z</time>
      </trkpt>
      <trkpt lat="48.06162" lon="-4.67107">
        <ele>18</ele>
        <time>2014-09-04T09:20:05Z</time>
      </trkpt>
      <trkpt lat="48.06168" lon="-4.67094">
        <ele>18</ele>
        <time>2014-09-04T09:20:18Z</time>
      </trkpt>
      <trkpt lat="48.06177" lon="-4.67069">
        <ele>24</ele>
        <time>2014-09-04T09:20:36Z</time>
      </trkpt>
      <trkpt lat="48.06187" lon="-4.67043">
        <ele>27</ele>
        <time>2014-09-04T09:20:55Z</time>
      </trkpt>
      <trkpt lat="48.06189" lon="-4.67041">
        <ele>27</ele>
        <time>2014-09-04T09:20:57Z</time>
      </trkpt>
      <trkpt lat="48.06204" lon="-4.67028">
        <ele>27</ele>
        <time>2014-09-04T09:21:13Z</time>
      </trkpt>
      <trkpt lat="48.06205" lon="-4.67025">
        <ele>28</ele>
        <time>2014-09-04T09:21:15Z</time>
      </trkpt>
      <trkpt lat="48.06208" lon="-4.6701">
        <ele>28</ele>
        <time>2014-09-04T09:21:24Z</time>
      </trkpt>
      <trkpt lat="48.06209" lon="-4.66994">
        <ele>36</ele>
        <time>2014-09-04T09:21:39Z</time>
      </trkpt>
      <trkpt lat="48.06215" lon="-4.66995">
        <ele>35</ele>
        <time>2014-09-04T09:21:53Z</time>
      </trkpt>
      <trkpt lat="48.06214" lon="-4.66999">
        <ele>35</ele>
        <time>2014-09-04T09:22:06Z</time>
      </trkpt>
      <trkpt lat="48.06214" lon="-4.67004">
        <ele>29</ele>
        <time>2014-09-04T09:22:11Z</time>
      </trkpt>
      <trkpt lat="48.0622" lon="-4.67001">
        <ele>29</ele>
        <time>2014-09-04T09:22:23Z</time>
      </trkpt>
      <trkpt lat="48.06226" lon="-4.67011">
        <ele>28</ele>
        <time>2014-09-04T09:22:37Z</time>
      </trkpt>
      <trkpt lat="48.0623" lon="-4.67015">
        <ele>28</ele>
        <time>2014-09-04T09:22:42Z</time>
      </trkpt>
      <trkpt lat="48.06233" lon="-4.67021">
        <ele>28</ele>
        <time>2014-09-04T09:22:47Z</time>
      </trkpt>
      <trkpt lat="48.06239" lon="-4.6704">
        <ele>26</ele>
        <time>2014-09-04T09:23:02Z</time>
      </trkpt>
      <trkpt lat="48.06243" lon="-4.67057">
        <ele>24</ele>
        <time>2014-09-04T09:23:15Z</time>
      </trkpt>
      <trkpt lat="48.06245" lon="-4.67067">
        <ele>22</ele>
        <time>2014-09-04T09:23:28Z</time>
      </trkpt>
      <trkpt lat="48.06245" lon="-4.67061">
        <ele>23</ele>
        <time>2014-09-04T09:23:32Z</time>
      </trkpt>
      <trkpt lat="48.06246" lon="-4.67054">
        <ele>24</ele>
        <time>2014-09-04T09:23:36Z</time>
      </trkpt>
      <trkpt lat="48.06251" lon="-4.67037">
        <ele>30</ele>
        <time>2014-09-04T09:23:50Z</time>
      </trkpt>
      <trkpt lat="48.06255" lon="-4.67022">
        <ele>32</ele>
        <time>2014-09-04T09:24:02Z</time>
      </trkpt>
      <trkpt lat="48.06258" lon="-4.67028">
        <ele>31</ele>
        <time>2014-09-04T09:24:10Z</time>
      </trkpt>
      <trkpt lat="48.06261" lon="-4.67048">
        <ele>30</ele>
        <time>2014-09-04T09:24:25Z</time>
      </trkpt>
      <trkpt lat="48.06267" lon="-4.67071">
        <ele>27</ele>
        <time>2014-09-04T09:24:39Z</time>
      </trkpt>
      <trkpt lat="48.06275" lon="-4.67081">
        <ele>28</ele>
        <time>2014-09-04T09:24:49Z</time>
      </trkpt>
      <trkpt lat="48.06289" lon="-4.6708">
        <ele>31</ele>
        <time>2014-09-04T09:25:05Z</time>
      </trkpt>
      <trkpt lat="48.06298" lon="-4.67078">
        <ele>32</ele>
        <time>2014-09-04T09:25:18Z</time>
      </trkpt>
      <trkpt lat="48.06309" lon="-4.67075">
        <ele>34</ele>
        <time>2014-09-04T09:25:31Z</time>
      </trkpt>
      <trkpt lat="48.0632" lon="-4.67072">
        <ele>35</ele>
        <time>2014-09-04T09:25:44Z</time>
      </trkpt>
      <trkpt lat="48.06333" lon="-4.67078">
        <ele>38</ele>
        <time>2014-09-04T09:25:59Z</time>
      </trkpt>
      <trkpt lat="48.06336" lon="-4.6708">
        <ele>38</ele>
        <time>2014-09-04T09:26:02Z</time>
      </trkpt>
      <trkpt lat="48.0635" lon="-4.67099">
        <ele>29</ele>
        <time>2014-09-04T09:26:18Z</time>
      </trkpt>
      <trkpt lat="48.06361" lon="-4.67114">
        <ele>26</ele>
        <time>2014-09-04T09:26:31Z</time>
      </trkpt>
      <trkpt lat="48.0637" lon="-4.6712">
        <ele>25</ele>
        <time>2014-09-04T09:26:42Z</time>
      </trkpt>
      <trkpt lat="48.06376" lon="-4.67116">
        <ele>25</ele>
        <time>2014-09-04T09:26:53Z</time>
      </trkpt>
      <trkpt lat="48.06377" lon="-4.67108">
        <ele>26</ele>
        <time>2014-09-04T09:27:08Z</time>
      </trkpt>
      <trkpt lat="48.06377" lon="-4.67104">
        <ele>26</ele>
        <time>2014-09-04T09:27:21Z</time>
      </trkpt>
      <trkpt lat="48.0638" lon="-4.67095">
        <ele>27</ele>
        <time>2014-09-04T09:27:30Z</time>
      </trkpt>
      <trkpt lat="48.06378" lon="-4.67091">
        <ele>27</ele>
        <time>2014-09-04T09:27:43Z</time>
      </trkpt>
      <trkpt lat="48.06379" lon="-4.67092">
        <ele>27</ele>
        <time>2014-09-04T09:28:02Z</time>
      </trkpt>
      <trkpt lat="48.06379" lon="-4.67093">
        <ele>27</ele>
        <time>2014-09-04T09:28:23Z</time>
      </trkpt>
      <trkpt lat="48.06378" lon="-4.67094">
        <ele>27</ele>
        <time>2014-09-04T09:28:42Z</time>
      </trkpt>
      <trkpt lat="48.06378" lon="-4.67093">
        <ele>27</ele>
        <time>2014-09-04T09:29:08Z</time>
      </trkpt>
      <trkpt lat="48.06377" lon="-4.67096">
        <ele>27</ele>
        <time>2014-09-04T09:29:37Z</time>
      </trkpt>
      <trkpt lat="48.06377" lon="-4.67094">
        <ele>27</ele>
        <time>2014-09-04T09:30:03Z</time>
      </trkpt>
      <trkpt lat="48.06377" lon="-4.67094">
        <ele>27</ele>
        <time>2014-09-04T09:30:28Z</time>
      </trkpt>
      <trkpt lat="48.06378" lon="-4.67094">
        <ele>27</ele>
        <time>2014-09-04T09:30:57Z</time>
      </trkpt>
      <trkpt lat="48.06378" lon="-4.67095">
        <ele>27</ele>
        <time>2014-09-04T09:31:24Z</time>
      </trkpt>
      <trkpt lat="48.06379" lon="-4.67094">
        <ele>27</ele>
        <time>2014-09-04T09:31:53Z</time>
      </trkpt>
      <trkpt lat="48.06379" lon="-4.67094">
        <ele>27</ele>
        <time>2014-09-04T09:32:17Z</time>
      </trkpt>
      <trkpt lat="48.06384" lon="-4.67087">
        <ele>27</ele>
        <time>2014-09-04T09:32:33Z</time>
      </trkpt>
      <trkpt lat="48.06392" lon="-4.67073">
        <ele>39</ele>
        <time>2014-09-04T09:32:46Z</time>
      </trkpt>
      <trkpt lat="48.06401" lon="-4.67064">
        <ele>39</ele>
        <time>2014-09-04T09:33:00Z</time>
      </trkpt>
      <trkpt lat="48.06405" lon="-4.67058">
        <ele>40</ele>
        <time>2014-09-04T09:33:07Z</time>
      </trkpt>
      <trkpt lat="48.06417" lon="-4.67046">
        <ele>36</ele>
        <time>2014-09-04T09:33:21Z</time>
      </trkpt>
      <trkpt lat="48.06427" lon="-4.67034">
        <ele>38</ele>
        <time>2014-09-04T09:33:35Z</time>
      </trkpt>
      <trkpt lat="48.06431" lon="-4.6703">
        <ele>38</ele>
        <time>2014-09-04T09:33:40Z</time>
      </trkpt>
      <trkpt lat="48.06441" lon="-4.6702">
        <ele>39</ele>
        <time>2014-09-04T09:33:53Z</time>
      </trkpt>
      <trkpt lat="48.06443" lon="-4.6702">
        <ele>38</ele>
        <time>2014-09-04T09:33:55Z</time>
      </trkpt>
      <trkpt lat="48.06448" lon="-4.67015">
        <ele>38</ele>
        <time>2014-09-04T09:34:00Z</time>
      </trkpt>
      <trkpt lat="48.06463" lon="-4.67002">
        <ele>37</ele>
        <time>2014-09-04T09:34:18Z</time>
      </trkpt>
      <trkpt lat="48.06477" lon="-4.66991">
        <ele>48</ele>
        <time>2014-09-04T09:34:33Z</time>
      </trkpt>
      <trkpt lat="48.06489" lon="-4.66975">
        <ele>49</ele>
        <time>2014-09-04T09:34:50Z</time>
      </trkpt>
      <trkpt lat="48.06493" lon="-4.66971">
        <ele>50</ele>
        <time>2014-09-04T09:34:56Z</time>
      </trkpt>
      <trkpt lat="48.06502" lon="-4.66961">
        <ele>38</ele>
        <time>2014-09-04T09:35:06Z</time>
      </trkpt>
      <trkpt lat="48.06504" lon="-4.66959">
        <ele>38</ele>
        <time>2014-09-04T09:35:08Z</time>
      </trkpt>
      <trkpt lat="48.06514" lon="-4.66947">
        <ele>40</ele>
        <time>2014-09-04T09:35:21Z</time>
      </trkpt>
      <trkpt lat="48.06525" lon="-4.66929">
        <ele>40</ele>
        <time>2014-09-04T09:35:36Z</time>
      </trkpt>
      <trkpt lat="48.06527" lon="-4.66925">
        <ele>41</ele>
        <time>2014-09-04T09:35:39Z</time>
      </trkpt>
      <trkpt lat="48.06533" lon="-4.66918">
        <ele>39</ele>
        <time>2014-09-04T09:35:46Z</time>
      </trkpt>
      <trkpt lat="48.06543" lon="-4.66905">
        <ele>47</ele>
        <time>2014-09-04T09:36:00Z</time>
      </trkpt>
      <trkpt lat="48.06551" lon="-4.66884">
        <ele>47</ele>
        <time>2014-09-04T09:36:15Z</time>
      </trkpt>
      <trkpt lat="48.06551" lon="-4.66875">
        <ele>48</ele>
        <time>2014-09-04T09:36:21Z</time>
      </trkpt>
      <trkpt lat="48.06552" lon="-4.66865">
        <ele>49</ele>
        <time>2014-09-04T09:36:28Z</time>
      </trkpt>
      <trkpt lat="48.06553" lon="-4.66857">
        <ele>50</ele>
        <time>2014-09-04T09:36:33Z</time>
      </trkpt>
      <trkpt lat="48.06553" lon="-4.66854">
        <ele>50</ele>
        <time>2014-09-04T09:36:35Z</time>
      </trkpt>
      <trkpt lat="48.06554" lon="-4.66841">
        <ele>51</ele>
        <time>2014-09-04T09:36:43Z</time>
      </trkpt>
      <trkpt lat="48.06554" lon="-4.66828">
        <ele>58</ele>
        <time>2014-09-04T09:36:50Z</time>
      </trkpt>
      <trkpt lat="48.06568" lon="-4.66806">
        <ele>58</ele>
        <time>2014-09-04T09:37:08Z</time>
      </trkpt>
      <trkpt lat="48.06569" lon="-4.66804">
        <ele>58</ele>
        <time>2014-09-04T09:37:10Z</time>
      </trkpt>
      <trkpt lat="48.06576" lon="-4.66799">
        <ele>58</ele>
        <time>2014-09-04T09:37:18Z</time>
      </trkpt>
      <trkpt lat="48.06578" lon="-4.66798">
        <ele>58</ele>
        <time>2014-09-04T09:37:20Z</time>
      </trkpt>
      <trkpt lat="48.06596" lon="-4.66799">
        <ele>48</ele>
        <time>2014-09-04T09:37:37Z</time>
      </trkpt>
      <trkpt lat="48.06616" lon="-4.66791">
        <ele>46</ele>
        <time>2014-09-04T09:37:55Z</time>
      </trkpt>
      <trkpt lat="48.06625" lon="-4.66779">
        <ele>46</ele>
        <time>2014-09-04T09:38:06Z</time>
      </trkpt>
      <trkpt lat="48.06632" lon="-4.66759">
        <ele>47</ele>
        <time>2014-09-04T09:38:21Z</time>
      </trkpt>
      <trkpt lat="48.06634" lon="-4.66747">
        <ele>57</ele>
        <time>2014-09-04T09:38:33Z</time>
      </trkpt>
      <trkpt lat="48.06635" lon="-4.66727">
        <ele>58</ele>
        <time>2014-09-04T09:38:47Z</time>
      </trkpt>
      <trkpt lat="48.06636" lon="-4.66723">
        <ele>58</ele>
        <time>2014-09-04T09:38:50Z</time>
      </trkpt>
      <trkpt lat="48.06651" lon="-4.66702">
        <ele>59</ele>
        <time>2014-09-04T09:39:09Z</time>
      </trkpt>
      <trkpt lat="48.06663" lon="-4.66683">
        <ele>60</ele>
        <time>2014-09-04T09:39:25Z</time>
      </trkpt>
      <trkpt lat="48.06672" lon="-4.66671">
        <ele>60</ele>
        <time>2014-09-04T09:39:37Z</time>
      </trkpt>
      <trkpt lat="48.06681" lon="-4.66675">
        <ele>58</ele>
        <time>2014-09-04T09:39:47Z</time>
      </trkpt>
      <trkpt lat="48.06698" lon="-4.66685">
        <ele>56</ele>
        <time>2014-09-04T09:40:04Z</time>
      </trkpt>
      <trkpt lat="48.06704" lon="-4.66686">
        <ele>56</ele>
        <time>2014-09-04T09:40:09Z</time>
      </trkpt>
      <trkpt lat="48.06706" lon="-4.66687">
        <ele>56</ele>
        <time>2014-09-04T09:40:11Z</time>
      </trkpt>
      <trkpt lat="48.06712" lon="-4.66689">
        <ele>56</ele>
        <time>2014-09-04T09:40:16Z</time>
      </trkpt>
      <trkpt lat="48.0673" lon="-4.66696">
        <ele>55</ele>
        <time>2014-09-04T09:40:32Z</time>
      </trkpt>
      <trkpt lat="48.06745" lon="-4.66703">
        <ele>54</ele>
        <time>2014-09-04T09:40:47Z</time>
      </trkpt>
      <trkpt lat="48.06749" lon="-4.66705">
        <ele>54</ele>
        <time>2014-09-04T09:40:52Z</time>
      </trkpt>
      <trkpt lat="48.06761" lon="-4.66711">
        <ele>53</ele>
        <time>2014-09-04T09:41:05Z</time>
      </trkpt>
      <trkpt lat="48.06773" lon="-4.66729">
        <ele>51</ele>
        <time>2014-09-04T09:41:20Z</time>
      </trkpt>
      <trkpt lat="48.06782" lon="-4.66735">
        <ele>51</ele>
        <time>2014-09-04T09:41:29Z</time>
      </trkpt>
      <trkpt lat="48.06792" lon="-4.66727">
        <ele>53</ele>
        <time>2014-09-04T09:41:43Z</time>
      </trkpt>
      <trkpt lat="48.06799" lon="-4.66722">
        <ele>54</ele>
        <time>2014-09-04T09:41:52Z</time>
      </trkpt>
      <trkpt lat="48.0681" lon="-4.66713">
        <ele>55</ele>
        <time>2014-09-04T09:42:07Z</time>
      </trkpt>
      <trkpt lat="48.06828" lon="-4.66707">
        <ele>56</ele>
        <time>2014-09-04T09:42:25Z</time>
      </trkpt>
      <trkpt lat="48.06833" lon="-4.6671">
        <ele>56</ele>
        <time>2014-09-04T09:42:30Z</time>
      </trkpt>
      <trkpt lat="48.0684" lon="-4.66718">
        <ele>55</ele>
        <time>2014-09-04T09:42:38Z</time>
      </trkpt>
      <trkpt lat="48.06857" lon="-4.66739">
        <ele>53</ele>
        <time>2014-09-04T09:42:58Z</time>
      </trkpt>
      <trkpt lat="48.06857" lon="-4.6674">
        <ele>53</ele>
        <time>2014-09-04T09:42:59Z</time>
      </trkpt>
      <trkpt lat="48.06863" lon="-4.66767">
        <ele>37</ele>
        <time>2014-09-04T09:43:18Z</time>
      </trkpt>
      <trkpt lat="48.06868" lon="-4.66772">
        <ele>36</ele>
        <time>2014-09-04T09:43:25Z</time>
      </trkpt>
      <trkpt lat="48.06874" lon="-4.66762">
        <ele>36</ele>
        <time>2014-09-04T09:43:36Z</time>
      </trkpt>
      <trkpt lat="48.06874" lon="-4.66754">
        <ele>37</ele>
        <time>2014-09-04T09:43:41Z</time>
      </trkpt>
      <trkpt lat="48.06878" lon="-4.66749">
        <ele>51</ele>
        <time>2014-09-04T09:43:55Z</time>
      </trkpt>
      <trkpt lat="48.06882" lon="-4.66746">
        <ele>51</ele>
        <time>2014-09-04T09:44:07Z</time>
      </trkpt>
      <trkpt lat="48.06884" lon="-4.66745">
        <ele>51</ele>
        <time>2014-09-04T09:44:09Z</time>
      </trkpt>
      <trkpt lat="48.0689" lon="-4.66735">
        <ele>51</ele>
        <time>2014-09-04T09:44:18Z</time>
      </trkpt>
      <trkpt lat="48.06898" lon="-4.6673">
        <ele>50</ele>
        <time>2014-09-04T09:44:26Z</time>
      </trkpt>
      <trkpt lat="48.06911" lon="-4.66712">
        <ele>53</ele>
        <time>2014-09-04T09:44:41Z</time>
      </trkpt>
      <trkpt lat="48.06912" lon="-4.66709">
        <ele>53</ele>
        <time>2014-09-04T09:44:43Z</time>
      </trkpt>
      <trkpt lat="48.06916" lon="-4.66696">
        <ele>55</ele>
        <time>2014-09-04T09:44:55Z</time>
      </trkpt>
      <trkpt lat="48.06918" lon="-4.66695">
        <ele>51</ele>
        <time>2014-09-04T09:44:57Z</time>
      </trkpt>
      <trkpt lat="48.0692" lon="-4.66693">
        <ele>52</ele>
        <time>2014-09-04T09:45:13Z</time>
      </trkpt>
      <trkpt lat="48.0692" lon="-4.66692">
        <ele>52</ele>
        <time>2014-09-04T09:45:36Z</time>
      </trkpt>
      <trkpt lat="48.06922" lon="-4.66688">
        <ele>53</ele>
        <time>2014-09-04T09:45:39Z</time>
      </trkpt>
      <trkpt lat="48.06939" lon="-4.66684">
        <ele>52</ele>
        <time>2014-09-04T09:45:56Z</time>
      </trkpt>
      <trkpt lat="48.06943" lon="-4.66682">
        <ele>51</ele>
        <time>2014-09-04T09:46:00Z</time>
      </trkpt>
      <trkpt lat="48.06955" lon="-4.66681">
        <ele>50</ele>
        <time>2014-09-04T09:46:13Z</time>
      </trkpt>
      <trkpt lat="48.06973" lon="-4.66682">
        <ele>50</ele>
        <time>2014-09-04T09:46:28Z</time>
      </trkpt>
      <trkpt lat="48.06981" lon="-4.66684">
        <ele>50</ele>
        <time>2014-09-04T09:46:39Z</time>
      </trkpt>
      <trkpt lat="48.06987" lon="-4.66678">
        <ele>51</ele>
        <time>2014-09-04T09:46:51Z</time>
      </trkpt>
      <trkpt lat="48.07005" lon="-4.66674">
        <ele>48</ele>
        <time>2014-09-04T09:47:07Z</time>
      </trkpt>
      <trkpt lat="48.07018" lon="-4.66671">
        <ele>43</ele>
        <time>2014-09-04T09:47:22Z</time>
      </trkpt>
      <trkpt lat="48.07021" lon="-4.66672">
        <ele>41</ele>
        <time>2014-09-04T09:47:36Z</time>
      </trkpt>
      <trkpt lat="48.07028" lon="-4.6667">
        <ele>39</ele>
        <time>2014-09-04T09:47:50Z</time>
      </trkpt>
      <trkpt lat="48.0703" lon="-4.66668">
        <ele>38</ele>
        <time>2014-09-04T09:47:52Z</time>
      </trkpt>
      <trkpt lat="48.07042" lon="-4.66662">
        <ele>46</ele>
        <time>2014-09-04T09:48:03Z</time>
      </trkpt>
      <trkpt lat="48.07043" lon="-4.66659">
        <ele>46</ele>
        <time>2014-09-04T09:48:05Z</time>
      </trkpt>
      <trkpt lat="48.07042" lon="-4.66645">
        <ele>47</ele>
        <time>2014-09-04T09:48:17Z</time>
      </trkpt>
      <trkpt lat="48.0704" lon="-4.66633">
        <ele>48</ele>
        <time>2014-09-04T09:48:33Z</time>
      </trkpt>
      <trkpt lat="48.07045" lon="-4.66618">
        <ele>48</ele>
        <time>2014-09-04T09:48:45Z</time>
      </trkpt>
      <trkpt lat="48.07049" lon="-4.66598">
        <ele>49</ele>
        <time>2014-09-04T09:49:00Z</time>
      </trkpt>
      <trkpt lat="48.07052" lon="-4.66596">
        <ele>49</ele>
        <time>2014-09-04T09:49:03Z</time>
      </trkpt>
      <trkpt lat="48.07057" lon="-4.66573">
        <ele>54</ele>
        <time>2014-09-04T09:49:17Z</time>
      </trkpt>
      <trkpt lat="48.07062" lon="-4.66553">
        <ele>55</ele>
        <time>2014-09-04T09:49:32Z</time>
      </trkpt>
      <trkpt lat="48.07076" lon="-4.66529">
        <ele>56</ele>
        <time>2014-09-04T09:49:49Z</time>
      </trkpt>
      <trkpt lat="48.07086" lon="-4.66505">
        <ele>53</ele>
        <time>2014-09-04T09:50:03Z</time>
      </trkpt>
      <trkpt lat="48.07101" lon="-4.6649">
        <ele>49</ele>
        <time>2014-09-04T09:50:18Z</time>
      </trkpt>
      <trkpt lat="48.07118" lon="-4.66481">
        <ele>45</ele>
        <time>2014-09-04T09:50:33Z</time>
      </trkpt>
      <trkpt lat="48.07119" lon="-4.66481">
        <ele>44</ele>
        <time>2014-09-04T09:50:34Z</time>
      </trkpt>
      <trkpt lat="48.07128" lon="-4.66477">
        <ele>42</ele>
        <time>2014-09-04T09:50:48Z</time>
      </trkpt>
      <trkpt lat="48.07128" lon="-4.66473">
        <ele>42</ele>
        <time>2014-09-04T09:50:59Z</time>
      </trkpt>
      <trkpt lat="48.07129" lon="-4.6647">
        <ele>42</ele>
        <time>2014-09-04T09:51:04Z</time>
      </trkpt>
      <trkpt lat="48.07145" lon="-4.66466">
        <ele>40</ele>
        <time>2014-09-04T09:51:18Z</time>
      </trkpt>
      <trkpt lat="48.07149" lon="-4.66471">
        <ele>39</ele>
        <time>2014-09-04T09:51:24Z</time>
      </trkpt>
      <trkpt lat="48.07155" lon="-4.66467">
        <ele>39</ele>
        <time>2014-09-04T09:51:37Z</time>
      </trkpt>
      <trkpt lat="48.07158" lon="-4.66468">
        <ele>38</ele>
        <time>2014-09-04T09:51:43Z</time>
      </trkpt>
      <trkpt lat="48.07168" lon="-4.6646">
        <ele>22</ele>
        <time>2014-09-04T09:51:56Z</time>
      </trkpt>
      <trkpt lat="48.07167" lon="-4.66459">
        <ele>22</ele>
        <time>2014-09-04T09:52:10Z</time>
      </trkpt>
      <trkpt lat="48.07168" lon="-4.6646">
        <ele>22</ele>
        <time>2014-09-04T09:52:30Z</time>
      </trkpt>
      <trkpt lat="48.07168" lon="-4.6646">
        <ele>22</ele>
        <time>2014-09-04T09:52:41Z</time>
      </trkpt>
      <trkpt lat="48.07167" lon="-4.66459">
        <ele>22</ele>
        <time>2014-09-04T09:52:57Z</time>
      </trkpt>
      <trkpt lat="48.07165" lon="-4.66459">
        <ele>38</ele>
        <time>2014-09-04T09:53:18Z</time>
      </trkpt>
      <trkpt lat="48.07165" lon="-4.66461">
        <ele>38</ele>
        <time>2014-09-04T09:53:39Z</time>
      </trkpt>
      <trkpt lat="48.07165" lon="-4.66459">
        <ele>38</ele>
        <time>2014-09-04T09:54:00Z</time>
      </trkpt>
      <trkpt lat="48.07152" lon="-4.66434">
        <ele>38</ele>
        <time>2014-09-04T09:54:18Z</time>
      </trkpt>
      <trkpt lat="48.07152" lon="-4.6643">
        <ele>38</ele>
        <time>2014-09-04T09:54:20Z</time>
      </trkpt>
      <trkpt lat="48.07147" lon="-4.66409">
        <ele>32</ele>
        <time>2014-09-04T09:54:36Z</time>
      </trkpt>
      <trkpt lat="48.07145" lon="-4.66407">
        <ele>32</ele>
        <time>2014-09-04T09:54:54Z</time>
      </trkpt>
      <trkpt lat="48.07143" lon="-4.66403">
        <ele>32</ele>
        <time>2014-09-04T09:55:07Z</time>
      </trkpt>
      <trkpt lat="48.07141" lon="-4.664">
        <ele>32</ele>
        <time>2014-09-04T09:55:24Z</time>
      </trkpt>
      <trkpt lat="48.07138" lon="-4.66394">
        <ele>32</ele>
        <time>2014-09-04T09:55:40Z</time>
      </trkpt>
      <trkpt lat="48.07138" lon="-4.66391">
        <ele>32</ele>
        <time>2014-09-04T09:55:53Z</time>
      </trkpt>
      <trkpt lat="48.07139" lon="-4.66391">
        <ele>32</ele>
        <time>2014-09-04T09:56:19Z</time>
      </trkpt>
      <trkpt lat="48.07137" lon="-4.66389">
        <ele>32</ele>
        <time>2014-09-04T09:56:32Z</time>
      </trkpt>
      <trkpt lat="48.07136" lon="-4.66379">
        <ele>31</ele>
        <time>2014-09-04T09:56:48Z</time>
      </trkpt>
      <trkpt lat="48.07138" lon="-4.6637">
        <ele>29</ele>
        <time>2014-09-04T09:57:02Z</time>
      </trkpt>
      <trkpt lat="48.07134" lon="-4.66359">
        <ele>28</ele>
        <time>2014-09-04T09:57:16Z</time>
      </trkpt>
      <trkpt lat="48.07134" lon="-4.66358">
        <ele>28</ele>
        <time>2014-09-04T09:57:17Z</time>
      </trkpt>
      <trkpt lat="48.07129" lon="-4.66356">
        <ele>29</ele>
        <time>2014-09-04T09:57:23Z</time>
      </trkpt>
      <trkpt lat="48.0712" lon="-4.66355">
        <ele>29</ele>
        <time>2014-09-04T09:57:31Z</time>
      </trkpt>
      <trkpt lat="48.07114" lon="-4.66357">
        <ele>30</ele>
        <time>2014-09-04T09:57:37Z</time>
      </trkpt>
      <trkpt lat="48.07111" lon="-4.66356">
        <ele>30</ele>
        <time>2014-09-04T09:57:41Z</time>
      </trkpt>
      <trkpt lat="48.0711" lon="-4.66355">
        <ele>30</ele>
        <time>2014-09-04T09:57:43Z</time>
      </trkpt>
      <trkpt lat="48.071" lon="-4.66357">
        <ele>31</ele>
        <time>2014-09-04T09:57:57Z</time>
      </trkpt>
      <trkpt lat="48.07093" lon="-4.6635">
        <ele>30</ele>
        <time>2014-09-04T09:58:11Z</time>
      </trkpt>
      <trkpt lat="48.07086" lon="-4.66344">
        <ele>29</ele>
        <time>2014-09-04T09:58:25Z</time>
      </trkpt>
      <trkpt lat="48.07083" lon="-4.66334">
        <ele>28</ele>
        <time>2014-09-04T09:58:38Z</time>
      </trkpt>
      <trkpt lat="48.07075" lon="-4.66325">
        <ele>25</ele>
        <time>2014-09-04T09:58:50Z</time>
      </trkpt>
      <trkpt lat="48.07072" lon="-4.66326">
        <ele>25</ele>
        <time>2014-09-04T09:58:53Z</time>
      </trkpt>
      <trkpt lat="48.07062" lon="-4.66321">
        <ele>23</ele>
        <time>2014-09-04T09:59:03Z</time>
      </trkpt>
      <trkpt lat="48.07051" lon="-4.6632">
        <ele>22</ele>
        <time>2014-09-04T09:59:18Z</time>
      </trkpt>
      <trkpt lat="48.07043" lon="-4.66324">
        <ele>22</ele>
        <time>2014-09-04T09:59:34Z</time>
      </trkpt>
      <trkpt lat="48.0703" lon="-4.66324">
        <ele>22</ele>
        <time>2014-09-04T09:59:49Z</time>
      </trkpt>
      <trkpt lat="48.07019" lon="-4.66319">
        <ele>21</ele>
        <time>2014-09-04T10:00:07Z</time>
      </trkpt>
      <trkpt lat="48.07018" lon="-4.66315">
        <ele>21</ele>
        <time>2014-09-04T10:00:22Z</time>
      </trkpt>
      <trkpt lat="48.07021" lon="-4.66312">
        <ele>20</ele>
        <time>2014-09-04T10:00:37Z</time>
      </trkpt>
      <trkpt lat="48.07021" lon="-4.66308">
        <ele>20</ele>
        <time>2014-09-04T10:00:48Z</time>
      </trkpt>
      <trkpt lat="48.07023" lon="-4.66308">
        <ele>20</ele>
        <time>2014-09-04T10:01:04Z</time>
      </trkpt>
      <trkpt lat="48.07022" lon="-4.66305">
        <ele>19</ele>
        <time>2014-09-04T10:01:18Z</time>
      </trkpt>
      <trkpt lat="48.07022" lon="-4.66306">
        <ele>20</ele>
        <time>2014-09-04T10:01:35Z</time>
      </trkpt>
      <trkpt lat="48.07022" lon="-4.66309">
        <ele>20</ele>
        <time>2014-09-04T10:01:57Z</time>
      </trkpt>
      <trkpt lat="48.07022" lon="-4.66305">
        <ele>19</ele>
        <time>2014-09-04T10:02:15Z</time>
      </trkpt>
      <trkpt lat="48.07021" lon="-4.66308">
        <ele>20</ele>
        <time>2014-09-04T10:02:35Z</time>
      </trkpt>
      <trkpt lat="48.07021" lon="-4.66303">
        <ele>19</ele>
        <time>2014-09-04T10:02:55Z</time>
      </trkpt>
      <trkpt lat="48.07021" lon="-4.66304">
        <ele>19</ele>
        <time>2014-09-04T10:03:09Z</time>
      </trkpt>
      <trkpt lat="48.07022" lon="-4.66305">
        <ele>19</ele>
        <time>2014-09-04T10:03:28Z</time>
      </trkpt>
      <trkpt lat="48.07023" lon="-4.66307">
        <ele>20</ele>
        <time>2014-09-04T10:03:46Z</time>
      </trkpt>
      <trkpt lat="48.07023" lon="-4.66308">
        <ele>20</ele>
        <time>2014-09-04T10:04:02Z</time>
      </trkpt>
      <trkpt lat="48.07023" lon="-4.66308">
        <ele>20</ele>
        <time>2014-09-04T10:04:19Z</time>
      </trkpt>
      <trkpt lat="48.07023" lon="-4.66306">
        <ele>20</ele>
        <time>2014-09-04T10:04:34Z</time>
      </trkpt>
      <trkpt lat="48.07022" lon="-4.66304">
        <ele>19</ele>
        <time>2014-09-04T10:04:46Z</time>
      </trkpt>
      <trkpt lat="48.07025" lon="-4.66299">
        <ele>19</ele>
        <time>2014-09-04T10:04:59Z</time>
      </trkpt>
      <trkpt lat="48.07026" lon="-4.66299">
        <ele>19</ele>
        <time>2014-09-04T10:05:00Z</time>
      </trkpt>
      <trkpt lat="48.07033" lon="-4.66302">
        <ele>19</ele>
        <time>2014-09-04T10:05:17Z</time>
      </trkpt>
      <trkpt lat="48.07034" lon="-4.66301">
        <ele>19</ele>
        <time>2014-09-04T10:05:33Z</time>
      </trkpt>
      <trkpt lat="48.07036" lon="-4.66304">
        <ele>20</ele>
        <time>2014-09-04T10:05:58Z</time>
      </trkpt>
      <trkpt lat="48.07034" lon="-4.66302">
        <ele>20</ele>
        <time>2014-09-04T10:06:19Z</time>
      </trkpt>
      <trkpt lat="48.07033" lon="-4.66302">
        <ele>19</ele>
        <time>2014-09-04T10:06:39Z</time>
      </trkpt>
      <trkpt lat="48.07029" lon="-4.66303">
        <ele>19</ele>
        <time>2014-09-04T10:06:55Z</time>
      </trkpt>
      <trkpt lat="48.07022" lon="-4.66306">
        <ele>20</ele>
        <time>2014-09-04T10:07:07Z</time>
      </trkpt>
      <trkpt lat="48.07019" lon="-4.66312">
        <ele>20</ele>
        <time>2014-09-04T10:07:20Z</time>
      </trkpt>
      <trkpt lat="48.07019" lon="-4.66321">
        <ele>22</ele>
        <time>2014-09-04T10:07:34Z</time>
      </trkpt>
      <trkpt lat="48.07025" lon="-4.66323">
        <ele>21</ele>
        <time>2014-09-04T10:07:41Z</time>
      </trkpt>
      <trkpt lat="48.07031" lon="-4.66323">
        <ele>21</ele>
        <time>2014-09-04T10:07:48Z</time>
      </trkpt>
      <trkpt lat="48.07033" lon="-4.66322">
        <ele>21</ele>
        <time>2014-09-04T10:07:50Z</time>
      </trkpt>
      <trkpt lat="48.07035" lon="-4.66323">
        <ele>21</ele>
        <time>2014-09-04T10:07:52Z</time>
      </trkpt>
      <trkpt lat="48.07042" lon="-4.66321">
        <ele>22</ele>
        <time>2014-09-04T10:07:59Z</time>
      </trkpt>
      <trkpt lat="48.07046" lon="-4.6633">
        <ele>22</ele>
        <time>2014-09-04T10:08:09Z</time>
      </trkpt>
      <trkpt lat="48.07038" lon="-4.66343">
        <ele>35</ele>
        <time>2014-09-04T10:08:23Z</time>
      </trkpt>
      <trkpt lat="48.07031" lon="-4.6635">
        <ele>35</ele>
        <time>2014-09-04T10:08:36Z</time>
      </trkpt>
      <trkpt lat="48.07024" lon="-4.66359">
        <ele>36</ele>
        <time>2014-09-04T10:08:50Z</time>
      </trkpt>
      <trkpt lat="48.07017" lon="-4.66367">
        <ele>37</ele>
        <time>2014-09-04T10:09:04Z</time>
      </trkpt>
      <trkpt lat="48.0701" lon="-4.66377">
        <ele>39</ele>
        <time>2014-09-04T10:09:17Z</time>
      </trkpt>
      <trkpt lat="48.07003" lon="-4.66386">
        <ele>41</ele>
        <time>2014-09-04T10:09:32Z</time>
      </trkpt>
      <trkpt lat="48.06995" lon="-4.66395">
        <ele>45</ele>
        <time>2014-09-04T10:09:45Z</time>
      </trkpt>
      <trkpt lat="48.0699" lon="-4.664">
        <ele>46</ele>
        <time>2014-09-04T10:09:52Z</time>
      </trkpt>
      <trkpt lat="48.06979" lon="-4.66402">
        <ele>46</ele>
        <time>2014-09-04T10:10:04Z</time>
      </trkpt>
      <trkpt lat="48.06976" lon="-4.664">
        <ele>46</ele>
        <time>2014-09-04T10:10:07Z</time>
      </trkpt>
      <trkpt lat="48.06974" lon="-4.66399">
        <ele>45</ele>
        <time>2014-09-04T10:10:09Z</time>
      </trkpt>
      <trkpt lat="48.06956" lon="-4.66406">
        <ele>47</ele>
        <time>2014-09-04T10:10:27Z</time>
      </trkpt>
      <trkpt lat="48.06955" lon="-4.66407">
        <ele>47</ele>
        <time>2014-09-04T10:10:28Z</time>
      </trkpt>
      <trkpt lat="48.06948" lon="-4.66409">
        <ele>48</ele>
        <time>2014-09-04T10:10:34Z</time>
      </trkpt>
      <trkpt lat="48.06946" lon="-4.66409">
        <ele>48</ele>
        <time>2014-09-04T10:10:36Z</time>
      </trkpt>
      <trkpt lat="48.06935" lon="-4.66413">
        <ele>51</ele>
        <time>2014-09-04T10:10:47Z</time>
      </trkpt>
      <trkpt lat="48.06924" lon="-4.66416">
        <ele>54</ele>
        <time>2014-09-04T10:10:57Z</time>
      </trkpt>
      <trkpt lat="48.06916" lon="-4.66415">
        <ele>58</ele>
        <time>2014-09-04T10:11:04Z</time>
      </trkpt>
      <trkpt lat="48.069" lon="-4.66413">
        <ele>56</ele>
        <time>2014-09-04T10:11:19Z</time>
      </trkpt>
      <trkpt lat="48.06899" lon="-4.66412">
        <ele>56</ele>
        <time>2014-09-04T10:11:35Z</time>
      </trkpt>
      <trkpt lat="48.06899" lon="-4.66411">
        <ele>56</ele>
        <time>2014-09-04T10:11:58Z</time>
      </trkpt>
      <trkpt lat="48.069" lon="-4.66412">
        <ele>56</ele>
        <time>2014-09-04T10:12:20Z</time>
      </trkpt>
      <trkpt lat="48.06899" lon="-4.66414">
        <ele>56</ele>
        <time>2014-09-04T10:12:38Z</time>
      </trkpt>
      <trkpt lat="48.069" lon="-4.66414">
        <ele>56</ele>
        <time>2014-09-04T10:12:54Z</time>
      </trkpt>
      <trkpt lat="48.06899" lon="-4.66414">
        <ele>56</ele>
        <time>2014-09-04T10:13:15Z</time>
      </trkpt>
      <trkpt lat="48.069" lon="-4.6641">
        <ele>56</ele>
        <time>2014-09-04T10:13:32Z</time>
      </trkpt>
      <trkpt lat="48.069" lon="-4.66404">
        <ele>55</ele>
        <time>2014-09-04T10:13:52Z</time>
      </trkpt>
      <trkpt lat="48.06901" lon="-4.66393">
        <ele>54</ele>
        <time>2014-09-04T10:14:04Z</time>
      </trkpt>
      <trkpt lat="48.06903" lon="-4.66382">
        <ele>52</ele>
        <time>2014-09-04T10:14:17Z</time>
      </trkpt>
      <trkpt lat="48.06904" lon="-4.66378">
        <ele>52</ele>
        <time>2014-09-04T10:14:21Z</time>
      </trkpt>
      <trkpt lat="48.0689" lon="-4.66367">
        <ele>51</ele>
        <time>2014-09-04T10:14:35Z</time>
      </trkpt>
      <trkpt lat="48.06876" lon="-4.66345">
        <ele>50</ele>
        <time>2014-09-04T10:14:54Z</time>
      </trkpt>
      <trkpt lat="48.06874" lon="-4.66344">
        <ele>50</ele>
        <time>2014-09-04T10:14:56Z</time>
      </trkpt>
      <trkpt lat="48.06869" lon="-4.66345">
        <ele>51</ele>
        <time>2014-09-04T10:15:00Z</time>
      </trkpt>
      <trkpt lat="48.06859" lon="-4.66349">
        <ele>52</ele>
        <time>2014-09-04T10:15:14Z</time>
      </trkpt>
      <trkpt lat="48.06854" lon="-4.66346">
        <ele>52</ele>
        <time>2014-09-04T10:15:20Z</time>
      </trkpt>
      <trkpt lat="48.06833" lon="-4.66332">
        <ele>52</ele>
        <time>2014-09-04T10:15:37Z</time>
      </trkpt>
      <trkpt lat="48.06826" lon="-4.66322">
        <ele>53</ele>
        <time>2014-09-04T10:15:46Z</time>
      </trkpt>
      <trkpt lat="48.06818" lon="-4.66318">
        <ele>54</ele>
        <time>2014-09-04T10:15:52Z</time>
      </trkpt>
      <trkpt lat="48.06813" lon="-4.66315">
        <ele>54</ele>
        <time>2014-09-04T10:15:57Z</time>
      </trkpt>
      <trkpt lat="48.06791" lon="-4.66298">
        <ele>56</ele>
        <time>2014-09-04T10:16:16Z</time>
      </trkpt>
      <trkpt lat="48.0678" lon="-4.66272">
        <ele>56</ele>
        <time>2014-09-04T10:16:33Z</time>
      </trkpt>
      <trkpt lat="48.06784" lon="-4.66246">
        <ele>54</ele>
        <time>2014-09-04T10:16:48Z</time>
      </trkpt>
      <trkpt lat="48.06787" lon="-4.66222">
        <ele>53</ele>
        <time>2014-09-04T10:17:02Z</time>
      </trkpt>
      <trkpt lat="48.06791" lon="-4.66194">
        <ele>52</ele>
        <time>2014-09-04T10:17:19Z</time>
      </trkpt>
      <trkpt lat="48.06792" lon="-4.66196">
        <ele>52</ele>
        <time>2014-09-04T10:17:33Z</time>
      </trkpt>
      <trkpt lat="48.06792" lon="-4.66174">
        <ele>52</ele>
        <time>2014-09-04T10:17:50Z</time>
      </trkpt>
      <trkpt lat="48.06796" lon="-4.66133">
        <ele>52</ele>
        <time>2014-09-04T10:18:10Z</time>
      </trkpt>
      <trkpt lat="48.068" lon="-4.66098">
        <ele>51</ele>
        <time>2014-09-04T10:18:28Z</time>
      </trkpt>
      <trkpt lat="48.06802" lon="-4.66066">
        <ele>54</ele>
        <time>2014-09-04T10:18:44Z</time>
      </trkpt>
      <trkpt lat="48.0681" lon="-4.66034">
        <ele>55</ele>
        <time>2014-09-04T10:19:01Z</time>
      </trkpt>
      <trkpt lat="48.06817" lon="-4.66024">
        <ele>54</ele>
        <time>2014-09-04T10:19:09Z</time>
      </trkpt>
      <trkpt lat="48.06827" lon="-4.66013">
        <ele>54</ele>
        <time>2014-09-04T10:19:23Z</time>
      </trkpt>
      <trkpt lat="48.06828" lon="-4.66011">
        <ele>54</ele>
        <time>2014-09-04T10:19:25Z</time>
      </trkpt>
      <trkpt lat="48.06835" lon="-4.66">
        <ele>52</ele>
        <time>2014-09-04T10:19:34Z</time>
      </trkpt>
      <trkpt lat="48.06847" lon="-4.65987">
        <ele>43</ele>
        <time>2014-09-04T10:19:49Z</time>
      </trkpt>
      <trkpt lat="48.06852" lon="-4.65985">
        <ele>41</ele>
        <time>2014-09-04T10:20:04Z</time>
      </trkpt>
      <trkpt lat="48.06851" lon="-4.65987">
        <ele>41</ele>
        <time>2014-09-04T10:20:20Z</time>
      </trkpt>
      <trkpt lat="48.06852" lon="-4.65988">
        <ele>41</ele>
        <time>2014-09-04T10:20:33Z</time>
      </trkpt>
      <trkpt lat="48.06852" lon="-4.6599">
        <ele>42</ele>
        <time>2014-09-04T10:20:53Z</time>
      </trkpt>
      <trkpt lat="48.06852" lon="-4.6599">
        <ele>42</ele>
        <time>2014-09-04T10:21:23Z</time>
      </trkpt>
      <trkpt lat="48.06851" lon="-4.65988">
        <ele>42</ele>
        <time>2014-09-04T10:21:38Z</time>
      </trkpt>
      <trkpt lat="48.06847" lon="-4.65979">
        <ele>41</ele>
        <time>2014-09-04T10:21:51Z</time>
      </trkpt>
      <trkpt lat="48.06845" lon="-4.65946">
        <ele>40</ele>
        <time>2014-09-04T10:22:08Z</time>
      </trkpt>
      <trkpt lat="48.06846" lon="-4.65923">
        <ele>44</ele>
        <time>2014-09-04T10:22:20Z</time>
      </trkpt>
      <trkpt lat="48.06845" lon="-4.65919">
        <ele>45</ele>
        <time>2014-09-04T10:22:23Z</time>
      </trkpt>
      <trkpt lat="48.06834" lon="-4.65913">
        <ele>50</ele>
        <time>2014-09-04T10:22:32Z</time>
      </trkpt>
      <trkpt lat="48.06831" lon="-4.65912">
        <ele>52</ele>
        <time>2014-09-04T10:22:35Z</time>
      </trkpt>
      <trkpt lat="48.06817" lon="-4.65899">
        <ele>52</ele>
        <time>2014-09-04T10:22:49Z</time>
      </trkpt>
      <trkpt lat="48.06816" lon="-4.65898">
        <ele>52</ele>
        <time>2014-09-04T10:22:50Z</time>
      </trkpt>
      <trkpt lat="48.06815" lon="-4.65875">
        <ele>51</ele>
        <time>2014-09-04T10:23:06Z</time>
      </trkpt>
      <trkpt lat="48.06815" lon="-4.65848">
        <ele>47</ele>
        <time>2014-09-04T10:23:21Z</time>
      </trkpt>
      <trkpt lat="48.06809" lon="-4.65841">
        <ele>47</ele>
        <time>2014-09-04T10:23:27Z</time>
      </trkpt>
      <trkpt lat="48.06804" lon="-4.65836">
        <ele>49</ele>
        <time>2014-09-04T10:23:32Z</time>
      </trkpt>
      <trkpt lat="48.06798" lon="-4.65832">
        <ele>44</ele>
        <time>2014-09-04T10:23:37Z</time>
      </trkpt>
      <trkpt lat="48.06782" lon="-4.65804">
        <ele>46</ele>
        <time>2014-09-04T10:23:56Z</time>
      </trkpt>
      <trkpt lat="48.06777" lon="-4.65772">
        <ele>46</ele>
        <time>2014-09-04T10:24:13Z</time>
      </trkpt>
      <trkpt lat="48.06768" lon="-4.65733">
        <ele>43</ele>
        <time>2014-09-04T10:24:33Z</time>
      </trkpt>
      <trkpt lat="48.06765" lon="-4.65717">
        <ele>41</ele>
        <time>2014-09-04T10:24:48Z</time>
      </trkpt>
      <trkpt lat="48.06763" lon="-4.65714">
        <ele>41</ele>
        <time>2014-09-04T10:25:02Z</time>
      </trkpt>
      <trkpt lat="48.06757" lon="-4.65688">
        <ele>42</ele>
        <time>2014-09-04T10:25:18Z</time>
      </trkpt>
      <trkpt lat="48.06758" lon="-4.65663">
        <ele>43</ele>
        <time>2014-09-04T10:25:32Z</time>
      </trkpt>
      <trkpt lat="48.0675" lon="-4.65652">
        <ele>52</ele>
        <time>2014-09-04T10:25:40Z</time>
      </trkpt>
      <trkpt lat="48.06747" lon="-4.65652">
        <ele>52</ele>
        <time>2014-09-04T10:25:42Z</time>
      </trkpt>
      <trkpt lat="48.06744" lon="-4.65649">
        <ele>52</ele>
        <time>2014-09-04T10:25:49Z</time>
      </trkpt>
      <trkpt lat="48.06748" lon="-4.6564">
        <ele>52</ele>
        <time>2014-09-04T10:25:55Z</time>
      </trkpt>
      <trkpt lat="48.06757" lon="-4.6563">
        <ele>35</ele>
        <time>2014-09-04T10:26:07Z</time>
      </trkpt>
      <trkpt lat="48.06751" lon="-4.65611">
        <ele>35</ele>
        <time>2014-09-04T10:26:19Z</time>
      </trkpt>
      <trkpt lat="48.06742" lon="-4.65598">
        <ele>48</ele>
        <time>2014-09-04T10:26:30Z</time>
      </trkpt>
      <trkpt lat="48.06738" lon="-4.65595">
        <ele>48</ele>
        <time>2014-09-04T10:26:34Z</time>
      </trkpt>
      <trkpt lat="48.06722" lon="-4.65578">
        <ele>52</ele>
        <time>2014-09-04T10:26:52Z</time>
      </trkpt>
      <trkpt lat="48.06716" lon="-4.65555">
        <ele>54</ele>
        <time>2014-09-04T10:27:07Z</time>
      </trkpt>
      <trkpt lat="48.06717" lon="-4.65552">
        <ele>54</ele>
        <time>2014-09-04T10:27:09Z</time>
      </trkpt>
      <trkpt lat="48.06721" lon="-4.65551">
        <ele>54</ele>
        <time>2014-09-04T10:27:13Z</time>
      </trkpt>
      <trkpt lat="48.06733" lon="-4.65555">
        <ele>52</ele>
        <time>2014-09-04T10:27:24Z</time>
      </trkpt>
      <trkpt lat="48.06736" lon="-4.65551">
        <ele>52</ele>
        <time>2014-09-04T10:27:28Z</time>
      </trkpt>
      <trkpt lat="48.06737" lon="-4.6555">
        <ele>52</ele>
        <time>2014-09-04T10:27:30Z</time>
      </trkpt>
      <trkpt lat="48.06744" lon="-4.65544">
        <ele>53</ele>
        <time>2014-09-04T10:27:40Z</time>
      </trkpt>
      <trkpt lat="48.06745" lon="-4.65543">
        <ele>53</ele>
        <time>2014-09-04T10:27:41Z</time>
      </trkpt>
      <trkpt lat="48.06744" lon="-4.65536">
        <ele>54</ele>
        <time>2014-09-04T10:27:53Z</time>
      </trkpt>
      <trkpt lat="48.06748" lon="-4.65533">
        <ele>54</ele>
        <time>2014-09-04T10:27:57Z</time>
      </trkpt>
      <trkpt lat="48.0675" lon="-4.65524">
        <ele>43</ele>
        <time>2014-09-04T10:28:09Z</time>
      </trkpt>
      <trkpt lat="48.06748" lon="-4.65512">
        <ele>55</ele>
        <time>2014-09-04T10:28:22Z</time>
      </trkpt>
      <trkpt lat="48.06751" lon="-4.65503">
        <ele>52</ele>
        <time>2014-09-04T10:28:28Z</time>
      </trkpt>
      <trkpt lat="48.06755" lon="-4.65489">
        <ele>53</ele>
        <time>2014-09-04T10:28:40Z</time>
      </trkpt>
      <trkpt lat="48.06769" lon="-4.65468">
        <ele>51</ele>
        <time>2014-09-04T10:28:57Z</time>
      </trkpt>
      <trkpt lat="48.06784" lon="-4.65456">
        <ele>50</ele>
        <time>2014-09-04T10:29:11Z</time>
      </trkpt>
      <trkpt lat="48.06807" lon="-4.65444">
        <ele>47</ele>
        <time>2014-09-04T10:29:30Z</time>
      </trkpt>
      <trkpt lat="48.06823" lon="-4.65437">
        <ele>46</ele>
        <time>2014-09-04T10:29:46Z</time>
      </trkpt>
      <trkpt lat="48.06828" lon="-4.65419">
        <ele>45</ele>
        <time>2014-09-04T10:29:57Z</time>
      </trkpt>
      <trkpt lat="48.06831" lon="-4.65399">
        <ele>51</ele>
        <time>2014-09-04T10:30:09Z</time>
      </trkpt>
      <trkpt lat="48.06825" lon="-4.65363">
        <ele>55</ele>
        <time>2014-09-04T10:30:28Z</time>
      </trkpt>
      <trkpt lat="48.06823" lon="-4.65355">
        <ele>55</ele>
        <time>2014-09-04T10:30:33Z</time>
      </trkpt>
      <trkpt lat="48.06825" lon="-4.6532">
        <ele>55</ele>
        <time>2014-09-04T10:30:51Z</time>
      </trkpt>
      <trkpt lat="48.06823" lon="-4.65292">
        <ele>58</ele>
        <time>2014-09-04T10:31:06Z</time>
      </trkpt>
      <trkpt lat="48.06821" lon="-4.65257">
        <ele>56</ele>
        <time>2014-09-04T10:31:24Z</time>
      </trkpt>
      <trkpt lat="48.0682" lon="-4.65245">
        <ele>56</ele>
        <time>2014-09-04T10:31:30Z</time>
      </trkpt>
      <trkpt lat="48.06814" lon="-4.65238">
        <ele>58</ele>
        <time>2014-09-04T10:31:37Z</time>
      </trkpt>
      <trkpt lat="48.06808" lon="-4.65225">
        <ele>59</ele>
        <time>2014-09-04T10:31:46Z</time>
      </trkpt>
      <trkpt lat="48.06805" lon="-4.65216">
        <ele>60</ele>
        <time>2014-09-04T10:31:52Z</time>
      </trkpt>
      <trkpt lat="48.06798" lon="-4.65177">
        <ele>60</ele>
        <time>2014-09-04T10:32:12Z</time>
      </trkpt>
      <trkpt lat="48.06791" lon="-4.65145">
        <ele>65</ele>
        <time>2014-09-04T10:32:29Z</time>
      </trkpt>
      <trkpt lat="48.06785" lon="-4.65117">
        <ele>67</ele>
        <time>2014-09-04T10:32:45Z</time>
      </trkpt>
      <trkpt lat="48.06783" lon="-4.65091">
        <ele>68</ele>
        <time>2014-09-04T10:33:00Z</time>
      </trkpt>
      <trkpt lat="48.06782" lon="-4.65093">
        <ele>68</ele>
        <time>2014-09-04T10:33:15Z</time>
      </trkpt>
      <trkpt lat="48.06781" lon="-4.6509">
        <ele>68</ele>
        <time>2014-09-04T10:33:26Z</time>
      </trkpt>
      <trkpt lat="48.06781" lon="-4.6509">
        <ele>68</ele>
        <time>2014-09-04T10:33:52Z</time>
      </trkpt>
      <trkpt lat="48.0678" lon="-4.65091">
        <ele>68</ele>
        <time>2014-09-04T10:34:36Z</time>
      </trkpt>
      <trkpt lat="48.0678" lon="-4.6509">
        <ele>68</ele>
        <time>2014-09-04T10:34:58Z</time>
      </trkpt>
      <trkpt lat="48.0678" lon="-4.6509">
        <ele>68</ele>
        <time>2014-09-04T10:35:15Z</time>
      </trkpt>
      <trkpt lat="48.06781" lon="-4.65089">
        <ele>68</ele>
        <time>2014-09-04T10:35:37Z</time>
      </trkpt>
      <trkpt lat="48.06782" lon="-4.65089">
        <ele>68</ele>
        <time>2014-09-04T10:35:40Z</time>
      </trkpt>
      <trkpt lat="48.06783" lon="-4.65086">
        <ele>68</ele>
        <time>2014-09-04T10:35:48Z</time>
      </trkpt>
      <trkpt lat="48.06796" lon="-4.65062">
        <ele>72</ele>
        <time>2014-09-04T10:36:05Z</time>
      </trkpt>
      <trkpt lat="48.06815" lon="-4.6506">
        <ele>71</ele>
        <time>2014-09-04T10:36:21Z</time>
      </trkpt>
      <trkpt lat="48.06832" lon="-4.65055">
        <ele>71</ele>
        <time>2014-09-04T10:36:38Z</time>
      </trkpt>
      <trkpt lat="48.06836" lon="-4.65055">
        <ele>60</ele>
        <time>2014-09-04T10:36:41Z</time>
      </trkpt>
      <trkpt lat="48.0686" lon="-4.65055">
        <ele>57</ele>
        <time>2014-09-04T10:36:59Z</time>
      </trkpt>
      <trkpt lat="48.06882" lon="-4.65068">
        <ele>52</ele>
        <time>2014-09-04T10:37:14Z</time>
      </trkpt>
      <trkpt lat="48.06883" lon="-4.6505">
        <ele>53</ele>
        <time>2014-09-04T10:37:26Z</time>
      </trkpt>
      <trkpt lat="48.06882" lon="-4.65023">
        <ele>54</ele>
        <time>2014-09-04T10:37:41Z</time>
      </trkpt>
      <trkpt lat="48.06875" lon="-4.65014">
        <ele>56</ele>
        <time>2014-09-04T10:37:49Z</time>
      </trkpt>
      <trkpt lat="48.06865" lon="-4.65009">
        <ele>59</ele>
        <time>2014-09-04T10:38:02Z</time>
      </trkpt>
      <trkpt lat="48.06865" lon="-4.65008">
        <ele>59</ele>
        <time>2014-09-04T10:38:03Z</time>
      </trkpt>
      <trkpt lat="48.06864" lon="-4.65004">
        <ele>59</ele>
        <time>2014-09-04T10:38:05Z</time>
      </trkpt>
      <trkpt lat="48.06861" lon="-4.65001">
        <ele>60</ele>
        <time>2014-09-04T10:38:09Z</time>
      </trkpt>
      <trkpt lat="48.0686" lon="-4.64998">
        <ele>61</ele>
        <time>2014-09-04T10:38:11Z</time>
      </trkpt>
      <trkpt lat="48.06858" lon="-4.64978">
        <ele>60</ele>
        <time>2014-09-04T10:38:23Z</time>
      </trkpt>
      <trkpt lat="48.06852" lon="-4.64963">
        <ele>60</ele>
        <time>2014-09-04T10:38:35Z</time>
      </trkpt>
      <trkpt lat="48.06849" lon="-4.64948">
        <ele>60</ele>
        <time>2014-09-04T10:38:45Z</time>
      </trkpt>
      <trkpt lat="48.06843" lon="-4.64931">
        <ele>63</ele>
        <time>2014-09-04T10:38:59Z</time>
      </trkpt>
      <trkpt lat="48.06844" lon="-4.64929">
        <ele>64</ele>
        <time>2014-09-04T10:39:00Z</time>
      </trkpt>
      <trkpt lat="48.06838" lon="-4.649">
        <ele>59</ele>
        <time>2014-09-04T10:39:17Z</time>
      </trkpt>
      <trkpt lat="48.06842" lon="-4.64866">
        <ele>52</ele>
        <time>2014-09-04T10:39:32Z</time>
      </trkpt>
      <trkpt lat="48.06835" lon="-4.64843">
        <ele>57</ele>
        <time>2014-09-04T10:39:47Z</time>
      </trkpt>
      <trkpt lat="48.06822" lon="-4.6482">
        <ele>63</ele>
        <time>2014-09-04T10:40:04Z</time>
      </trkpt>
      <trkpt lat="48.06812" lon="-4.64792">
        <ele>62</ele>
        <time>2014-09-04T10:40:20Z</time>
      </trkpt>
      <trkpt lat="48.0681" lon="-4.6477">
        <ele>61</ele>
        <time>2014-09-04T10:40:33Z</time>
      </trkpt>
      <trkpt lat="48.06812" lon="-4.64765">
        <ele>60</ele>
        <time>2014-09-04T10:40:36Z</time>
      </trkpt>
      <trkpt lat="48.06811" lon="-4.64758">
        <ele>59</ele>
        <time>2014-09-04T10:40:40Z</time>
      </trkpt>
      <trkpt lat="48.06808" lon="-4.64752">
        <ele>60</ele>
        <time>2014-09-04T10:40:45Z</time>
      </trkpt>
      <trkpt lat="48.06808" lon="-4.64737">
        <ele>54</ele>
        <time>2014-09-04T10:40:54Z</time>
      </trkpt>
      <trkpt lat="48.06813" lon="-4.64717">
        <ele>52</ele>
        <time>2014-09-04T10:41:10Z</time>
      </trkpt>
      <trkpt lat="48.06811" lon="-4.64708">
        <ele>52</ele>
        <time>2014-09-04T10:41:15Z</time>
      </trkpt>
      <trkpt lat="48.06793" lon="-4.64683">
        <ele>52</ele>
        <time>2014-09-04T10:41:33Z</time>
      </trkpt>
      <trkpt lat="48.06784" lon="-4.64643">
        <ele>44</ele>
        <time>2014-09-04T10:41:53Z</time>
      </trkpt>
      <trkpt lat="48.06774" lon="-4.6462">
        <ele>44</ele>
        <time>2014-09-04T10:42:08Z</time>
      </trkpt>
      <trkpt lat="48.06759" lon="-4.64608">
        <ele>46</ele>
        <time>2014-09-04T10:42:22Z</time>
      </trkpt>
      <trkpt lat="48.06758" lon="-4.64608">
        <ele>46</ele>
        <time>2014-09-04T10:42:23Z</time>
      </trkpt>
      <trkpt lat="48.06737" lon="-4.64585">
        <ele>57</ele>
        <time>2014-09-04T10:42:43Z</time>
      </trkpt>
      <trkpt lat="48.06724" lon="-4.64547">
        <ele>53</ele>
        <time>2014-09-04T10:43:04Z</time>
      </trkpt>
      <trkpt lat="48.06722" lon="-4.64537">
        <ele>52</ele>
        <time>2014-09-04T10:43:10Z</time>
      </trkpt>
      <trkpt lat="48.06709" lon="-4.64519">
        <ele>53</ele>
        <time>2014-09-04T10:43:25Z</time>
      </trkpt>
      <trkpt lat="48.06707" lon="-4.64507">
        <ele>53</ele>
        <time>2014-09-04T10:43:32Z</time>
      </trkpt>
      <trkpt lat="48.06695" lon="-4.64507">
        <ele>55</ele>
        <time>2014-09-04T10:43:44Z</time>
      </trkpt>
      <trkpt lat="48.06683" lon="-4.6451">
        <ele>58</ele>
        <time>2014-09-04T10:43:57Z</time>
      </trkpt>
      <trkpt lat="48.06683" lon="-4.64505">
        <ele>58</ele>
        <time>2014-09-04T10:44:01Z</time>
      </trkpt>
      <trkpt lat="48.06689" lon="-4.64492">
        <ele>56</ele>
        <time>2014-09-04T10:44:09Z</time>
      </trkpt>
      <trkpt lat="48.06683" lon="-4.64474">
        <ele>55</ele>
        <time>2014-09-04T10:44:23Z</time>
      </trkpt>
      <trkpt lat="48.06675" lon="-4.64445">
        <ele>54</ele>
        <time>2014-09-04T10:44:40Z</time>
      </trkpt>
      <trkpt lat="48.06671" lon="-4.64411">
        <ele>55</ele>
        <time>2014-09-04T10:44:59Z</time>
      </trkpt>
      <trkpt lat="48.06661" lon="-4.64383">
        <ele>58</ele>
        <time>2014-09-04T10:45:16Z</time>
      </trkpt>
      <trkpt lat="48.06646" lon="-4.64359">
        <ele>57</ele>
        <time>2014-09-04T10:45:34Z</time>
      </trkpt>
      <trkpt lat="48.06644" lon="-4.64353">
        <ele>57</ele>
        <time>2014-09-04T10:45:38Z</time>
      </trkpt>
      <trkpt lat="48.06637" lon="-4.64325">
        <ele>56</ele>
        <time>2014-09-04T10:45:54Z</time>
      </trkpt>
      <trkpt lat="48.06635" lon="-4.64292">
        <ele>58</ele>
        <time>2014-09-04T10:46:11Z</time>
      </trkpt>
      <trkpt lat="48.06634" lon="-4.64284">
        <ele>58</ele>
        <time>2014-09-04T10:46:15Z</time>
      </trkpt>
      <trkpt lat="48.0664" lon="-4.64265">
        <ele>57</ele>
        <time>2014-09-04T10:46:28Z</time>
      </trkpt>
      <trkpt lat="48.06647" lon="-4.64241">
        <ele>56</ele>
        <time>2014-09-04T10:46:43Z</time>
      </trkpt>
      <trkpt lat="48.0665" lon="-4.64227">
        <ele>57</ele>
        <time>2014-09-04T10:46:53Z</time>
      </trkpt>
      <trkpt lat="48.0665" lon="-4.64202">
        <ele>58</ele>
        <time>2014-09-04T10:47:09Z</time>
      </trkpt>
      <trkpt lat="48.0665" lon="-4.64171">
        <ele>56</ele>
        <time>2014-09-04T10:47:25Z</time>
      </trkpt>
      <trkpt lat="48.06649" lon="-4.64133">
        <ele>60</ele>
        <time>2014-09-04T10:47:45Z</time>
      </trkpt>
      <trkpt lat="48.06649" lon="-4.64094">
        <ele>59</ele>
        <time>2014-09-04T10:48:04Z</time>
      </trkpt>
      <trkpt lat="48.06644" lon="-4.64061">
        <ele>64</ele>
        <time>2014-09-04T10:48:21Z</time>
      </trkpt>
      <trkpt lat="48.06649" lon="-4.64028">
        <ele>67</ele>
        <time>2014-09-04T10:48:40Z</time>
      </trkpt>
      <trkpt lat="48.06663" lon="-4.64004">
        <ele>66</ele>
        <time>2014-09-04T10:48:56Z</time>
      </trkpt>
      <trkpt lat="48.06682" lon="-4.6399">
        <ele>59</ele>
        <time>2014-09-04T10:49:14Z</time>
      </trkpt>
      <trkpt lat="48.06698" lon="-4.63972">
        <ele>54</ele>
        <time>2014-09-04T10:49:31Z</time>
      </trkpt>
      <trkpt lat="48.06712" lon="-4.63953">
        <ele>53</ele>
        <time>2014-09-04T10:49:47Z</time>
      </trkpt>
      <trkpt lat="48.06721" lon="-4.63933">
        <ele>53</ele>
        <time>2014-09-04T10:50:01Z</time>
      </trkpt>
      <trkpt lat="48.06723" lon="-4.63927">
        <ele>53</ele>
        <time>2014-09-04T10:50:05Z</time>
      </trkpt>
      <trkpt lat="48.06735" lon="-4.63912">
        <ele>57</ele>
        <time>2014-09-04T10:50:19Z</time>
      </trkpt>
      <trkpt lat="48.06737" lon="-4.63912">
        <ele>56</ele>
        <time>2014-09-04T10:50:32Z</time>
      </trkpt>
      <trkpt lat="48.06737" lon="-4.63908">
        <ele>57</ele>
        <time>2014-09-04T10:50:43Z</time>
      </trkpt>
      <trkpt lat="48.06738" lon="-4.63906">
        <ele>57</ele>
        <time>2014-09-04T10:50:45Z</time>
      </trkpt>
      <trkpt lat="48.06748" lon="-4.6388">
        <ele>62</ele>
        <time>2014-09-04T10:51:03Z</time>
      </trkpt>
      <trkpt lat="48.0675" lon="-4.63848">
        <ele>56</ele>
        <time>2014-09-04T10:51:22Z</time>
      </trkpt>
      <trkpt lat="48.06751" lon="-4.63831">
        <ele>63</ele>
        <time>2014-09-04T10:51:33Z</time>
      </trkpt>
      <trkpt lat="48.06747" lon="-4.63827">
        <ele>68</ele>
        <time>2014-09-04T10:51:39Z</time>
      </trkpt>
      <trkpt lat="48.06749" lon="-4.63791">
        <ele>71</ele>
        <time>2014-09-04T10:51:57Z</time>
      </trkpt>
      <trkpt lat="48.06754" lon="-4.63764">
        <ele>59</ele>
        <time>2014-09-04T10:52:12Z</time>
      </trkpt>
      <trkpt lat="48.06757" lon="-4.63738">
        <ele>60</ele>
        <time>2014-09-04T10:52:25Z</time>
      </trkpt>
      <trkpt lat="48.0676" lon="-4.63709">
        <ele>53</ele>
        <time>2014-09-04T10:52:41Z</time>
      </trkpt>
      <trkpt lat="48.06761" lon="-4.63702">
        <ele>53</ele>
        <time>2014-09-04T10:52:46Z</time>
      </trkpt>
      <trkpt lat="48.06765" lon="-4.63689">
        <ele>53</ele>
        <time>2014-09-04T10:52:56Z</time>
      </trkpt>
      <trkpt lat="48.06766" lon="-4.63684">
        <ele>54</ele>
        <time>2014-09-04T10:52:59Z</time>
      </trkpt>
      <trkpt lat="48.06762" lon="-4.63672">
        <ele>59</ele>
        <time>2014-09-04T10:53:14Z</time>
      </trkpt>
      <trkpt lat="48.06761" lon="-4.63676">
        <ele>58</ele>
        <time>2014-09-04T10:53:37Z</time>
      </trkpt>
      <trkpt lat="48.06761" lon="-4.6368">
        <ele>57</ele>
        <time>2014-09-04T10:53:57Z</time>
      </trkpt>
      <trkpt lat="48.06764" lon="-4.63694">
        <ele>53</ele>
        <time>2014-09-04T10:54:11Z</time>
      </trkpt>
      <trkpt lat="48.06764" lon="-4.63693">
        <ele>53</ele>
        <time>2014-09-04T10:54:25Z</time>
      </trkpt>
      <trkpt lat="48.06763" lon="-4.63699">
        <ele>53</ele>
        <time>2014-09-04T10:54:38Z</time>
      </trkpt>
      <trkpt lat="48.06763" lon="-4.63699">
        <ele>53</ele>
        <time>2014-09-04T10:54:45Z</time>
      </trkpt>
      <trkpt lat="48.06763" lon="-4.63713">
        <ele>53</ele>
        <time>2014-09-04T11:47:26Z</time>
      </trkpt>
      <trkpt lat="48.06761" lon="-4.63701">
        <ele>53</ele>
        <time>2014-09-04T11:47:39Z</time>
      </trkpt>
      <trkpt lat="48.06764" lon="-4.63701">
        <ele>52</ele>
        <time>2014-09-04T11:48:12Z</time>
      </trkpt>
      <trkpt lat="48.06765" lon="-4.637">
        <ele>52</ele>
        <time>2014-09-04T11:48:37Z</time>
      </trkpt>
      <trkpt lat="48.06766" lon="-4.63699">
        <ele>52</ele>
        <time>2014-09-04T11:48:57Z</time>
      </trkpt>
      <trkpt lat="48.06765" lon="-4.63699">
        <ele>52</ele>
        <time>2014-09-04T11:49:16Z</time>
      </trkpt>
      <trkpt lat="48.06766" lon="-4.63699">
        <ele>52</ele>
        <time>2014-09-04T11:49:32Z</time>
      </trkpt>
      <trkpt lat="48.06765" lon="-4.63699">
        <ele>52</ele>
        <time>2014-09-04T11:49:55Z</time>
      </trkpt>
      <trkpt lat="48.06765" lon="-4.63699">
        <ele>52</ele>
        <time>2014-09-04T11:50:14Z</time>
      </trkpt>
      <trkpt lat="48.06764" lon="-4.63701">
        <ele>52</ele>
        <time>2014-09-04T11:50:28Z</time>
      </trkpt>
      <trkpt lat="48.06765" lon="-4.63699">
        <ele>52</ele>
        <time>2014-09-04T11:50:42Z</time>
      </trkpt>
      <trkpt lat="48.06766" lon="-4.63697">
        <ele>52</ele>
        <time>2014-09-04T11:51:07Z</time>
      </trkpt>
      <trkpt lat="48.06766" lon="-4.63691">
        <ele>53</ele>
        <time>2014-09-04T11:51:12Z</time>
      </trkpt>
      <trkpt lat="48.06764" lon="-4.63679">
        <ele>56</ele>
        <time>2014-09-04T11:51:20Z</time>
      </trkpt>
      <trkpt lat="48.06761" lon="-4.63675">
        <ele>58</ele>
        <time>2014-09-04T11:51:24Z</time>
      </trkpt>
      <trkpt lat="48.06754" lon="-4.63671">
        <ele>63</ele>
        <time>2014-09-04T11:51:32Z</time>
      </trkpt>
      <trkpt lat="48.06737" lon="-4.63644">
        <ele>69</ele>
        <time>2014-09-04T11:51:53Z</time>
      </trkpt>
      <trkpt lat="48.0673" lon="-4.63622">
        <ele>68</ele>
        <time>2014-09-04T11:52:09Z</time>
      </trkpt>
      <trkpt lat="48.06728" lon="-4.63597">
        <ele>66</ele>
        <time>2014-09-04T11:52:24Z</time>
      </trkpt>
      <trkpt lat="48.06725" lon="-4.63561">
        <ele>64</ele>
        <time>2014-09-04T11:52:43Z</time>
      </trkpt>
      <trkpt lat="48.06723" lon="-4.63529">
        <ele>63</ele>
        <time>2014-09-04T11:53:01Z</time>
      </trkpt>
      <trkpt lat="48.06723" lon="-4.63528">
        <ele>63</ele>
        <time>2014-09-04T11:53:02Z</time>
      </trkpt>
      <trkpt lat="48.06725" lon="-4.63505">
        <ele>61</ele>
        <time>2014-09-04T11:53:16Z</time>
      </trkpt>
      <trkpt lat="48.0672" lon="-4.6348">
        <ele>58</ele>
        <time>2014-09-04T11:53:33Z</time>
      </trkpt>
      <trkpt lat="48.0671" lon="-4.6346">
        <ele>59</ele>
        <time>2014-09-04T11:53:49Z</time>
      </trkpt>
      <trkpt lat="48.06706" lon="-4.63445">
        <ele>59</ele>
        <time>2014-09-04T11:54:03Z</time>
      </trkpt>
      <trkpt lat="48.06705" lon="-4.63438">
        <ele>58</ele>
        <time>2014-09-04T11:54:19Z</time>
      </trkpt>
      <trkpt lat="48.06705" lon="-4.63441">
        <ele>59</ele>
        <time>2014-09-04T11:54:45Z</time>
      </trkpt>
      <trkpt lat="48.06699" lon="-4.63426">
        <ele>60</ele>
        <time>2014-09-04T11:55:12Z</time>
      </trkpt>
      <trkpt lat="48.06689" lon="-4.63411">
        <ele>57</ele>
        <time>2014-09-04T11:55:29Z</time>
      </trkpt>
      <trkpt lat="48.06683" lon="-4.63403">
        <ele>58</ele>
        <time>2014-09-04T11:55:43Z</time>
      </trkpt>
      <trkpt lat="48.06681" lon="-4.634">
        <ele>58</ele>
        <time>2014-09-04T11:55:46Z</time>
      </trkpt>
      <trkpt lat="48.06669" lon="-4.63382">
        <ele>56</ele>
        <time>2014-09-04T11:56:01Z</time>
      </trkpt>
      <trkpt lat="48.06658" lon="-4.63353">
        <ele>67</ele>
        <time>2014-09-04T11:56:21Z</time>
      </trkpt>
      <trkpt lat="48.06655" lon="-4.6333">
        <ele>64</ele>
        <time>2014-09-04T11:56:35Z</time>
      </trkpt>
      <trkpt lat="48.0665" lon="-4.63299">
        <ele>64</ele>
        <time>2014-09-04T11:56:53Z</time>
      </trkpt>
      <trkpt lat="48.06636" lon="-4.63269">
        <ele>64</ele>
        <time>2014-09-04T11:57:13Z</time>
      </trkpt>
      <trkpt lat="48.06627" lon="-4.6325">
        <ele>62</ele>
        <time>2014-09-04T11:57:29Z</time>
      </trkpt>
      <trkpt lat="48.06638" lon="-4.63227">
        <ele>60</ele>
        <time>2014-09-04T11:57:47Z</time>
      </trkpt>
      <trkpt lat="48.06636" lon="-4.63196">
        <ele>60</ele>
        <time>2014-09-04T11:58:05Z</time>
      </trkpt>
      <trkpt lat="48.06632" lon="-4.63169">
        <ele>59</ele>
        <time>2014-09-04T11:58:20Z</time>
      </trkpt>
      <trkpt lat="48.06624" lon="-4.6314">
        <ele>57</ele>
        <time>2014-09-04T11:58:38Z</time>
      </trkpt>
      <trkpt lat="48.06615" lon="-4.6311">
        <ele>58</ele>
        <time>2014-09-04T11:58:56Z</time>
      </trkpt>
      <trkpt lat="48.06612" lon="-4.63095">
        <ele>58</ele>
        <time>2014-09-04T11:59:10Z</time>
      </trkpt>
      <trkpt lat="48.06609" lon="-4.63077">
        <ele>56</ele>
        <time>2014-09-04T11:59:24Z</time>
      </trkpt>
      <trkpt lat="48.06609" lon="-4.63073">
        <ele>56</ele>
        <time>2014-09-04T11:59:30Z</time>
      </trkpt>
      <trkpt lat="48.06596" lon="-4.63073">
        <ele>59</ele>
        <time>2014-09-04T11:59:45Z</time>
      </trkpt>
      <trkpt lat="48.066" lon="-4.6306">
        <ele>56</ele>
        <time>2014-09-04T12:00:01Z</time>
      </trkpt>
      <trkpt lat="48.06597" lon="-4.63055">
        <ele>56</ele>
        <time>2014-09-04T12:00:12Z</time>
      </trkpt>
      <trkpt lat="48.06591" lon="-4.63039">
        <ele>56</ele>
        <time>2014-09-04T12:00:23Z</time>
      </trkpt>
      <trkpt lat="48.06591" lon="-4.63035">
        <ele>56</ele>
        <time>2014-09-04T12:00:25Z</time>
      </trkpt>
      <trkpt lat="48.06595" lon="-4.63019">
        <ele>56</ele>
        <time>2014-09-04T12:00:42Z</time>
      </trkpt>
      <trkpt lat="48.06593" lon="-4.63019">
        <ele>57</ele>
        <time>2014-09-04T12:00:45Z</time>
      </trkpt>
      <trkpt lat="48.0659" lon="-4.63017">
        <ele>57</ele>
        <time>2014-09-04T12:00:53Z</time>
      </trkpt>
      <trkpt lat="48.06592" lon="-4.63015">
        <ele>57</ele>
        <time>2014-09-04T12:00:56Z</time>
      </trkpt>
      <trkpt lat="48.0659" lon="-4.63008">
        <ele>59</ele>
        <time>2014-09-04T12:01:05Z</time>
      </trkpt>
      <trkpt lat="48.0659" lon="-4.63005">
        <ele>59</ele>
        <time>2014-09-04T12:01:07Z</time>
      </trkpt>
      <trkpt lat="48.06585" lon="-4.62985">
        <ele>59</ele>
        <time>2014-09-04T12:01:19Z</time>
      </trkpt>
      <trkpt lat="48.06575" lon="-4.62969">
        <ele>67</ele>
        <time>2014-09-04T12:01:31Z</time>
      </trkpt>
      <trkpt lat="48.06569" lon="-4.62964">
        <ele>67</ele>
        <time>2014-09-04T12:01:37Z</time>
      </trkpt>
      <trkpt lat="48.06564" lon="-4.62931">
        <ele>67</ele>
        <time>2014-09-04T12:01:55Z</time>
      </trkpt>
      <trkpt lat="48.06564" lon="-4.62893">
        <ele>69</ele>
        <time>2014-09-04T12:02:15Z</time>
      </trkpt>
      <trkpt lat="48.06568" lon="-4.62877">
        <ele>70</ele>
        <time>2014-09-04T12:02:24Z</time>
      </trkpt>
      <trkpt lat="48.06585" lon="-4.62847">
        <ele>66</ele>
        <time>2014-09-04T12:02:44Z</time>
      </trkpt>
      <trkpt lat="48.06607" lon="-4.62831">
        <ele>68</ele>
        <time>2014-09-04T12:03:04Z</time>
      </trkpt>
      <trkpt lat="48.06628" lon="-4.62837">
        <ele>63</ele>
        <time>2014-09-04T12:03:20Z</time>
      </trkpt>
      <trkpt lat="48.06656" lon="-4.62833">
        <ele>65</ele>
        <time>2014-09-04T12:03:41Z</time>
      </trkpt>
      <trkpt lat="48.06679" lon="-4.62836">
        <ele>60</ele>
        <time>2014-09-04T12:03:59Z</time>
      </trkpt>
      <trkpt lat="48.06703" lon="-4.62842">
        <ele>57</ele>
        <time>2014-09-04T12:04:18Z</time>
      </trkpt>
      <trkpt lat="48.06726" lon="-4.62839">
        <ele>56</ele>
        <time>2014-09-04T12:04:37Z</time>
      </trkpt>
      <trkpt lat="48.06743" lon="-4.62817">
        <ele>61</ele>
        <time>2014-09-04T12:04:54Z</time>
      </trkpt>
      <trkpt lat="48.06761" lon="-4.62791">
        <ele>61</ele>
        <time>2014-09-04T12:05:14Z</time>
      </trkpt>
      <trkpt lat="48.0678" lon="-4.62767">
        <ele>62</ele>
        <time>2014-09-04T12:05:34Z</time>
      </trkpt>
      <trkpt lat="48.06798" lon="-4.62753">
        <ele>62</ele>
        <time>2014-09-04T12:05:51Z</time>
      </trkpt>
      <trkpt lat="48.06818" lon="-4.62757">
        <ele>63</ele>
        <time>2014-09-04T12:06:09Z</time>
      </trkpt>
      <trkpt lat="48.06833" lon="-4.62757">
        <ele>63</ele>
        <time>2014-09-04T12:06:22Z</time>
      </trkpt>
      <trkpt lat="48.06844" lon="-4.62745">
        <ele>65</ele>
        <time>2014-09-04T12:06:38Z</time>
      </trkpt>
      <trkpt lat="48.06849" lon="-4.62745">
        <ele>65</ele>
        <time>2014-09-04T12:06:51Z</time>
      </trkpt>
      <trkpt lat="48.0685" lon="-4.62745">
        <ele>65</ele>
        <time>2014-09-04T12:06:53Z</time>
      </trkpt>
      <trkpt lat="48.06869" lon="-4.62744">
        <ele>66</ele>
        <time>2014-09-04T12:07:13Z</time>
      </trkpt>
      <trkpt lat="48.06886" lon="-4.62742">
        <ele>66</ele>
        <time>2014-09-04T12:07:27Z</time>
      </trkpt>
      <trkpt lat="48.06909" lon="-4.62742">
        <ele>66</ele>
        <time>2014-09-04T12:07:46Z</time>
      </trkpt>
      <trkpt lat="48.06931" lon="-4.62743">
        <ele>66</ele>
        <time>2014-09-04T12:08:04Z</time>
      </trkpt>
      <trkpt lat="48.06952" lon="-4.62745">
        <ele>66</ele>
        <time>2014-09-04T12:08:21Z</time>
      </trkpt>
      <trkpt lat="48.06977" lon="-4.62747">
        <ele>67</ele>
        <time>2014-09-04T12:08:42Z</time>
      </trkpt>
      <trkpt lat="48.07001" lon="-4.62748">
        <ele>66</ele>
        <time>2014-09-04T12:09:01Z</time>
      </trkpt>
      <trkpt lat="48.0702" lon="-4.62768">
        <ele>59</ele>
        <time>2014-09-04T12:09:20Z</time>
      </trkpt>
      <trkpt lat="48.07033" lon="-4.62786">
        <ele>57</ele>
        <time>2014-09-04T12:09:35Z</time>
      </trkpt>
      <trkpt lat="48.07052" lon="-4.62799">
        <ele>56</ele>
        <time>2014-09-04T12:09:52Z</time>
      </trkpt>
      <trkpt lat="48.07071" lon="-4.62811">
        <ele>56</ele>
        <time>2014-09-04T12:10:10Z</time>
      </trkpt>
      <trkpt lat="48.07077" lon="-4.62814">
        <ele>56</ele>
        <time>2014-09-04T12:10:19Z</time>
      </trkpt>
      <trkpt lat="48.07082" lon="-4.62825">
        <ele>57</ele>
        <time>2014-09-04T12:10:28Z</time>
      </trkpt>
      <trkpt lat="48.07083" lon="-4.62828">
        <ele>57</ele>
        <time>2014-09-04T12:10:30Z</time>
      </trkpt>
      <trkpt lat="48.0708" lon="-4.62844">
        <ele>55</ele>
        <time>2014-09-04T12:10:44Z</time>
      </trkpt>
      <trkpt lat="48.0708" lon="-4.62847">
        <ele>54</ele>
        <time>2014-09-04T12:10:46Z</time>
      </trkpt>
      <trkpt lat="48.07081" lon="-4.62849">
        <ele>53</ele>
        <time>2014-09-04T12:10:48Z</time>
      </trkpt>
      <trkpt lat="48.07082" lon="-4.62856">
        <ele>52</ele>
        <time>2014-09-04T12:10:53Z</time>
      </trkpt>
      <trkpt lat="48.07094" lon="-4.62877">
        <ele>43</ele>
        <time>2014-09-04T12:11:10Z</time>
      </trkpt>
      <trkpt lat="48.07095" lon="-4.62878">
        <ele>43</ele>
        <time>2014-09-04T12:11:13Z</time>
      </trkpt>
      <trkpt lat="48.07102" lon="-4.62875">
        <ele>42</ele>
        <time>2014-09-04T12:11:27Z</time>
      </trkpt>
      <trkpt lat="48.07102" lon="-4.6288">
        <ele>42</ele>
        <time>2014-09-04T12:11:42Z</time>
      </trkpt>
      <trkpt lat="48.07106" lon="-4.62879">
        <ele>41</ele>
        <time>2014-09-04T12:12:03Z</time>
      </trkpt>
      <trkpt lat="48.07112" lon="-4.62883">
        <ele>40</ele>
        <time>2014-09-04T12:12:14Z</time>
      </trkpt>
      <trkpt lat="48.07112" lon="-4.62879">
        <ele>40</ele>
        <time>2014-09-04T12:12:41Z</time>
      </trkpt>
      <trkpt lat="48.07109" lon="-4.62878">
        <ele>41</ele>
        <time>2014-09-04T12:12:55Z</time>
      </trkpt>
      <trkpt lat="48.07101" lon="-4.62875">
        <ele>42</ele>
        <time>2014-09-04T12:13:08Z</time>
      </trkpt>
      <trkpt lat="48.071" lon="-4.62878">
        <ele>42</ele>
        <time>2014-09-04T12:13:24Z</time>
      </trkpt>
      <trkpt lat="48.07102" lon="-4.62873">
        <ele>42</ele>
        <time>2014-09-04T12:13:51Z</time>
      </trkpt>
      <trkpt lat="48.07101" lon="-4.62872">
        <ele>42</ele>
        <time>2014-09-04T12:14:06Z</time>
      </trkpt>
      <trkpt lat="48.07101" lon="-4.62871">
        <ele>42</ele>
        <time>2014-09-04T12:14:31Z</time>
      </trkpt>
      <trkpt lat="48.07099" lon="-4.62875">
        <ele>42</ele>
        <time>2014-09-04T12:14:56Z</time>
      </trkpt>
      <trkpt lat="48.071" lon="-4.62876">
        <ele>42</ele>
        <time>2014-09-04T12:15:30Z</time>
      </trkpt>
      <trkpt lat="48.07105" lon="-4.62877">
        <ele>41</ele>
        <time>2014-09-04T12:15:52Z</time>
      </trkpt>
      <trkpt lat="48.07104" lon="-4.62878">
        <ele>41</ele>
        <time>2014-09-04T12:16:10Z</time>
      </trkpt>
      <trkpt lat="48.07104" lon="-4.62875">
        <ele>42</ele>
        <time>2014-09-04T12:16:36Z</time>
      </trkpt>
      <trkpt lat="48.07097" lon="-4.62865">
        <ele>43</ele>
        <time>2014-09-04T12:16:53Z</time>
      </trkpt>
      <trkpt lat="48.0709" lon="-4.6286">
        <ele>45</ele>
        <time>2014-09-04T12:17:00Z</time>
      </trkpt>
      <trkpt lat="48.07087" lon="-4.62859">
        <ele>46</ele>
        <time>2014-09-04T12:17:04Z</time>
      </trkpt>
      <trkpt lat="48.07081" lon="-4.62847">
        <ele>54</ele>
        <time>2014-09-04T12:17:19Z</time>
      </trkpt>
      <trkpt lat="48.07084" lon="-4.62827">
        <ele>54</ele>
        <time>2014-09-04T12:17:36Z</time>
      </trkpt>
      <trkpt lat="48.07084" lon="-4.62826">
        <ele>53</ele>
        <time>2014-09-04T12:17:37Z</time>
      </trkpt>
      <trkpt lat="48.07083" lon="-4.6282">
        <ele>57</ele>
        <time>2014-09-04T12:17:41Z</time>
      </trkpt>
      <trkpt lat="48.07077" lon="-4.62793">
        <ele>54</ele>
        <time>2014-09-04T12:17:59Z</time>
      </trkpt>
      <trkpt lat="48.07064" lon="-4.6277">
        <ele>53</ele>
        <time>2014-09-04T12:18:15Z</time>
      </trkpt>
      <trkpt lat="48.07049" lon="-4.62739">
        <ele>50</ele>
        <time>2014-09-04T12:18:35Z</time>
      </trkpt>
      <trkpt lat="48.07046" lon="-4.62728">
        <ele>51</ele>
        <time>2014-09-04T12:18:42Z</time>
      </trkpt>
      <trkpt lat="48.07035" lon="-4.62706">
        <ele>51</ele>
        <time>2014-09-04T12:18:57Z</time>
      </trkpt>
      <trkpt lat="48.0703" lon="-4.62698">
        <ele>52</ele>
        <time>2014-09-04T12:19:02Z</time>
      </trkpt>
      <trkpt lat="48.07021" lon="-4.62668">
        <ele>55</ele>
        <time>2014-09-04T12:19:20Z</time>
      </trkpt>
      <trkpt lat="48.07015" lon="-4.62636">
        <ele>47</ele>
        <time>2014-09-04T12:19:37Z</time>
      </trkpt>
      <trkpt lat="48.07011" lon="-4.62606">
        <ele>47</ele>
        <time>2014-09-04T12:19:54Z</time>
      </trkpt>
      <trkpt lat="48.0701" lon="-4.62572">
        <ele>49</ele>
        <time>2014-09-04T12:20:12Z</time>
      </trkpt>
      <trkpt lat="48.07" lon="-4.62541">
        <ele>45</ele>
        <time>2014-09-04T12:20:30Z</time>
      </trkpt>
      <trkpt lat="48.0699" lon="-4.62509">
        <ele>53</ele>
        <time>2014-09-04T12:20:49Z</time>
      </trkpt>
      <trkpt lat="48.06986" lon="-4.62485">
        <ele>49</ele>
        <time>2014-09-04T12:21:05Z</time>
      </trkpt>
      <trkpt lat="48.06985" lon="-4.62457">
        <ele>48</ele>
        <time>2014-09-04T12:21:22Z</time>
      </trkpt>
      <trkpt lat="48.06986" lon="-4.62448">
        <ele>47</ele>
        <time>2014-09-04T12:21:27Z</time>
      </trkpt>
      <trkpt lat="48.06983" lon="-4.62424">
        <ele>43</ele>
        <time>2014-09-04T12:21:42Z</time>
      </trkpt>
      <trkpt lat="48.06982" lon="-4.62409">
        <ele>36</ele>
        <time>2014-09-04T12:21:58Z</time>
      </trkpt>
      <trkpt lat="48.0698" lon="-4.624">
        <ele>36</ele>
        <time>2014-09-04T12:22:20Z</time>
      </trkpt>
      <trkpt lat="48.0698" lon="-4.62397">
        <ele>36</ele>
        <time>2014-09-04T12:22:23Z</time>
      </trkpt>
      <trkpt lat="48.06973" lon="-4.62378">
        <ele>36</ele>
        <time>2014-09-04T12:22:38Z</time>
      </trkpt>
      <trkpt lat="48.06969" lon="-4.62368">
        <ele>35</ele>
        <time>2014-09-04T12:22:45Z</time>
      </trkpt>
      <trkpt lat="48.06963" lon="-4.62365">
        <ele>36</ele>
        <time>2014-09-04T12:22:50Z</time>
      </trkpt>
      <trkpt lat="48.06941" lon="-4.62342">
        <ele>39</ele>
        <time>2014-09-04T12:23:12Z</time>
      </trkpt>
      <trkpt lat="48.06924" lon="-4.62316">
        <ele>35</ele>
        <time>2014-09-04T12:23:32Z</time>
      </trkpt>
      <trkpt lat="48.06918" lon="-4.623">
        <ele>31</ele>
        <time>2014-09-04T12:23:47Z</time>
      </trkpt>
      <trkpt lat="48.06917" lon="-4.62302">
        <ele>31</ele>
        <time>2014-09-04T12:24:07Z</time>
      </trkpt>
      <trkpt lat="48.06917" lon="-4.62301">
        <ele>38</ele>
        <time>2014-09-04T12:24:22Z</time>
      </trkpt>
      <trkpt lat="48.0691" lon="-4.62295">
        <ele>37</ele>
        <time>2014-09-04T12:24:34Z</time>
      </trkpt>
      <trkpt lat="48.06903" lon="-4.62278">
        <ele>34</ele>
        <time>2014-09-04T12:24:51Z</time>
      </trkpt>
      <trkpt lat="48.06903" lon="-4.62281">
        <ele>34</ele>
        <time>2014-09-04T12:25:11Z</time>
      </trkpt>
      <trkpt lat="48.06901" lon="-4.62281">
        <ele>34</ele>
        <time>2014-09-04T12:25:21Z</time>
      </trkpt>
      <trkpt lat="48.06897" lon="-4.62277">
        <ele>34</ele>
        <time>2014-09-04T12:25:25Z</time>
      </trkpt>
      <trkpt lat="48.06881" lon="-4.62251">
        <ele>33</ele>
        <time>2014-09-04T12:25:45Z</time>
      </trkpt>
      <trkpt lat="48.06874" lon="-4.62239">
        <ele>25</ele>
        <time>2014-09-04T12:25:55Z</time>
      </trkpt>
      <trkpt lat="48.06866" lon="-4.6223">
        <ele>25</ele>
        <time>2014-09-04T12:26:12Z</time>
      </trkpt>
      <trkpt lat="48.06863" lon="-4.62226">
        <ele>25</ele>
        <time>2014-09-04T12:26:27Z</time>
      </trkpt>
      <trkpt lat="48.06857" lon="-4.62222">
        <ele>25</ele>
        <time>2014-09-04T12:26:40Z</time>
      </trkpt>
      <trkpt lat="48.0685" lon="-4.62221">
        <ele>25</ele>
        <time>2014-09-04T12:26:54Z</time>
      </trkpt>
      <trkpt lat="48.06838" lon="-4.62219">
        <ele>26</ele>
        <time>2014-09-04T12:27:06Z</time>
      </trkpt>
      <trkpt lat="48.06819" lon="-4.62219">
        <ele>33</ele>
        <time>2014-09-04T12:27:22Z</time>
      </trkpt>
      <trkpt lat="48.06805" lon="-4.62219">
        <ele>34</ele>
        <time>2014-09-04T12:27:35Z</time>
      </trkpt>
      <trkpt lat="48.06787" lon="-4.62218">
        <ele>36</ele>
        <time>2014-09-04T12:27:52Z</time>
      </trkpt>
      <trkpt lat="48.0677" lon="-4.62219">
        <ele>38</ele>
        <time>2014-09-04T12:28:08Z</time>
      </trkpt>
      <trkpt lat="48.0675" lon="-4.62216">
        <ele>48</ele>
        <time>2014-09-04T12:28:26Z</time>
      </trkpt>
      <trkpt lat="48.06739" lon="-4.62216">
        <ele>48</ele>
        <time>2014-09-04T12:28:41Z</time>
      </trkpt>
      <trkpt lat="48.06724" lon="-4.62214">
        <ele>49</ele>
        <time>2014-09-04T12:28:57Z</time>
      </trkpt>
      <trkpt lat="48.06711" lon="-4.62215">
        <ele>50</ele>
        <time>2014-09-04T12:29:11Z</time>
      </trkpt>
      <trkpt lat="48.06699" lon="-4.62214">
        <ele>51</ele>
        <time>2014-09-04T12:29:29Z</time>
      </trkpt>
      <trkpt lat="48.06689" lon="-4.62198">
        <ele>51</ele>
        <time>2014-09-04T12:29:42Z</time>
      </trkpt>
      <trkpt lat="48.06691" lon="-4.6219">
        <ele>51</ele>
        <time>2014-09-04T12:29:48Z</time>
      </trkpt>
      <trkpt lat="48.06699" lon="-4.62178">
        <ele>51</ele>
        <time>2014-09-04T12:30:00Z</time>
      </trkpt>
      <trkpt lat="48.06715" lon="-4.62164">
        <ele>50</ele>
        <time>2014-09-04T12:30:17Z</time>
      </trkpt>
      <trkpt lat="48.06717" lon="-4.62151">
        <ele>50</ele>
        <time>2014-09-04T12:30:31Z</time>
      </trkpt>
      <trkpt lat="48.06718" lon="-4.62148">
        <ele>50</ele>
        <time>2014-09-04T12:30:33Z</time>
      </trkpt>
      <trkpt lat="48.06719" lon="-4.62146">
        <ele>50</ele>
        <time>2014-09-04T12:30:35Z</time>
      </trkpt>
      <trkpt lat="48.06721" lon="-4.62141">
        <ele>50</ele>
        <time>2014-09-04T12:30:40Z</time>
      </trkpt>
      <trkpt lat="48.0672" lon="-4.6214">
        <ele>50</ele>
        <time>2014-09-04T12:30:42Z</time>
      </trkpt>
      <trkpt lat="48.06716" lon="-4.62136">
        <ele>51</ele>
        <time>2014-09-04T12:30:47Z</time>
      </trkpt>
      <trkpt lat="48.06714" lon="-4.62129">
        <ele>51</ele>
        <time>2014-09-04T12:30:52Z</time>
      </trkpt>
      <trkpt lat="48.06714" lon="-4.62119">
        <ele>52</ele>
        <time>2014-09-04T12:30:59Z</time>
      </trkpt>
      <trkpt lat="48.06714" lon="-4.62096">
        <ele>52</ele>
        <time>2014-09-04T12:31:14Z</time>
      </trkpt>
      <trkpt lat="48.06714" lon="-4.62093">
        <ele>52</ele>
        <time>2014-09-04T12:31:16Z</time>
      </trkpt>
      <trkpt lat="48.06713" lon="-4.62067">
        <ele>54</ele>
        <time>2014-09-04T12:31:31Z</time>
      </trkpt>
      <trkpt lat="48.06714" lon="-4.62042">
        <ele>54</ele>
        <time>2014-09-04T12:31:46Z</time>
      </trkpt>
      <trkpt lat="48.06715" lon="-4.62008">
        <ele>53</ele>
        <time>2014-09-04T12:32:05Z</time>
      </trkpt>
      <trkpt lat="48.06715" lon="-4.61986">
        <ele>54</ele>
        <time>2014-09-04T12:32:17Z</time>
      </trkpt>
      <trkpt lat="48.0672" lon="-4.61969">
        <ele>54</ele>
        <time>2014-09-04T12:32:32Z</time>
      </trkpt>
      <trkpt lat="48.06726" lon="-4.6197">
        <ele>54</ele>
        <time>2014-09-04T12:32:43Z</time>
      </trkpt>
      <trkpt lat="48.0672" lon="-4.61957">
        <ele>55</ele>
        <time>2014-09-04T12:33:00Z</time>
      </trkpt>
      <trkpt lat="48.06719" lon="-4.61947">
        <ele>55</ele>
        <time>2014-09-04T12:33:16Z</time>
      </trkpt>
      <trkpt lat="48.06714" lon="-4.61936">
        <ele>55</ele>
        <time>2014-09-04T12:33:30Z</time>
      </trkpt>
      <trkpt lat="48.06714" lon="-4.61932">
        <ele>55</ele>
        <time>2014-09-04T12:33:37Z</time>
      </trkpt>
      <trkpt lat="48.06733" lon="-4.61944">
        <ele>55</ele>
        <time>2014-09-04T12:33:53Z</time>
      </trkpt>
      <trkpt lat="48.06745" lon="-4.61954">
        <ele>54</ele>
        <time>2014-09-04T12:34:03Z</time>
      </trkpt>
      <trkpt lat="48.06759" lon="-4.61964">
        <ele>52</ele>
        <time>2014-09-04T12:34:17Z</time>
      </trkpt>
      <trkpt lat="48.06763" lon="-4.61969">
        <ele>52</ele>
        <time>2014-09-04T12:34:21Z</time>
      </trkpt>
      <trkpt lat="48.06777" lon="-4.61985">
        <ele>51</ele>
        <time>2014-09-04T12:34:35Z</time>
      </trkpt>
      <trkpt lat="48.06792" lon="-4.61998">
        <ele>50</ele>
        <time>2014-09-04T12:34:49Z</time>
      </trkpt>
      <trkpt lat="48.06807" lon="-4.62007">
        <ele>43</ele>
        <time>2014-09-04T12:35:03Z</time>
      </trkpt>
      <trkpt lat="48.06819" lon="-4.62016">
        <ele>43</ele>
        <time>2014-09-04T12:35:16Z</time>
      </trkpt>
      <trkpt lat="48.06832" lon="-4.62009">
        <ele>44</ele>
        <time>2014-09-04T12:35:29Z</time>
      </trkpt>
      <trkpt lat="48.06834" lon="-4.62005">
        <ele>41</ele>
        <time>2014-09-04T12:35:32Z</time>
      </trkpt>
      <trkpt lat="48.06842" lon="-4.61994">
        <ele>44</ele>
        <time>2014-09-04T12:35:41Z</time>
      </trkpt>
      <trkpt lat="48.06847" lon="-4.61986">
        <ele>43</ele>
        <time>2014-09-04T12:35:48Z</time>
      </trkpt>
      <trkpt lat="48.06853" lon="-4.61961">
        <ele>44</ele>
        <time>2014-09-04T12:36:03Z</time>
      </trkpt>
      <trkpt lat="48.06853" lon="-4.61933">
        <ele>49</ele>
        <time>2014-09-04T12:36:19Z</time>
      </trkpt>
      <trkpt lat="48.06866" lon="-4.61904">
        <ele>55</ele>
        <time>2014-09-04T12:36:37Z</time>
      </trkpt>
      <trkpt lat="48.06878" lon="-4.61874">
        <ele>55</ele>
        <time>2014-09-04T12:36:55Z</time>
      </trkpt>
      <trkpt lat="48.06896" lon="-4.61847">
        <ele>55</ele>
        <time>2014-09-04T12:37:14Z</time>
      </trkpt>
      <trkpt lat="48.06913" lon="-4.61827">
        <ele>58</ele>
        <time>2014-09-04T12:37:31Z</time>
      </trkpt>
      <trkpt lat="48.06927" lon="-4.61807">
        <ele>47</ele>
        <time>2014-09-04T12:37:47Z</time>
      </trkpt>
      <trkpt lat="48.06936" lon="-4.61798">
        <ele>45</ele>
        <time>2014-09-04T12:37:59Z</time>
      </trkpt>
      <trkpt lat="48.06943" lon="-4.61793">
        <ele>44</ele>
        <time>2014-09-04T12:38:07Z</time>
      </trkpt>
      <trkpt lat="48.0695" lon="-4.61779">
        <ele>43</ele>
        <time>2014-09-04T12:38:18Z</time>
      </trkpt>
      <trkpt lat="48.06952" lon="-4.61773">
        <ele>43</ele>
        <time>2014-09-04T12:38:32Z</time>
      </trkpt>
      <trkpt lat="48.06951" lon="-4.61774">
        <ele>43</ele>
        <time>2014-09-04T12:39:01Z</time>
      </trkpt>
      <trkpt lat="48.06951" lon="-4.61776">
        <ele>43</ele>
        <time>2014-09-04T12:39:24Z</time>
      </trkpt>
      <trkpt lat="48.06952" lon="-4.61778">
        <ele>43</ele>
        <time>2014-09-04T12:39:42Z</time>
      </trkpt>
      <trkpt lat="48.06951" lon="-4.61781">
        <ele>43</ele>
        <time>2014-09-04T12:39:59Z</time>
      </trkpt>
      <trkpt lat="48.06951" lon="-4.61781">
        <ele>43</ele>
        <time>2014-09-04T12:40:30Z</time>
      </trkpt>
      <trkpt lat="48.0695" lon="-4.61779">
        <ele>43</ele>
        <time>2014-09-04T12:40:54Z</time>
      </trkpt>
      <trkpt lat="48.0695" lon="-4.6178">
        <ele>43</ele>
        <time>2014-09-04T12:41:27Z</time>
      </trkpt>
      <trkpt lat="48.0695" lon="-4.61781">
        <ele>43</ele>
        <time>2014-09-04T12:41:50Z</time>
      </trkpt>
      <trkpt lat="48.06947" lon="-4.61786">
        <ele>43</ele>
        <time>2014-09-04T12:41:56Z</time>
      </trkpt>
      <trkpt lat="48.06942" lon="-4.61797">
        <ele>44</ele>
        <time>2014-09-04T12:42:10Z</time>
      </trkpt>
      <trkpt lat="48.06944" lon="-4.61796">
        <ele>44</ele>
        <time>2014-09-04T12:42:33Z</time>
      </trkpt>
      <trkpt lat="48.06942" lon="-4.61794">
        <ele>44</ele>
        <time>2014-09-04T12:42:46Z</time>
      </trkpt>
      <trkpt lat="48.06941" lon="-4.61796">
        <ele>44</ele>
        <time>2014-09-04T12:43:12Z</time>
      </trkpt>
      <trkpt lat="48.06941" lon="-4.61796">
        <ele>44</ele>
        <time>2014-09-04T12:43:36Z</time>
      </trkpt>
      <trkpt lat="48.06943" lon="-4.61795">
        <ele>44</ele>
        <time>2014-09-04T12:43:59Z</time>
      </trkpt>
      <trkpt lat="48.06944" lon="-4.61794">
        <ele>44</ele>
        <time>2014-09-04T12:44:27Z</time>
      </trkpt>
      <trkpt lat="48.06943" lon="-4.61796">
        <ele>44</ele>
        <time>2014-09-04T12:44:46Z</time>
      </trkpt>
      <trkpt lat="48.06943" lon="-4.61795">
        <ele>44</ele>
        <time>2014-09-04T12:45:13Z</time>
      </trkpt>
      <trkpt lat="48.06942" lon="-4.61794">
        <ele>44</ele>
        <time>2014-09-04T12:45:39Z</time>
      </trkpt>
      <trkpt lat="48.06942" lon="-4.61795">
        <ele>44</ele>
        <time>2014-09-04T12:46:11Z</time>
      </trkpt>
      <trkpt lat="48.06942" lon="-4.61795">
        <ele>44</ele>
        <time>2014-09-04T12:46:41Z</time>
      </trkpt>
      <trkpt lat="48.06943" lon="-4.61794">
        <ele>44</ele>
        <time>2014-09-04T12:47:00Z</time>
      </trkpt>
      <trkpt lat="48.06945" lon="-4.61791">
        <ele>44</ele>
        <time>2014-09-04T12:47:03Z</time>
      </trkpt>
      <trkpt lat="48.06952" lon="-4.61775">
        <ele>43</ele>
        <time>2014-09-04T12:47:14Z</time>
      </trkpt>
      <trkpt lat="48.0695" lon="-4.61769">
        <ele>44</ele>
        <time>2014-09-04T12:47:18Z</time>
      </trkpt>
      <trkpt lat="48.06949" lon="-4.61738">
        <ele>49</ele>
        <time>2014-09-04T12:47:35Z</time>
      </trkpt>
      <trkpt lat="48.06949" lon="-4.61736">
        <ele>49</ele>
        <time>2014-09-04T12:47:36Z</time>
      </trkpt>
      <trkpt lat="48.06939" lon="-4.61708">
        <ele>50</ele>
        <time>2014-09-04T12:47:54Z</time>
      </trkpt>
      <trkpt lat="48.06938" lon="-4.61702">
        <ele>51</ele>
        <time>2014-09-04T12:47:58Z</time>
      </trkpt>
      <trkpt lat="48.06942" lon="-4.61692">
        <ele>51</ele>
        <time>2014-09-04T12:48:05Z</time>
      </trkpt>
      <trkpt lat="48.06948" lon="-4.6167">
        <ele>50</ele>
        <time>2014-09-04T12:48:19Z</time>
      </trkpt>
      <trkpt lat="48.06948" lon="-4.61661">
        <ele>52</ele>
        <time>2014-09-04T12:48:25Z</time>
      </trkpt>
      <trkpt lat="48.06945" lon="-4.61655">
        <ele>53</ele>
        <time>2014-09-04T12:48:30Z</time>
      </trkpt>
      <trkpt lat="48.06944" lon="-4.61653">
        <ele>53</ele>
        <time>2014-09-04T12:48:32Z</time>
      </trkpt>
      <trkpt lat="48.06943" lon="-4.61651">
        <ele>53</ele>
        <time>2014-09-04T12:48:34Z</time>
      </trkpt>
      <trkpt lat="48.06944" lon="-4.61649">
        <ele>53</ele>
        <time>2014-09-04T12:48:36Z</time>
      </trkpt>
      <trkpt lat="48.06947" lon="-4.61642">
        <ele>52</ele>
        <time>2014-09-04T12:48:41Z</time>
      </trkpt>
      <trkpt lat="48.0695" lon="-4.61623">
        <ele>52</ele>
        <time>2014-09-04T12:48:53Z</time>
      </trkpt>
      <trkpt lat="48.06954" lon="-4.61619">
        <ele>51</ele>
        <time>2014-09-04T12:48:57Z</time>
      </trkpt>
      <trkpt lat="48.06957" lon="-4.61612">
        <ele>51</ele>
        <time>2014-09-04T12:49:02Z</time>
      </trkpt>
      <trkpt lat="48.06958" lon="-4.61598">
        <ele>51</ele>
        <time>2014-09-04T12:49:11Z</time>
      </trkpt>
      <trkpt lat="48.06947" lon="-4.61581">
        <ele>55</ele>
        <time>2014-09-04T12:49:26Z</time>
      </trkpt>
      <trkpt lat="48.06941" lon="-4.61579">
        <ele>56</ele>
        <time>2014-09-04T12:49:31Z</time>
      </trkpt>
      <trkpt lat="48.06923" lon="-4.61572">
        <ele>60</ele>
        <time>2014-09-04T12:49:46Z</time>
      </trkpt>
      <trkpt lat="48.06902" lon="-4.61562">
        <ele>65</ele>
        <time>2014-09-04T12:50:04Z</time>
      </trkpt>
      <trkpt lat="48.06883" lon="-4.61556">
        <ele>65</ele>
        <time>2014-09-04T12:50:20Z</time>
      </trkpt>
      <trkpt lat="48.06878" lon="-4.61553">
        <ele>65</ele>
        <time>2014-09-04T12:50:25Z</time>
      </trkpt>
      <trkpt lat="48.06876" lon="-4.61549">
        <ele>65</ele>
        <time>2014-09-04T12:50:28Z</time>
      </trkpt>
      <trkpt lat="48.06878" lon="-4.61537">
        <ele>65</ele>
        <time>2014-09-04T12:50:35Z</time>
      </trkpt>
      <trkpt lat="48.06885" lon="-4.61509">
        <ele>65</ele>
        <time>2014-09-04T12:50:53Z</time>
      </trkpt>
      <trkpt lat="48.06891" lon="-4.61484">
        <ele>66</ele>
        <time>2014-09-04T12:51:08Z</time>
      </trkpt>
      <trkpt lat="48.069" lon="-4.61457">
        <ele>67</ele>
        <time>2014-09-04T12:51:25Z</time>
      </trkpt>
      <trkpt lat="48.06909" lon="-4.61427">
        <ele>67</ele>
        <time>2014-09-04T12:51:43Z</time>
      </trkpt>
      <trkpt lat="48.06916" lon="-4.61401">
        <ele>68</ele>
        <time>2014-09-04T12:51:59Z</time>
      </trkpt>
      <trkpt lat="48.06926" lon="-4.6137">
        <ele>64</ele>
        <time>2014-09-04T12:52:17Z</time>
      </trkpt>
      <trkpt lat="48.06934" lon="-4.61343">
        <ele>65</ele>
        <time>2014-09-04T12:52:33Z</time>
      </trkpt>
      <trkpt lat="48.06943" lon="-4.61313">
        <ele>67</ele>
        <time>2014-09-04T12:52:50Z</time>
      </trkpt>
      <trkpt lat="48.06953" lon="-4.61284">
        <ele>67</ele>
        <time>2014-09-04T12:53:07Z</time>
      </trkpt>
      <trkpt lat="48.06961" lon="-4.61255">
        <ele>67</ele>
        <time>2014-09-04T12:53:25Z</time>
      </trkpt>
      <trkpt lat="48.06971" lon="-4.61225">
        <ele>69</ele>
        <time>2014-09-04T12:53:43Z</time>
      </trkpt>
      <trkpt lat="48.06983" lon="-4.6119">
        <ele>69</ele>
        <time>2014-09-04T12:54:03Z</time>
      </trkpt>
      <trkpt lat="48.06991" lon="-4.61164">
        <ele>69</ele>
        <time>2014-09-04T12:54:19Z</time>
      </trkpt>
      <trkpt lat="48.0698" lon="-4.61138">
        <ele>70</ele>
        <time>2014-09-04T12:54:37Z</time>
      </trkpt>
      <trkpt lat="48.06965" lon="-4.61112">
        <ele>70</ele>
        <time>2014-09-04T12:54:55Z</time>
      </trkpt>
      <trkpt lat="48.0695" lon="-4.61088">
        <ele>70</ele>
        <time>2014-09-04T12:55:12Z</time>
      </trkpt>
      <trkpt lat="48.06931" lon="-4.61067">
        <ele>71</ele>
        <time>2014-09-04T12:55:30Z</time>
      </trkpt>
      <trkpt lat="48.06912" lon="-4.61048">
        <ele>71</ele>
        <time>2014-09-04T12:55:48Z</time>
      </trkpt>
      <trkpt lat="48.06892" lon="-4.61025">
        <ele>71</ele>
        <time>2014-09-04T12:56:08Z</time>
      </trkpt>
      <trkpt lat="48.06872" lon="-4.61001">
        <ele>71</ele>
        <time>2014-09-04T12:56:27Z</time>
      </trkpt>
      <trkpt lat="48.06852" lon="-4.6098">
        <ele>71</ele>
        <time>2014-09-04T12:56:45Z</time>
      </trkpt>
      <trkpt lat="48.06837" lon="-4.60956">
        <ele>71</ele>
        <time>2014-09-04T12:57:02Z</time>
      </trkpt>
      <trkpt lat="48.0683" lon="-4.60928">
        <ele>72</ele>
        <time>2014-09-04T12:57:18Z</time>
      </trkpt>
      <trkpt lat="48.06823" lon="-4.60897">
        <ele>72</ele>
        <time>2014-09-04T12:57:36Z</time>
      </trkpt>
      <trkpt lat="48.06814" lon="-4.6086">
        <ele>72</ele>
        <time>2014-09-04T12:57:56Z</time>
      </trkpt>
      <trkpt lat="48.06804" lon="-4.60824">
        <ele>72</ele>
        <time>2014-09-04T12:58:16Z</time>
      </trkpt>
      <trkpt lat="48.06796" lon="-4.6079">
        <ele>72</ele>
        <time>2014-09-04T12:58:35Z</time>
      </trkpt>
      <trkpt lat="48.06787" lon="-4.60756">
        <ele>72</ele>
        <time>2014-09-04T12:58:54Z</time>
      </trkpt>
      <trkpt lat="48.06777" lon="-4.60714">
        <ele>71</ele>
        <time>2014-09-04T12:59:17Z</time>
      </trkpt>
      <trkpt lat="48.06768" lon="-4.60676">
        <ele>71</ele>
        <time>2014-09-04T12:59:38Z</time>
      </trkpt>
      <trkpt lat="48.06748" lon="-4.6066">
        <ele>71</ele>
        <time>2014-09-04T12:59:56Z</time>
      </trkpt>
      <trkpt lat="48.06726" lon="-4.60652">
        <ele>70</ele>
        <time>2014-09-04T13:00:14Z</time>
      </trkpt>
      <trkpt lat="48.067" lon="-4.60642">
        <ele>70</ele>
        <time>2014-09-04T13:00:35Z</time>
      </trkpt>
      <trkpt lat="48.06676" lon="-4.60634">
        <ele>70</ele>
        <time>2014-09-04T13:00:55Z</time>
      </trkpt>
      <trkpt lat="48.06653" lon="-4.60625">
        <ele>71</ele>
        <time>2014-09-04T13:01:14Z</time>
      </trkpt>
      <trkpt lat="48.06637" lon="-4.60618">
        <ele>71</ele>
        <time>2014-09-04T13:01:31Z</time>
      </trkpt>
      <trkpt lat="48.06626" lon="-4.60614">
        <ele>71</ele>
        <time>2014-09-04T13:01:46Z</time>
      </trkpt>
      <trkpt lat="48.06626" lon="-4.60614">
        <ele>71</ele>
        <time>2014-09-04T13:02:07Z</time>
      </trkpt>
      <trkpt lat="48.06626" lon="-4.60614">
        <ele>71</ele>
        <time>2014-09-04T13:02:22Z</time>
      </trkpt>
      <trkpt lat="48.06627" lon="-4.60614">
        <ele>71</ele>
        <time>2014-09-04T13:02:43Z</time>
      </trkpt>
      <trkpt lat="48.06631" lon="-4.60617">
        <ele>71</ele>
        <time>2014-09-04T13:02:55Z</time>
      </trkpt>
      <trkpt lat="48.0663" lon="-4.60615">
        <ele>71</ele>
        <time>2014-09-04T13:03:10Z</time>
      </trkpt>
      <trkpt lat="48.06629" lon="-4.60594">
        <ele>71</ele>
        <time>2014-09-04T13:03:23Z</time>
      </trkpt>
      <trkpt lat="48.06632" lon="-4.60579">
        <ele>71</ele>
        <time>2014-09-04T13:03:36Z</time>
      </trkpt>
      <trkpt lat="48.06637" lon="-4.60547">
        <ele>71</ele>
        <time>2014-09-04T13:03:55Z</time>
      </trkpt>
      <trkpt lat="48.06642" lon="-4.60514">
        <ele>71</ele>
        <time>2014-09-04T13:04:14Z</time>
      </trkpt>
      <trkpt lat="48.06647" lon="-4.6048">
        <ele>72</ele>
        <time>2014-09-04T13:04:33Z</time>
      </trkpt>
      <trkpt lat="48.06654" lon="-4.60451">
        <ele>72</ele>
        <time>2014-09-04T13:04:52Z</time>
      </trkpt>
      <trkpt lat="48.06657" lon="-4.60445">
        <ele>72</ele>
        <time>2014-09-04T13:05:09Z</time>
      </trkpt>
      <trkpt lat="48.06657" lon="-4.60446">
        <ele>72</ele>
        <time>2014-09-04T13:05:40Z</time>
      </trkpt>
      <trkpt lat="48.06659" lon="-4.60445">
        <ele>72</ele>
        <time>2014-09-04T13:05:57Z</time>
      </trkpt>
      <trkpt lat="48.06663" lon="-4.60446">
        <ele>72</ele>
        <time>2014-09-04T13:06:20Z</time>
      </trkpt>
      <trkpt lat="48.06662" lon="-4.60444">
        <ele>72</ele>
        <time>2014-09-04T13:06:37Z</time>
      </trkpt>
      <trkpt lat="48.06654" lon="-4.60449">
        <ele>72</ele>
        <time>2014-09-04T13:06:58Z</time>
      </trkpt>
      <trkpt lat="48.06652" lon="-4.60453">
        <ele>72</ele>
        <time>2014-09-04T13:07:17Z</time>
      </trkpt>
      <trkpt lat="48.06651" lon="-4.60457">
        <ele>72</ele>
        <time>2014-09-04T13:07:40Z</time>
      </trkpt>
      <trkpt lat="48.06651" lon="-4.60459">
        <ele>72</ele>
        <time>2014-09-04T13:07:59Z</time>
      </trkpt>
      <trkpt lat="48.06651" lon="-4.60458">
        <ele>72</ele>
        <time>2014-09-04T13:08:24Z</time>
      </trkpt>
      <trkpt lat="48.06651" lon="-4.60459">
        <ele>72</ele>
        <time>2014-09-04T13:08:42Z</time>
      </trkpt>
      <trkpt lat="48.06649" lon="-4.60467">
        <ele>72</ele>
        <time>2014-09-04T13:08:47Z</time>
      </trkpt>
      <trkpt lat="48.06643" lon="-4.60504">
        <ele>71</ele>
        <time>2014-09-04T13:09:07Z</time>
      </trkpt>
      <trkpt lat="48.06636" lon="-4.60545">
        <ele>71</ele>
        <time>2014-09-04T13:09:29Z</time>
      </trkpt>
      <trkpt lat="48.0663" lon="-4.60584">
        <ele>71</ele>
        <time>2014-09-04T13:09:51Z</time>
      </trkpt>
      <trkpt lat="48.06619" lon="-4.60612">
        <ele>71</ele>
        <time>2014-09-04T13:10:10Z</time>
      </trkpt>
      <trkpt lat="48.06594" lon="-4.60605">
        <ele>72</ele>
        <time>2014-09-04T13:10:29Z</time>
      </trkpt>
      <trkpt lat="48.06569" lon="-4.60601">
        <ele>72</ele>
        <time>2014-09-04T13:10:48Z</time>
      </trkpt>
      <trkpt lat="48.06546" lon="-4.60597">
        <ele>72</ele>
        <time>2014-09-04T13:11:06Z</time>
      </trkpt>
      <trkpt lat="48.06519" lon="-4.60596">
        <ele>73</ele>
        <time>2014-09-04T13:11:26Z</time>
      </trkpt>
      <trkpt lat="48.06492" lon="-4.60596">
        <ele>72</ele>
        <time>2014-09-04T13:11:47Z</time>
      </trkpt>
      <trkpt lat="48.06465" lon="-4.60597">
        <ele>72</ele>
        <time>2014-09-04T13:12:08Z</time>
      </trkpt>
      <trkpt lat="48.06437" lon="-4.606">
        <ele>72</ele>
        <time>2014-09-04T13:12:30Z</time>
      </trkpt>
      <trkpt lat="48.06408" lon="-4.606">
        <ele>71</ele>
        <time>2014-09-04T13:12:52Z</time>
      </trkpt>
      <trkpt lat="48.06382" lon="-4.60607">
        <ele>70</ele>
        <time>2014-09-04T13:13:13Z</time>
      </trkpt>
      <trkpt lat="48.06367" lon="-4.60621">
        <ele>70</ele>
        <time>2014-09-04T13:13:29Z</time>
      </trkpt>
      <trkpt lat="48.06341" lon="-4.60617">
        <ele>70</ele>
        <time>2014-09-04T13:13:49Z</time>
      </trkpt>
      <trkpt lat="48.06314" lon="-4.60616">
        <ele>69</ele>
        <time>2014-09-04T13:14:10Z</time>
      </trkpt>
      <trkpt lat="48.063" lon="-4.60617">
        <ele>69</ele>
        <time>2014-09-04T13:14:23Z</time>
      </trkpt>
      <trkpt lat="48.06277" lon="-4.60624">
        <ele>68</ele>
        <time>2014-09-04T13:14:41Z</time>
      </trkpt>
      <trkpt lat="48.06253" lon="-4.60644">
        <ele>68</ele>
        <time>2014-09-04T13:15:02Z</time>
      </trkpt>
      <trkpt lat="48.06237" lon="-4.60658">
        <ele>68</ele>
        <time>2014-09-04T13:15:19Z</time>
      </trkpt>
      <trkpt lat="48.06223" lon="-4.60669">
        <ele>69</ele>
        <time>2014-09-04T13:15:34Z</time>
      </trkpt>
      <trkpt lat="48.062" lon="-4.60687">
        <ele>69</ele>
        <time>2014-09-04T13:15:52Z</time>
      </trkpt>
      <trkpt lat="48.06177" lon="-4.60706">
        <ele>69</ele>
        <time>2014-09-04T13:16:11Z</time>
      </trkpt>
      <trkpt lat="48.06154" lon="-4.60724">
        <ele>70</ele>
        <time>2014-09-04T13:16:30Z</time>
      </trkpt>
      <trkpt lat="48.06132" lon="-4.60744">
        <ele>70</ele>
        <time>2014-09-04T13:16:50Z</time>
      </trkpt>
      <trkpt lat="48.0611" lon="-4.60763">
        <ele>70</ele>
        <time>2014-09-04T13:17:09Z</time>
      </trkpt>
      <trkpt lat="48.06092" lon="-4.60786">
        <ele>70</ele>
        <time>2014-09-04T13:17:27Z</time>
      </trkpt>
      <trkpt lat="48.06078" lon="-4.60815">
        <ele>70</ele>
        <time>2014-09-04T13:17:45Z</time>
      </trkpt>
      <trkpt lat="48.06063" lon="-4.60852">
        <ele>70</ele>
        <time>2014-09-04T13:18:07Z</time>
      </trkpt>
      <trkpt lat="48.06049" lon="-4.60887">
        <ele>70</ele>
        <time>2014-09-04T13:18:28Z</time>
      </trkpt>
      <trkpt lat="48.06047" lon="-4.6089">
        <ele>70</ele>
        <time>2014-09-04T13:18:30Z</time>
      </trkpt>
      <trkpt lat="48.06029" lon="-4.60888">
        <ele>71</ele>
        <time>2014-09-04T13:18:46Z</time>
      </trkpt>
      <trkpt lat="48.06006" lon="-4.60874">
        <ele>71</ele>
        <time>2014-09-04T13:19:05Z</time>
      </trkpt>
      <trkpt lat="48.05983" lon="-4.60858">
        <ele>71</ele>
        <time>2014-09-04T13:19:24Z</time>
      </trkpt>
      <trkpt lat="48.05958" lon="-4.60842">
        <ele>72</ele>
        <time>2014-09-04T13:19:44Z</time>
      </trkpt>
      <trkpt lat="48.0594" lon="-4.60832">
        <ele>72</ele>
        <time>2014-09-04T13:19:59Z</time>
      </trkpt>
      <trkpt lat="48.05917" lon="-4.60816">
        <ele>72</ele>
        <time>2014-09-04T13:20:18Z</time>
      </trkpt>
      <trkpt lat="48.05892" lon="-4.60802">
        <ele>72</ele>
        <time>2014-09-04T13:20:38Z</time>
      </trkpt>
      <trkpt lat="48.05867" lon="-4.60786">
        <ele>73</ele>
        <time>2014-09-04T13:20:59Z</time>
      </trkpt>
      <trkpt lat="48.05845" lon="-4.6077">
        <ele>73</ele>
        <time>2014-09-04T13:21:18Z</time>
      </trkpt>
      <trkpt lat="48.05822" lon="-4.60754">
        <ele>72</ele>
        <time>2014-09-04T13:21:36Z</time>
      </trkpt>
      <trkpt lat="48.05796" lon="-4.60739">
        <ele>72</ele>
        <time>2014-09-04T13:21:56Z</time>
      </trkpt>
      <trkpt lat="48.05772" lon="-4.60724">
        <ele>72</ele>
        <time>2014-09-04T13:22:16Z</time>
      </trkpt>
      <trkpt lat="48.05753" lon="-4.60715">
        <ele>71</ele>
        <time>2014-09-04T13:22:33Z</time>
      </trkpt>
      <trkpt lat="48.05737" lon="-4.60723">
        <ele>70</ele>
        <time>2014-09-04T13:22:49Z</time>
      </trkpt>
      <trkpt lat="48.05737" lon="-4.60727">
        <ele>70</ele>
        <time>2014-09-04T13:23:02Z</time>
      </trkpt>
      <trkpt lat="48.05736" lon="-4.60725">
        <ele>70</ele>
        <time>2014-09-04T13:23:17Z</time>
      </trkpt>
      <trkpt lat="48.05736" lon="-4.60725">
        <ele>70</ele>
        <time>2014-09-04T13:23:41Z</time>
      </trkpt>
      <trkpt lat="48.05736" lon="-4.60725">
        <ele>70</ele>
        <time>2014-09-04T13:24:06Z</time>
      </trkpt>
      <trkpt lat="48.05736" lon="-4.60725">
        <ele>70</ele>
        <time>2014-09-04T13:24:26Z</time>
      </trkpt>
      <trkpt lat="48.05736" lon="-4.60724">
        <ele>70</ele>
        <time>2014-09-04T13:24:49Z</time>
      </trkpt>
      <trkpt lat="48.05736" lon="-4.60727">
        <ele>70</ele>
        <time>2014-09-04T13:25:03Z</time>
      </trkpt>
      <trkpt lat="48.05731" lon="-4.60735">
        <ele>70</ele>
        <time>2014-09-04T13:25:30Z</time>
      </trkpt>
      <trkpt lat="48.05717" lon="-4.60765">
        <ele>69</ele>
        <time>2014-09-04T13:25:50Z</time>
      </trkpt>
      <trkpt lat="48.05701" lon="-4.60796">
        <ele>69</ele>
        <time>2014-09-04T13:26:11Z</time>
      </trkpt>
      <trkpt lat="48.05687" lon="-4.60827">
        <ele>68</ele>
        <time>2014-09-04T13:26:31Z</time>
      </trkpt>
      <trkpt lat="48.05667" lon="-4.60857">
        <ele>67</ele>
        <time>2014-09-04T13:26:53Z</time>
      </trkpt>
      <trkpt lat="48.05649" lon="-4.60881">
        <ele>65</ele>
        <time>2014-09-04T13:27:13Z</time>
      </trkpt>
      <trkpt lat="48.0563" lon="-4.60903">
        <ele>64</ele>
        <time>2014-09-04T13:27:32Z</time>
      </trkpt>
      <trkpt lat="48.05619" lon="-4.60932">
        <ele>63</ele>
        <time>2014-09-04T13:27:50Z</time>
      </trkpt>
      <trkpt lat="48.0561" lon="-4.6097">
        <ele>62</ele>
        <time>2014-09-04T13:28:11Z</time>
      </trkpt>
      <trkpt lat="48.05602" lon="-4.61004">
        <ele>61</ele>
        <time>2014-09-04T13:28:29Z</time>
      </trkpt>
      <trkpt lat="48.05595" lon="-4.61034">
        <ele>61</ele>
        <time>2014-09-04T13:28:46Z</time>
      </trkpt>
      <trkpt lat="48.05587" lon="-4.61054">
        <ele>61</ele>
        <time>2014-09-04T13:28:58Z</time>
      </trkpt>
      <trkpt lat="48.05581" lon="-4.61071">
        <ele>61</ele>
        <time>2014-09-04T13:29:09Z</time>
      </trkpt>
      <trkpt lat="48.05574" lon="-4.61092">
        <ele>62</ele>
        <time>2014-09-04T13:29:20Z</time>
      </trkpt>
      <trkpt lat="48.05572" lon="-4.61101">
        <ele>62</ele>
        <time>2014-09-04T13:29:26Z</time>
      </trkpt>
      <trkpt lat="48.05578" lon="-4.61119">
        <ele>62</ele>
        <time>2014-09-04T13:29:36Z</time>
      </trkpt>
      <trkpt lat="48.05593" lon="-4.61139">
        <ele>63</ele>
        <time>2014-09-04T13:29:52Z</time>
      </trkpt>
      <trkpt lat="48.05611" lon="-4.61163">
        <ele>63</ele>
        <time>2014-09-04T13:30:10Z</time>
      </trkpt>
      <trkpt lat="48.0563" lon="-4.61183">
        <ele>64</ele>
        <time>2014-09-04T13:30:28Z</time>
      </trkpt>
      <trkpt lat="48.05645" lon="-4.61197">
        <ele>64</ele>
        <time>2014-09-04T13:30:42Z</time>
      </trkpt>
      <trkpt lat="48.05651" lon="-4.61217">
        <ele>65</ele>
        <time>2014-09-04T13:30:55Z</time>
      </trkpt>
      <trkpt lat="48.0565" lon="-4.61241">
        <ele>65</ele>
        <time>2014-09-04T13:31:09Z</time>
      </trkpt>
      <trkpt lat="48.05663" lon="-4.61257">
        <ele>65</ele>
        <time>2014-09-04T13:31:25Z</time>
      </trkpt>
      <trkpt lat="48.05681" lon="-4.61275">
        <ele>65</ele>
        <time>2014-09-04T13:31:42Z</time>
      </trkpt>
      <trkpt lat="48.05701" lon="-4.61306">
        <ele>65</ele>
        <time>2014-09-04T13:32:02Z</time>
      </trkpt>
      <trkpt lat="48.05692" lon="-4.61336">
        <ele>65</ele>
        <time>2014-09-04T13:32:20Z</time>
      </trkpt>
      <trkpt lat="48.0568" lon="-4.61371">
        <ele>65</ele>
        <time>2014-09-04T13:32:40Z</time>
      </trkpt>
      <trkpt lat="48.05664" lon="-4.61408">
        <ele>65</ele>
        <time>2014-09-04T13:33:02Z</time>
      </trkpt>
      <trkpt lat="48.05661" lon="-4.6143">
        <ele>65</ele>
        <time>2014-09-04T13:33:14Z</time>
      </trkpt>
      <trkpt lat="48.05661" lon="-4.61464">
        <ele>64</ele>
        <time>2014-09-04T13:33:32Z</time>
      </trkpt>
      <trkpt lat="48.05663" lon="-4.615">
        <ele>63</ele>
        <time>2014-09-04T13:33:52Z</time>
      </trkpt>
      <trkpt lat="48.05674" lon="-4.61518">
        <ele>61</ele>
        <time>2014-09-04T13:34:07Z</time>
      </trkpt>
      <trkpt lat="48.05686" lon="-4.61528">
        <ele>60</ele>
        <time>2014-09-04T13:34:23Z</time>
      </trkpt>
      <trkpt lat="48.05693" lon="-4.61533">
        <ele>60</ele>
        <time>2014-09-04T13:34:41Z</time>
      </trkpt>
      <trkpt lat="48.05702" lon="-4.61541">
        <ele>59</ele>
        <time>2014-09-04T13:34:55Z</time>
      </trkpt>
      <trkpt lat="48.05718" lon="-4.61554">
        <ele>58</ele>
        <time>2014-09-04T13:35:11Z</time>
      </trkpt>
      <trkpt lat="48.0574" lon="-4.61572">
        <ele>56</ele>
        <time>2014-09-04T13:35:31Z</time>
      </trkpt>
      <trkpt lat="48.0575" lon="-4.61586">
        <ele>54</ele>
        <time>2014-09-04T13:35:41Z</time>
      </trkpt>
      <trkpt lat="48.05751" lon="-4.61594">
        <ele>54</ele>
        <time>2014-09-04T13:35:46Z</time>
      </trkpt>
      <trkpt lat="48.05747" lon="-4.61601">
        <ele>53</ele>
        <time>2014-09-04T13:35:53Z</time>
      </trkpt>
      <trkpt lat="48.05734" lon="-4.61603">
        <ele>53</ele>
        <time>2014-09-04T13:36:12Z</time>
      </trkpt>
      <trkpt lat="48.05721" lon="-4.61603">
        <ele>53</ele>
        <time>2014-09-04T13:36:27Z</time>
      </trkpt>
      <trkpt lat="48.05702" lon="-4.61606">
        <ele>53</ele>
        <time>2014-09-04T13:36:42Z</time>
      </trkpt>
      <trkpt lat="48.05694" lon="-4.61608">
        <ele>53</ele>
        <time>2014-09-04T13:36:48Z</time>
      </trkpt>
      <trkpt lat="48.05691" lon="-4.61618">
        <ele>53</ele>
        <time>2014-09-04T13:36:54Z</time>
      </trkpt>
      <trkpt lat="48.05689" lon="-4.6164">
        <ele>52</ele>
        <time>2014-09-04T13:37:09Z</time>
      </trkpt>
      <trkpt lat="48.05691" lon="-4.61658">
        <ele>51</ele>
        <time>2014-09-04T13:37:23Z</time>
      </trkpt>
      <trkpt lat="48.0569" lon="-4.61672">
        <ele>51</ele>
        <time>2014-09-04T13:37:35Z</time>
      </trkpt>
      <trkpt lat="48.0569" lon="-4.61676">
        <ele>51</ele>
        <time>2014-09-04T13:37:56Z</time>
      </trkpt>
      <trkpt lat="48.05689" lon="-4.61672">
        <ele>51</ele>
        <time>2014-09-04T13:38:23Z</time>
      </trkpt>
      <trkpt lat="48.05679" lon="-4.61681">
        <ele>51</ele>
        <time>2014-09-04T13:38:35Z</time>
      </trkpt>
      <trkpt lat="48.05664" lon="-4.61696">
        <ele>50</ele>
        <time>2014-09-04T13:38:52Z</time>
      </trkpt>
      <trkpt lat="48.05647" lon="-4.61709">
        <ele>50</ele>
        <time>2014-09-04T13:39:07Z</time>
      </trkpt>
      <trkpt lat="48.0563" lon="-4.61721">
        <ele>50</ele>
        <time>2014-09-04T13:39:22Z</time>
      </trkpt>
      <trkpt lat="48.05616" lon="-4.61732">
        <ele>50</ele>
        <time>2014-09-04T13:39:39Z</time>
      </trkpt>
      <trkpt lat="48.05599" lon="-4.61738">
        <ele>50</ele>
        <time>2014-09-04T13:39:54Z</time>
      </trkpt>
      <trkpt lat="48.05579" lon="-4.61747">
        <ele>49</ele>
        <time>2014-09-04T13:40:11Z</time>
      </trkpt>
      <trkpt lat="48.05566" lon="-4.61754">
        <ele>49</ele>
        <time>2014-09-04T13:40:23Z</time>
      </trkpt>
      <trkpt lat="48.05547" lon="-4.61761">
        <ele>48</ele>
        <time>2014-09-04T13:40:37Z</time>
      </trkpt>
      <trkpt lat="48.05542" lon="-4.61762">
        <ele>48</ele>
        <time>2014-09-04T13:40:41Z</time>
      </trkpt>
      <trkpt lat="48.05528" lon="-4.61773">
        <ele>48</ele>
        <time>2014-09-04T13:40:56Z</time>
      </trkpt>
      <trkpt lat="48.05518" lon="-4.6179">
        <ele>48</ele>
        <time>2014-09-04T13:41:12Z</time>
      </trkpt>
      <trkpt lat="48.05516" lon="-4.61808">
        <ele>48</ele>
        <time>2014-09-04T13:41:26Z</time>
      </trkpt>
      <trkpt lat="48.05519" lon="-4.61828">
        <ele>48</ele>
        <time>2014-09-04T13:41:40Z</time>
      </trkpt>
      <trkpt lat="48.0552" lon="-4.61833">
        <ele>48</ele>
        <time>2014-09-04T13:41:43Z</time>
      </trkpt>
      <trkpt lat="48.05532" lon="-4.61843">
        <ele>50</ele>
        <time>2014-09-04T13:41:58Z</time>
      </trkpt>
      <trkpt lat="48.05546" lon="-4.61846">
        <ele>51</ele>
        <time>2014-09-04T13:42:12Z</time>
      </trkpt>
      <trkpt lat="48.05558" lon="-4.61847">
        <ele>52</ele>
        <time>2014-09-04T13:42:28Z</time>
      </trkpt>
      <trkpt lat="48.05573" lon="-4.61849">
        <ele>52</ele>
        <time>2014-09-04T13:42:42Z</time>
      </trkpt>
      <trkpt lat="48.0558" lon="-4.61851">
        <ele>52</ele>
        <time>2014-09-04T13:42:48Z</time>
      </trkpt>
      <trkpt lat="48.05585" lon="-4.61855">
        <ele>55</ele>
        <time>2014-09-04T13:42:53Z</time>
      </trkpt>
      <trkpt lat="48.0559" lon="-4.61878">
        <ele>57</ele>
        <time>2014-09-04T13:43:08Z</time>
      </trkpt>
      <trkpt lat="48.0559" lon="-4.61894">
        <ele>57</ele>
        <time>2014-09-04T13:43:24Z</time>
      </trkpt>
      <trkpt lat="48.0559" lon="-4.61892">
        <ele>57</ele>
        <time>2014-09-04T13:43:41Z</time>
      </trkpt>
      <trkpt lat="48.05591" lon="-4.61897">
        <ele>57</ele>
        <time>2014-09-04T13:44:05Z</time>
      </trkpt>
      <trkpt lat="48.0559" lon="-4.61895">
        <ele>57</ele>
        <time>2014-09-04T13:44:19Z</time>
      </trkpt>
      <trkpt lat="48.0559" lon="-4.61894">
        <ele>57</ele>
        <time>2014-09-04T13:44:43Z</time>
      </trkpt>
      <trkpt lat="48.05591" lon="-4.61893">
        <ele>57</ele>
        <time>2014-09-04T13:45:16Z</time>
      </trkpt>
      <trkpt lat="48.05588" lon="-4.61894">
        <ele>57</ele>
        <time>2014-09-04T13:45:52Z</time>
      </trkpt>
      <trkpt lat="48.05589" lon="-4.61897">
        <ele>57</ele>
        <time>2014-09-04T13:46:20Z</time>
      </trkpt>
      <trkpt lat="48.05589" lon="-4.61896">
        <ele>57</ele>
        <time>2014-09-04T13:46:50Z</time>
      </trkpt>
      <trkpt lat="48.0559" lon="-4.61894">
        <ele>57</ele>
        <time>2014-09-04T13:47:18Z</time>
      </trkpt>
      <trkpt lat="48.05591" lon="-4.61893">
        <ele>57</ele>
        <time>2014-09-04T13:47:47Z</time>
      </trkpt>
      <trkpt lat="48.05593" lon="-4.61893">
        <ele>57</ele>
        <time>2014-09-04T13:48:31Z</time>
      </trkpt>
      <trkpt lat="48.05593" lon="-4.61893">
        <ele>57</ele>
        <time>2014-09-04T13:48:59Z</time>
      </trkpt>
      <trkpt lat="48.05593" lon="-4.61893">
        <ele>57</ele>
        <time>2014-09-04T13:49:26Z</time>
      </trkpt>
      <trkpt lat="48.05592" lon="-4.61895">
        <ele>57</ele>
        <time>2014-09-04T13:49:52Z</time>
      </trkpt>
      <trkpt lat="48.05591" lon="-4.61896">
        <ele>57</ele>
        <time>2014-09-04T13:50:13Z</time>
      </trkpt>
      <trkpt lat="48.05591" lon="-4.61896">
        <ele>57</ele>
        <time>2014-09-04T13:50:37Z</time>
      </trkpt>
      <trkpt lat="48.05588" lon="-4.61895">
        <ele>57</ele>
        <time>2014-09-04T13:51:08Z</time>
      </trkpt>
      <trkpt lat="48.05588" lon="-4.6191">
        <ele>56</ele>
        <time>2014-09-04T13:51:22Z</time>
      </trkpt>
      <trkpt lat="48.05587" lon="-4.61939">
        <ele>58</ele>
        <time>2014-09-04T13:51:39Z</time>
      </trkpt>
      <trkpt lat="48.05587" lon="-4.61967">
        <ele>58</ele>
        <time>2014-09-04T13:51:54Z</time>
      </trkpt>
      <trkpt lat="48.05588" lon="-4.61986">
        <ele>58</ele>
        <time>2014-09-04T13:52:05Z</time>
      </trkpt>
      <trkpt lat="48.0559" lon="-4.61993">
        <ele>58</ele>
        <time>2014-09-04T13:52:09Z</time>
      </trkpt>
      <trkpt lat="48.05604" lon="-4.62003">
        <ele>59</ele>
        <time>2014-09-04T13:52:24Z</time>
      </trkpt>
      <trkpt lat="48.05605" lon="-4.62003">
        <ele>59</ele>
        <time>2014-09-04T13:52:25Z</time>
      </trkpt>
      <trkpt lat="48.05623" lon="-4.62002">
        <ele>60</ele>
        <time>2014-09-04T13:52:42Z</time>
      </trkpt>
      <trkpt lat="48.05643" lon="-4.62003">
        <ele>61</ele>
        <time>2014-09-04T13:52:56Z</time>
      </trkpt>
      <trkpt lat="48.05644" lon="-4.62003">
        <ele>61</ele>
        <time>2014-09-04T13:52:57Z</time>
      </trkpt>
      <trkpt lat="48.05652" lon="-4.62034">
        <ele>61</ele>
        <time>2014-09-04T13:53:15Z</time>
      </trkpt>
      <trkpt lat="48.05654" lon="-4.62076">
        <ele>62</ele>
        <time>2014-09-04T13:53:36Z</time>
      </trkpt>
      <trkpt lat="48.05657" lon="-4.62121">
        <ele>63</ele>
        <time>2014-09-04T13:53:58Z</time>
      </trkpt>
      <trkpt lat="48.05662" lon="-4.62165">
        <ele>65</ele>
        <time>2014-09-04T13:54:20Z</time>
      </trkpt>
      <trkpt lat="48.0567" lon="-4.62201">
        <ele>68</ele>
        <time>2014-09-04T13:54:40Z</time>
      </trkpt>
      <trkpt lat="48.05677" lon="-4.62232">
        <ele>69</ele>
        <time>2014-09-04T13:54:57Z</time>
      </trkpt>
      <trkpt lat="48.05685" lon="-4.6226">
        <ele>71</ele>
        <time>2014-09-04T13:55:13Z</time>
      </trkpt>
      <trkpt lat="48.05685" lon="-4.62263">
        <ele>71</ele>
        <time>2014-09-04T13:55:15Z</time>
      </trkpt>
      <trkpt lat="48.05679" lon="-4.62269">
        <ele>71</ele>
        <time>2014-09-04T13:55:22Z</time>
      </trkpt>
      <trkpt lat="48.05658" lon="-4.62287">
        <ele>70</ele>
        <time>2014-09-04T13:55:42Z</time>
      </trkpt>
      <trkpt lat="48.05651" lon="-4.62315">
        <ele>71</ele>
        <time>2014-09-04T13:55:58Z</time>
      </trkpt>
      <trkpt lat="48.05646" lon="-4.62351">
        <ele>72</ele>
        <time>2014-09-04T13:56:17Z</time>
      </trkpt>
      <trkpt lat="48.05642" lon="-4.62373">
        <ele>72</ele>
        <time>2014-09-04T13:56:32Z</time>
      </trkpt>
      <trkpt lat="48.05642" lon="-4.62399">
        <ele>72</ele>
        <time>2014-09-04T13:56:47Z</time>
      </trkpt>
      <trkpt lat="48.05642" lon="-4.62399">
        <ele>72</ele>
        <time>2014-09-04T13:57:02Z</time>
      </trkpt>
      <trkpt lat="48.05642" lon="-4.62399">
        <ele>72</ele>
        <time>2014-09-04T13:57:04Z</time>
      </trkpt>
      <trkpt lat="48.05645" lon="-4.62409">
        <ele>72</ele>
        <time>2014-09-04T13:57:11Z</time>
      </trkpt>
      <trkpt lat="48.05659" lon="-4.62433">
        <ele>72</ele>
        <time>2014-09-04T13:57:28Z</time>
      </trkpt>
      <trkpt lat="48.05672" lon="-4.62454">
        <ele>73</ele>
        <time>2014-09-04T13:57:45Z</time>
      </trkpt>
      <trkpt lat="48.05688" lon="-4.62475">
        <ele>74</ele>
        <time>2014-09-04T13:58:02Z</time>
      </trkpt>
      <trkpt lat="48.05704" lon="-4.62498">
        <ele>74</ele>
        <time>2014-09-04T13:58:19Z</time>
      </trkpt>
      <trkpt lat="48.05724" lon="-4.62524">
        <ele>75</ele>
        <time>2014-09-04T13:58:38Z</time>
      </trkpt>
      <trkpt lat="48.05742" lon="-4.62549">
        <ele>75</ele>
        <time>2014-09-04T13:58:57Z</time>
      </trkpt>
      <trkpt lat="48.05758" lon="-4.6258">
        <ele>75</ele>
        <time>2014-09-04T13:59:17Z</time>
      </trkpt>
      <trkpt lat="48.05765" lon="-4.62615">
        <ele>75</ele>
        <time>2014-09-04T13:59:36Z</time>
      </trkpt>
      <trkpt lat="48.05766" lon="-4.62655">
        <ele>75</ele>
        <time>2014-09-04T13:59:57Z</time>
      </trkpt>
      <trkpt lat="48.05758" lon="-4.62686">
        <ele>74</ele>
        <time>2014-09-04T14:00:15Z</time>
      </trkpt>
      <trkpt lat="48.05752" lon="-4.62709">
        <ele>74</ele>
        <time>2014-09-04T14:00:31Z</time>
      </trkpt>
      <trkpt lat="48.05748" lon="-4.62742">
        <ele>73</ele>
        <time>2014-09-04T14:00:49Z</time>
      </trkpt>
      <trkpt lat="48.05745" lon="-4.62773">
        <ele>73</ele>
        <time>2014-09-04T14:01:06Z</time>
      </trkpt>
      <trkpt lat="48.05745" lon="-4.62812">
        <ele>73</ele>
        <time>2014-09-04T14:01:27Z</time>
      </trkpt>
      <trkpt lat="48.05746" lon="-4.6281">
        <ele>73</ele>
        <time>2014-09-04T14:01:31Z</time>
      </trkpt>
      <trkpt lat="48.05747" lon="-4.62781">
        <ele>73</ele>
        <time>2014-09-04T14:01:46Z</time>
      </trkpt>
      <trkpt lat="48.05752" lon="-4.62777">
        <ele>73</ele>
        <time>2014-09-04T14:01:51Z</time>
      </trkpt>
      <trkpt lat="48.05759" lon="-4.6278">
        <ele>73</ele>
        <time>2014-09-04T14:02:03Z</time>
      </trkpt>
      <trkpt lat="48.05783" lon="-4.62793">
        <ele>73</ele>
        <time>2014-09-04T14:02:23Z</time>
      </trkpt>
      <trkpt lat="48.05807" lon="-4.62808">
        <ele>73</ele>
        <time>2014-09-04T14:02:43Z</time>
      </trkpt>
      <trkpt lat="48.0583" lon="-4.62821">
        <ele>73</ele>
        <time>2014-09-04T14:03:03Z</time>
      </trkpt>
      <trkpt lat="48.05854" lon="-4.62835">
        <ele>73</ele>
        <time>2014-09-04T14:03:23Z</time>
      </trkpt>
      <trkpt lat="48.05879" lon="-4.62845">
        <ele>73</ele>
        <time>2014-09-04T14:03:43Z</time>
      </trkpt>
      <trkpt lat="48.05907" lon="-4.62843">
        <ele>73</ele>
        <time>2014-09-04T14:04:04Z</time>
      </trkpt>
      <trkpt lat="48.0593" lon="-4.62842">
        <ele>73</ele>
        <time>2014-09-04T14:04:22Z</time>
      </trkpt>
      <trkpt lat="48.05955" lon="-4.62849">
        <ele>73</ele>
        <time>2014-09-04T14:04:42Z</time>
      </trkpt>
      <trkpt lat="48.05968" lon="-4.62874">
        <ele>73</ele>
        <time>2014-09-04T14:04:59Z</time>
      </trkpt>
      <trkpt lat="48.05982" lon="-4.62898">
        <ele>73</ele>
        <time>2014-09-04T14:05:15Z</time>
      </trkpt>
      <trkpt lat="48.06002" lon="-4.62921">
        <ele>74</ele>
        <time>2014-09-04T14:05:34Z</time>
      </trkpt>
      <trkpt lat="48.06014" lon="-4.62935">
        <ele>74</ele>
        <time>2014-09-04T14:05:47Z</time>
      </trkpt>
      <trkpt lat="48.06024" lon="-4.6294">
        <ele>75</ele>
        <time>2014-09-04T14:06:02Z</time>
      </trkpt>
      <trkpt lat="48.06024" lon="-4.62938">
        <ele>75</ele>
        <time>2014-09-04T14:06:17Z</time>
      </trkpt>
      <trkpt lat="48.06004" lon="-4.62941">
        <ele>74</ele>
        <time>2014-09-04T14:06:35Z</time>
      </trkpt>
      <trkpt lat="48.05998" lon="-4.62945">
        <ele>73</ele>
        <time>2014-09-04T14:06:41Z</time>
      </trkpt>
      <trkpt lat="48.05988" lon="-4.62973">
        <ele>73</ele>
        <time>2014-09-04T14:07:00Z</time>
      </trkpt>
      <trkpt lat="48.05988" lon="-4.63003">
        <ele>73</ele>
        <time>2014-09-04T14:07:16Z</time>
      </trkpt>
      <trkpt lat="48.05989" lon="-4.63046">
        <ele>72</ele>
        <time>2014-09-04T14:07:37Z</time>
      </trkpt>
      <trkpt lat="48.05989" lon="-4.63066">
        <ele>72</ele>
        <time>2014-09-04T14:07:51Z</time>
      </trkpt>
      <trkpt lat="48.05991" lon="-4.631">
        <ele>72</ele>
        <time>2014-09-04T14:08:09Z</time>
      </trkpt>
      <trkpt lat="48.06009" lon="-4.6311">
        <ele>73</ele>
        <time>2014-09-04T14:08:24Z</time>
      </trkpt>
      <trkpt lat="48.06031" lon="-4.6312">
        <ele>74</ele>
        <time>2014-09-04T14:08:43Z</time>
      </trkpt>
      <trkpt lat="48.06052" lon="-4.63132">
        <ele>74</ele>
        <time>2014-09-04T14:09:01Z</time>
      </trkpt>
      <trkpt lat="48.06069" lon="-4.63151">
        <ele>74</ele>
        <time>2014-09-04T14:09:18Z</time>
      </trkpt>
      <trkpt lat="48.06078" lon="-4.6317">
        <ele>75</ele>
        <time>2014-09-04T14:09:31Z</time>
      </trkpt>
      <trkpt lat="48.06087" lon="-4.63201">
        <ele>75</ele>
        <time>2014-09-04T14:09:48Z</time>
      </trkpt>
      <trkpt lat="48.06088" lon="-4.63239">
        <ele>75</ele>
        <time>2014-09-04T14:10:06Z</time>
      </trkpt>
      <trkpt lat="48.06087" lon="-4.63282">
        <ele>75</ele>
        <time>2014-09-04T14:10:27Z</time>
      </trkpt>
      <trkpt lat="48.06087" lon="-4.63312">
        <ele>75</ele>
        <time>2014-09-04T14:10:44Z</time>
      </trkpt>
      <trkpt lat="48.06087" lon="-4.63335">
        <ele>74</ele>
        <time>2014-09-04T14:10:56Z</time>
      </trkpt>
      <trkpt lat="48.06087" lon="-4.63351">
        <ele>74</ele>
        <time>2014-09-04T14:11:05Z</time>
      </trkpt>
      <trkpt lat="48.06088" lon="-4.63356">
        <ele>75</ele>
        <time>2014-09-04T14:11:13Z</time>
      </trkpt>
      <trkpt lat="48.06088" lon="-4.63357">
        <ele>75</ele>
        <time>2014-09-04T14:11:17Z</time>
      </trkpt>
      <trkpt lat="48.06087" lon="-4.63358">
        <ele>75</ele>
        <time>2014-09-04T14:11:27Z</time>
      </trkpt>
      <trkpt lat="48.06087" lon="-4.63358">
        <ele>75</ele>
        <time>2014-09-04T14:11:51Z</time>
      </trkpt>
      <trkpt lat="48.06087" lon="-4.63359">
        <ele>75</ele>
        <time>2014-09-04T14:12:09Z</time>
      </trkpt>
      <trkpt lat="48.06088" lon="-4.63359">
        <ele>75</ele>
        <time>2014-09-04T14:12:28Z</time>
      </trkpt>
      <trkpt lat="48.06087" lon="-4.63358">
        <ele>75</ele>
        <time>2014-09-04T14:12:48Z</time>
      </trkpt>
      <trkpt lat="48.06087" lon="-4.63357">
        <ele>75</ele>
        <time>2014-09-04T14:13:01Z</time>
      </trkpt>
      <trkpt lat="48.06086" lon="-4.63355">
        <ele>75</ele>
        <time>2014-09-04T14:13:21Z</time>
      </trkpt>
      <trkpt lat="48.06087" lon="-4.63356">
        <ele>75</ele>
        <time>2014-09-04T14:13:40Z</time>
      </trkpt>
      <trkpt lat="48.06082" lon="-4.63354">
        <ele>73</ele>
        <time>2014-09-04T14:13:46Z</time>
      </trkpt>
      <trkpt lat="48.06073" lon="-4.63352">
        <ele>73</ele>
        <time>2014-09-04T14:13:52Z</time>
      </trkpt>
      <trkpt lat="48.06057" lon="-4.63366">
        <ele>73</ele>
        <time>2014-09-04T14:14:05Z</time>
      </trkpt>
      <trkpt lat="48.0605" lon="-4.63376">
        <ele>72</ele>
        <time>2014-09-04T14:14:15Z</time>
      </trkpt>
      <trkpt lat="48.06036" lon="-4.63394">
        <ele>72</ele>
        <time>2014-09-04T14:14:26Z</time>
      </trkpt>
      <trkpt lat="48.06025" lon="-4.63401">
        <ele>72</ele>
        <time>2014-09-04T14:14:36Z</time>
      </trkpt>
      <trkpt lat="48.06014" lon="-4.63405">
        <ele>71</ele>
        <time>2014-09-04T14:14:47Z</time>
      </trkpt>
      <trkpt lat="48.0601" lon="-4.63414">
        <ele>71</ele>
        <time>2014-09-04T14:14:51Z</time>
      </trkpt>
      <trkpt lat="48.06003" lon="-4.63431">
        <ele>71</ele>
        <time>2014-09-04T14:15:02Z</time>
      </trkpt>
      <trkpt lat="48.05995" lon="-4.63458">
        <ele>70</ele>
        <time>2014-09-04T14:15:15Z</time>
      </trkpt>
      <trkpt lat="48.05987" lon="-4.63472">
        <ele>70</ele>
        <time>2014-09-04T14:15:27Z</time>
      </trkpt>
      <trkpt lat="48.05984" lon="-4.63479">
        <ele>70</ele>
        <time>2014-09-04T14:15:31Z</time>
      </trkpt>
      <trkpt lat="48.05973" lon="-4.63502">
        <ele>70</ele>
        <time>2014-09-04T14:15:46Z</time>
      </trkpt>
      <trkpt lat="48.0597" lon="-4.63509">
        <ele>70</ele>
        <time>2014-09-04T14:15:51Z</time>
      </trkpt>
      <trkpt lat="48.0596" lon="-4.63517">
        <ele>70</ele>
        <time>2014-09-04T14:16:02Z</time>
      </trkpt>
      <trkpt lat="48.05959" lon="-4.63516">
        <ele>70</ele>
        <time>2014-09-04T14:16:03Z</time>
      </trkpt>
      <trkpt lat="48.05947" lon="-4.63503">
        <ele>70</ele>
        <time>2014-09-04T14:16:14Z</time>
      </trkpt>
      <trkpt lat="48.05931" lon="-4.63498">
        <ele>69</ele>
        <time>2014-09-04T14:16:24Z</time>
      </trkpt>
      <trkpt lat="48.0592" lon="-4.63507">
        <ele>69</ele>
        <time>2014-09-04T14:16:35Z</time>
      </trkpt>
      <trkpt lat="48.05913" lon="-4.63507">
        <ele>69</ele>
        <time>2014-09-04T14:16:43Z</time>
      </trkpt>
      <trkpt lat="48.05897" lon="-4.635">
        <ele>69</ele>
        <time>2014-09-04T14:16:54Z</time>
      </trkpt>
      <trkpt lat="48.05896" lon="-4.635">
        <ele>69</ele>
        <time>2014-09-04T14:16:55Z</time>
      </trkpt>
      <trkpt lat="48.05886" lon="-4.63511">
        <ele>69</ele>
        <time>2014-09-04T14:17:02Z</time>
      </trkpt>
      <trkpt lat="48.05872" lon="-4.63543">
        <ele>69</ele>
        <time>2014-09-04T14:17:23Z</time>
      </trkpt>
      <trkpt lat="48.05859" lon="-4.63573">
        <ele>69</ele>
        <time>2014-09-04T14:17:42Z</time>
      </trkpt>
      <trkpt lat="48.05849" lon="-4.6359">
        <ele>70</ele>
        <time>2014-09-04T14:17:55Z</time>
      </trkpt>
      <trkpt lat="48.05839" lon="-4.63614">
        <ele>70</ele>
        <time>2014-09-04T14:18:09Z</time>
      </trkpt>
      <trkpt lat="48.05834" lon="-4.63623">
        <ele>70</ele>
        <time>2014-09-04T14:18:15Z</time>
      </trkpt>
      <trkpt lat="48.05831" lon="-4.63628">
        <ele>70</ele>
        <time>2014-09-04T14:18:19Z</time>
      </trkpt>
      <trkpt lat="48.05816" lon="-4.63656">
        <ele>70</ele>
        <time>2014-09-04T14:18:36Z</time>
      </trkpt>
      <trkpt lat="48.05799" lon="-4.63686">
        <ele>71</ele>
        <time>2014-09-04T14:18:56Z</time>
      </trkpt>
      <trkpt lat="48.05787" lon="-4.6371">
        <ele>71</ele>
        <time>2014-09-04T14:19:10Z</time>
      </trkpt>
      <trkpt lat="48.05778" lon="-4.63726">
        <ele>71</ele>
        <time>2014-09-04T14:19:21Z</time>
      </trkpt>
      <trkpt lat="48.05775" lon="-4.63732">
        <ele>71</ele>
        <time>2014-09-04T14:19:25Z</time>
      </trkpt>
      <trkpt lat="48.05764" lon="-4.63751">
        <ele>71</ele>
        <time>2014-09-04T14:19:37Z</time>
      </trkpt>
      <trkpt lat="48.05751" lon="-4.63771">
        <ele>71</ele>
        <time>2014-09-04T14:19:51Z</time>
      </trkpt>
      <trkpt lat="48.05742" lon="-4.63778">
        <ele>71</ele>
        <time>2014-09-04T14:20:03Z</time>
      </trkpt>
      <trkpt lat="48.05735" lon="-4.63781">
        <ele>71</ele>
        <time>2014-09-04T14:20:13Z</time>
      </trkpt>
      <trkpt lat="48.05734" lon="-4.63783">
        <ele>71</ele>
        <time>2014-09-04T14:20:24Z</time>
      </trkpt>
      <trkpt lat="48.05723" lon="-4.63789">
        <ele>71</ele>
        <time>2014-09-04T14:20:35Z</time>
      </trkpt>
      <trkpt lat="48.05712" lon="-4.63794">
        <ele>71</ele>
        <time>2014-09-04T14:20:45Z</time>
      </trkpt>
      <trkpt lat="48.05709" lon="-4.63799">
        <ele>71</ele>
        <time>2014-09-04T14:20:56Z</time>
      </trkpt>
      <trkpt lat="48.05708" lon="-4.63799">
        <ele>71</ele>
        <time>2014-09-04T14:21:00Z</time>
      </trkpt>
      <trkpt lat="48.05705" lon="-4.63825">
        <ele>71</ele>
        <time>2014-09-04T14:21:12Z</time>
      </trkpt>
      <trkpt lat="48.05699" lon="-4.63859">
        <ele>70</ele>
        <time>2014-09-04T14:21:31Z</time>
      </trkpt>
      <trkpt lat="48.05693" lon="-4.63895">
        <ele>69</ele>
        <time>2014-09-04T14:21:49Z</time>
      </trkpt>
      <trkpt lat="48.05688" lon="-4.63925">
        <ele>68</ele>
        <time>2014-09-04T14:22:04Z</time>
      </trkpt>
      <trkpt lat="48.05685" lon="-4.63946">
        <ele>68</ele>
        <time>2014-09-04T14:22:16Z</time>
      </trkpt>
      <trkpt lat="48.05686" lon="-4.63959">
        <ele>68</ele>
        <time>2014-09-04T14:22:24Z</time>
      </trkpt>
      <trkpt lat="48.05688" lon="-4.63974">
        <ele>67</ele>
        <time>2014-09-04T14:22:34Z</time>
      </trkpt>
      <trkpt lat="48.05689" lon="-4.63981">
        <ele>67</ele>
        <time>2014-09-04T14:22:37Z</time>
      </trkpt>
      <trkpt lat="48.0569" lon="-4.64009">
        <ele>66</ele>
        <time>2014-09-04T14:22:53Z</time>
      </trkpt>
      <trkpt lat="48.0569" lon="-4.64032">
        <ele>65</ele>
        <time>2014-09-04T14:23:08Z</time>
      </trkpt>
      <trkpt lat="48.05691" lon="-4.64037">
        <ele>65</ele>
        <time>2014-09-04T14:23:22Z</time>
      </trkpt>
      <trkpt lat="48.05691" lon="-4.64038">
        <ele>65</ele>
        <time>2014-09-04T14:23:35Z</time>
      </trkpt>
      <trkpt lat="48.05692" lon="-4.64037">
        <ele>65</ele>
        <time>2014-09-04T14:23:54Z</time>
      </trkpt>
      <trkpt lat="48.05691" lon="-4.64051">
        <ele>65</ele>
        <time>2014-09-04T14:24:13Z</time>
      </trkpt>
      <trkpt lat="48.05685" lon="-4.64081">
        <ele>64</ele>
        <time>2014-09-04T14:24:27Z</time>
      </trkpt>
      <trkpt lat="48.05677" lon="-4.6411">
        <ele>63</ele>
        <time>2014-09-04T14:24:42Z</time>
      </trkpt>
      <trkpt lat="48.05676" lon="-4.64126">
        <ele>63</ele>
        <time>2014-09-04T14:24:52Z</time>
      </trkpt>
      <trkpt lat="48.05673" lon="-4.64158">
        <ele>63</ele>
        <time>2014-09-04T14:25:06Z</time>
      </trkpt>
      <trkpt lat="48.05665" lon="-4.64185">
        <ele>64</ele>
        <time>2014-09-04T14:25:20Z</time>
      </trkpt>
      <trkpt lat="48.05659" lon="-4.64207">
        <ele>64</ele>
        <time>2014-09-04T14:25:32Z</time>
      </trkpt>
      <trkpt lat="48.05649" lon="-4.64225">
        <ele>65</ele>
        <time>2014-09-04T14:25:44Z</time>
      </trkpt>
      <trkpt lat="48.0564" lon="-4.64261">
        <ele>66</ele>
        <time>2014-09-04T14:26:01Z</time>
      </trkpt>
      <trkpt lat="48.05639" lon="-4.64275">
        <ele>66</ele>
        <time>2014-09-04T14:26:09Z</time>
      </trkpt>
      <trkpt lat="48.0564" lon="-4.64299">
        <ele>66</ele>
        <time>2014-09-04T14:26:20Z</time>
      </trkpt>
      <trkpt lat="48.05636" lon="-4.64317">
        <ele>66</ele>
        <time>2014-09-04T14:26:30Z</time>
      </trkpt>
      <trkpt lat="48.05632" lon="-4.6433">
        <ele>65</ele>
        <time>2014-09-04T14:26:38Z</time>
      </trkpt>
      <trkpt lat="48.05626" lon="-4.64342">
        <ele>65</ele>
        <time>2014-09-04T14:26:46Z</time>
      </trkpt>
      <trkpt lat="48.05619" lon="-4.64361">
        <ele>65</ele>
        <time>2014-09-04T14:26:57Z</time>
      </trkpt>
      <trkpt lat="48.05611" lon="-4.64375">
        <ele>64</ele>
        <time>2014-09-04T14:27:08Z</time>
      </trkpt>
      <trkpt lat="48.05603" lon="-4.64396">
        <ele>64</ele>
        <time>2014-09-04T14:27:22Z</time>
      </trkpt>
      <trkpt lat="48.05595" lon="-4.6442">
        <ele>64</ele>
        <time>2014-09-04T14:27:34Z</time>
      </trkpt>
      <trkpt lat="48.05596" lon="-4.64446">
        <ele>65</ele>
        <time>2014-09-04T14:27:46Z</time>
      </trkpt>
      <trkpt lat="48.05598" lon="-4.64473">
        <ele>65</ele>
        <time>2014-09-04T14:27:58Z</time>
      </trkpt>
      <trkpt lat="48.05599" lon="-4.64497">
        <ele>65</ele>
        <time>2014-09-04T14:28:14Z</time>
      </trkpt>
      <trkpt lat="48.056" lon="-4.64502">
        <ele>66</ele>
        <time>2014-09-04T14:28:17Z</time>
      </trkpt>
      <trkpt lat="48.05597" lon="-4.64532">
        <ele>66</ele>
        <time>2014-09-04T14:28:33Z</time>
      </trkpt>
      <trkpt lat="48.05594" lon="-4.6455">
        <ele>66</ele>
        <time>2014-09-04T14:28:43Z</time>
      </trkpt>
      <trkpt lat="48.05574" lon="-4.6455">
        <ele>65</ele>
        <time>2014-09-04T14:29:00Z</time>
      </trkpt>
      <trkpt lat="48.05565" lon="-4.64546">
        <ele>65</ele>
        <time>2014-09-04T14:29:08Z</time>
      </trkpt>
      <trkpt lat="48.05547" lon="-4.64539">
        <ele>65</ele>
        <time>2014-09-04T14:29:22Z</time>
      </trkpt>
      <trkpt lat="48.05529" lon="-4.64528">
        <ele>65</ele>
        <time>2014-09-04T14:29:36Z</time>
      </trkpt>
      <trkpt lat="48.05513" lon="-4.64518">
        <ele>65</ele>
        <time>2014-09-04T14:29:49Z</time>
      </trkpt>
      <trkpt lat="48.05498" lon="-4.64506">
        <ele>64</ele>
        <time>2014-09-04T14:30:02Z</time>
      </trkpt>
      <trkpt lat="48.05486" lon="-4.64499">
        <ele>63</ele>
        <time>2014-09-04T14:30:13Z</time>
      </trkpt>
      <trkpt lat="48.05473" lon="-4.6449">
        <ele>63</ele>
        <time>2014-09-04T14:30:25Z</time>
      </trkpt>
      <trkpt lat="48.05456" lon="-4.6448">
        <ele>62</ele>
        <time>2014-09-04T14:30:37Z</time>
      </trkpt>
      <trkpt lat="48.05433" lon="-4.64471">
        <ele>62</ele>
        <time>2014-09-04T14:30:56Z</time>
      </trkpt>
      <trkpt lat="48.05419" lon="-4.64465">
        <ele>62</ele>
        <time>2014-09-04T14:31:09Z</time>
      </trkpt>
      <trkpt lat="48.05406" lon="-4.64453">
        <ele>59</ele>
        <time>2014-09-04T14:31:20Z</time>
      </trkpt>
      <trkpt lat="48.05392" lon="-4.64436">
        <ele>59</ele>
        <time>2014-09-04T14:31:33Z</time>
      </trkpt>
      <trkpt lat="48.05383" lon="-4.6442">
        <ele>59</ele>
        <time>2014-09-04T14:31:45Z</time>
      </trkpt>
      <trkpt lat="48.05382" lon="-4.64411">
        <ele>56</ele>
        <time>2014-09-04T14:31:53Z</time>
      </trkpt>
      <trkpt lat="48.05379" lon="-4.64388">
        <ele>55</ele>
        <time>2014-09-04T14:32:06Z</time>
      </trkpt>
      <trkpt lat="48.05369" lon="-4.64371">
        <ele>55</ele>
        <time>2014-09-04T14:32:19Z</time>
      </trkpt>
      <trkpt lat="48.05358" lon="-4.64353">
        <ele>54</ele>
        <time>2014-09-04T14:32:30Z</time>
      </trkpt>
      <trkpt lat="48.05359" lon="-4.64344">
        <ele>53</ele>
        <time>2014-09-04T14:32:36Z</time>
      </trkpt>
      <trkpt lat="48.05355" lon="-4.64335">
        <ele>53</ele>
        <time>2014-09-04T14:32:43Z</time>
      </trkpt>
      <trkpt lat="48.05345" lon="-4.64327">
        <ele>51</ele>
        <time>2014-09-04T14:32:53Z</time>
      </trkpt>
      <trkpt lat="48.05328" lon="-4.64337">
        <ele>50</ele>
        <time>2014-09-04T14:33:08Z</time>
      </trkpt>
      <trkpt lat="48.05322" lon="-4.64349">
        <ele>50</ele>
        <time>2014-09-04T14:33:14Z</time>
      </trkpt>
      <trkpt lat="48.05316" lon="-4.64355">
        <ele>50</ele>
        <time>2014-09-04T14:33:20Z</time>
      </trkpt>
      <trkpt lat="48.05312" lon="-4.64361">
        <ele>50</ele>
        <time>2014-09-04T14:33:31Z</time>
      </trkpt>
      <trkpt lat="48.05312" lon="-4.64359">
        <ele>50</ele>
        <time>2014-09-04T14:33:55Z</time>
      </trkpt>
      <trkpt lat="48.05308" lon="-4.64368">
        <ele>50</ele>
        <time>2014-09-04T14:34:14Z</time>
      </trkpt>
      <trkpt lat="48.05308" lon="-4.64369">
        <ele>50</ele>
        <time>2014-09-04T14:34:24Z</time>
      </trkpt>
      <trkpt lat="48.05305" lon="-4.64375">
        <ele>50</ele>
        <time>2014-09-04T14:34:29Z</time>
      </trkpt>
      <trkpt lat="48.05298" lon="-4.64386">
        <ele>50</ele>
        <time>2014-09-04T14:34:39Z</time>
      </trkpt>
      <trkpt lat="48.05291" lon="-4.64396">
        <ele>50</ele>
        <time>2014-09-04T14:34:46Z</time>
      </trkpt>
      <trkpt lat="48.05281" lon="-4.64408">
        <ele>49</ele>
        <time>2014-09-04T14:34:56Z</time>
      </trkpt>
      <trkpt lat="48.0526" lon="-4.64431">
        <ele>50</ele>
        <time>2014-09-04T14:35:15Z</time>
      </trkpt>
      <trkpt lat="48.05244" lon="-4.64447">
        <ele>47</ele>
        <time>2014-09-04T14:35:31Z</time>
      </trkpt>
      <trkpt lat="48.05231" lon="-4.64464">
        <ele>48</ele>
        <time>2014-09-04T14:35:42Z</time>
      </trkpt>
      <trkpt lat="48.05217" lon="-4.6448">
        <ele>48</ele>
        <time>2014-09-04T14:35:55Z</time>
      </trkpt>
      <trkpt lat="48.05201" lon="-4.64497">
        <ele>47</ele>
        <time>2014-09-04T14:36:10Z</time>
      </trkpt>
      <trkpt lat="48.05188" lon="-4.64513">
        <ele>48</ele>
        <time>2014-09-04T14:36:22Z</time>
      </trkpt>
      <trkpt lat="48.05186" lon="-4.64516">
        <ele>48</ele>
        <time>2014-09-04T14:36:26Z</time>
      </trkpt>
      <trkpt lat="48.05183" lon="-4.64538">
        <ele>49</ele>
        <time>2014-09-04T14:36:37Z</time>
      </trkpt>
      <trkpt lat="48.05181" lon="-4.64554">
        <ele>49</ele>
        <time>2014-09-04T14:36:48Z</time>
      </trkpt>
      <trkpt lat="48.05179" lon="-4.64572">
        <ele>49</ele>
        <time>2014-09-04T14:36:57Z</time>
      </trkpt>
      <trkpt lat="48.05176" lon="-4.64597">
        <ele>50</ele>
        <time>2014-09-04T14:37:09Z</time>
      </trkpt>
      <trkpt lat="48.05172" lon="-4.64619">
        <ele>51</ele>
        <time>2014-09-04T14:37:22Z</time>
      </trkpt>
      <trkpt lat="48.05168" lon="-4.64637">
        <ele>51</ele>
        <time>2014-09-04T14:37:32Z</time>
      </trkpt>
      <trkpt lat="48.05166" lon="-4.64646">
        <ele>47</ele>
        <time>2014-09-04T14:37:35Z</time>
      </trkpt>
      <trkpt lat="48.05152" lon="-4.64663">
        <ele>48</ele>
        <time>2014-09-04T14:37:48Z</time>
      </trkpt>
      <trkpt lat="48.05148" lon="-4.64671">
        <ele>48</ele>
        <time>2014-09-04T14:37:53Z</time>
      </trkpt>
      <trkpt lat="48.05139" lon="-4.64689">
        <ele>47</ele>
        <time>2014-09-04T14:38:05Z</time>
      </trkpt>
      <trkpt lat="48.05137" lon="-4.64707">
        <ele>46</ele>
        <time>2014-09-04T14:38:14Z</time>
      </trkpt>
      <trkpt lat="48.0514" lon="-4.64728">
        <ele>47</ele>
        <time>2014-09-04T14:38:28Z</time>
      </trkpt>
      <trkpt lat="48.05142" lon="-4.64741">
        <ele>47</ele>
        <time>2014-09-04T14:38:40Z</time>
      </trkpt>
      <trkpt lat="48.05138" lon="-4.64744">
        <ele>47</ele>
        <time>2014-09-04T14:38:44Z</time>
      </trkpt>
      <trkpt lat="48.05121" lon="-4.64736">
        <ele>46</ele>
        <time>2014-09-04T14:39:02Z</time>
      </trkpt>
      <trkpt lat="48.05095" lon="-4.64721">
        <ele>45</ele>
        <time>2014-09-04T14:39:22Z</time>
      </trkpt>
      <trkpt lat="48.0508" lon="-4.647">
        <ele>44</ele>
        <time>2014-09-04T14:39:38Z</time>
      </trkpt>
      <trkpt lat="48.05078" lon="-4.64697">
        <ele>44</ele>
        <time>2014-09-04T14:39:40Z</time>
      </trkpt>
      <trkpt lat="48.05069" lon="-4.64674">
        <ele>43</ele>
        <time>2014-09-04T14:39:55Z</time>
      </trkpt>
      <trkpt lat="48.0506" lon="-4.6465">
        <ele>41</ele>
        <time>2014-09-04T14:40:10Z</time>
      </trkpt>
      <trkpt lat="48.05053" lon="-4.64644">
        <ele>41</ele>
        <time>2014-09-04T14:40:18Z</time>
      </trkpt>
      <trkpt lat="48.05041" lon="-4.64656">
        <ele>41</ele>
        <time>2014-09-04T14:40:30Z</time>
      </trkpt>
      <trkpt lat="48.05033" lon="-4.64661">
        <ele>41</ele>
        <time>2014-09-04T14:40:37Z</time>
      </trkpt>
      <trkpt lat="48.05026" lon="-4.64662">
        <ele>42</ele>
        <time>2014-09-04T14:40:44Z</time>
      </trkpt>
      <trkpt lat="48.05008" lon="-4.64643">
        <ele>41</ele>
        <time>2014-09-04T14:40:58Z</time>
      </trkpt>
      <trkpt lat="48.04999" lon="-4.64634">
        <ele>42</ele>
        <time>2014-09-04T14:41:07Z</time>
      </trkpt>
      <trkpt lat="48.04981" lon="-4.64621">
        <ele>41</ele>
        <time>2014-09-04T14:41:24Z</time>
      </trkpt>
      <trkpt lat="48.04962" lon="-4.64618">
        <ele>42</ele>
        <time>2014-09-04T14:41:40Z</time>
      </trkpt>
      <trkpt lat="48.04952" lon="-4.64618">
        <ele>42</ele>
        <time>2014-09-04T14:41:48Z</time>
      </trkpt>
      <trkpt lat="48.0493" lon="-4.64614">
        <ele>42</ele>
        <time>2014-09-04T14:42:04Z</time>
      </trkpt>
      <trkpt lat="48.0491" lon="-4.64612">
        <ele>44</ele>
        <time>2014-09-04T14:42:20Z</time>
      </trkpt>
      <trkpt lat="48.04909" lon="-4.64612">
        <ele>44</ele>
        <time>2014-09-04T14:42:21Z</time>
      </trkpt>
      <trkpt lat="48.04906" lon="-4.6461">
        <ele>44</ele>
        <time>2014-09-04T14:42:24Z</time>
      </trkpt>
      <trkpt lat="48.0489" lon="-4.64607">
        <ele>45</ele>
        <time>2014-09-04T14:42:38Z</time>
      </trkpt>
      <trkpt lat="48.0487" lon="-4.64611">
        <ele>46</ele>
        <time>2014-09-04T14:42:52Z</time>
      </trkpt>
      <trkpt lat="48.04856" lon="-4.64627">
        <ele>46</ele>
        <time>2014-09-04T14:43:06Z</time>
      </trkpt>
      <trkpt lat="48.04853" lon="-4.64633">
        <ele>47</ele>
        <time>2014-09-04T14:43:10Z</time>
      </trkpt>
      <trkpt lat="48.0484" lon="-4.64652">
        <ele>48</ele>
        <time>2014-09-04T14:43:24Z</time>
      </trkpt>
      <trkpt lat="48.04824" lon="-4.64679">
        <ele>48</ele>
        <time>2014-09-04T14:43:42Z</time>
      </trkpt>
      <trkpt lat="48.04806" lon="-4.64697">
        <ele>48</ele>
        <time>2014-09-04T14:43:59Z</time>
      </trkpt>
      <trkpt lat="48.04786" lon="-4.64715">
        <ele>48</ele>
        <time>2014-09-04T14:44:18Z</time>
      </trkpt>
      <trkpt lat="48.04786" lon="-4.64748">
        <ele>48</ele>
        <time>2014-09-04T14:44:34Z</time>
      </trkpt>
      <trkpt lat="48.04788" lon="-4.64766">
        <ele>49</ele>
        <time>2014-09-04T14:44:47Z</time>
      </trkpt>
      <trkpt lat="48.04792" lon="-4.64787">
        <ele>49</ele>
        <time>2014-09-04T14:45:02Z</time>
      </trkpt>
      <trkpt lat="48.04793" lon="-4.64799">
        <ele>49</ele>
        <time>2014-09-04T14:45:16Z</time>
      </trkpt>
      <trkpt lat="48.04796" lon="-4.64816">
        <ele>49</ele>
        <time>2014-09-04T14:45:26Z</time>
      </trkpt>
      <trkpt lat="48.04801" lon="-4.6485">
        <ele>49</ele>
        <time>2014-09-04T14:45:44Z</time>
      </trkpt>
      <trkpt lat="48.04801" lon="-4.64852">
        <ele>49</ele>
        <time>2014-09-04T14:45:45Z</time>
      </trkpt>
      <trkpt lat="48.04803" lon="-4.64881">
        <ele>49</ele>
        <time>2014-09-04T14:46:00Z</time>
      </trkpt>
      <trkpt lat="48.04805" lon="-4.64914">
        <ele>49</ele>
        <time>2014-09-04T14:46:16Z</time>
      </trkpt>
      <trkpt lat="48.04806" lon="-4.64942">
        <ele>49</ele>
        <time>2014-09-04T14:46:30Z</time>
      </trkpt>
      <trkpt lat="48.04809" lon="-4.64946">
        <ele>49</ele>
        <time>2014-09-04T14:46:34Z</time>
      </trkpt>
      <trkpt lat="48.04813" lon="-4.64954">
        <ele>49</ele>
        <time>2014-09-04T14:46:43Z</time>
      </trkpt>
      <trkpt lat="48.04815" lon="-4.64961">
        <ele>49</ele>
        <time>2014-09-04T14:46:47Z</time>
      </trkpt>
      <trkpt lat="48.0483" lon="-4.64987">
        <ele>51</ele>
        <time>2014-09-04T14:47:05Z</time>
      </trkpt>
      <trkpt lat="48.04838" lon="-4.65014">
        <ele>53</ele>
        <time>2014-09-04T14:47:23Z</time>
      </trkpt>
      <trkpt lat="48.04836" lon="-4.65029">
        <ele>53</ele>
        <time>2014-09-04T14:47:39Z</time>
      </trkpt>
    </trkseg>
  </trk>
</gpx>